PWSweather.com
Personal Weather Stations
Station Observations
KCOFORTC64
Hanna Farm, Fort Collins, CO

Hanna FarmFort Collins, CO

Lat: 40.5937822, Lon: -105.099333

Elevation: 5022

Station Type: Acurite Pro 5-in-1

http://kcofortc64.dlinkddns.com/WD/wx.html

High Low Average
Temperature 58.6°F14.8°C 20.1°F-6.6°C 34.5°F1.4°C
Dew Point 40.0°F4.4°C 13.8°F-10.1°C 19.5°F-6.9°C
Winds 9.0 mph 14.5 kmh Calm Calm 2.0 mph SE3.2 kmh SE
Wind Gusts 12.0 mph19.3 kmh -- 3.0 mph4.8 kmh
Humidity 83% 40% 56%
Pressure 30.40 in1029.5 mb 30.29 in1025.7 mb -
Precipitation 0.17 in4.3 mm - -
Hour Temp Dew Point Humidity Winds Wind Gusts Pressure Precip Precip Rate Daily Precip Total
12:00 AM 27.1°F-2.7°C 17.0°F-8.3°C 65% Calm Calm -- 30.33 in1027.1 mb 0.00 in0.0 mm 0.00 in0.0 mm 0.17 in4.3 mm
12:01 AM 27.3°F-2.6°C 17.5°F-8.1°C 66% Calm Calm -- 30.34 in1027.4 mb 0.00 in0.0 mm 0.00 in0.0 mm 0.17 in4.3 mm
12:02 AM 27.3°F-2.6°C 17.5°F-8.1°C 66% 1.0 mph WNW1.6 kmh WNW 1.0 mph1.6 kmh 30.34 in1027.4 mb 0.00 in0.0 mm 0.00 in0.0 mm 0.17 in4.3 mm
12:03 AM 27.3°F-2.6°C 17.5°F-8.1°C 66% Calm Calm 1.0 mph1.6 kmh 30.34 in1027.4 mb 0.00 in0.0 mm 0.00 in0.0 mm 0.17 in4.3 mm
12:04 AM 27.3°F-2.6°C 18.2°F-7.7°C 68% Calm Calm 1.0 mph1.6 kmh 30.34 in1027.4 mb 0.00 in0.0 mm 0.00 in0.0 mm 0.17 in4.3 mm
12:05 AM 27.3°F-2.6°C 18.5°F-7.5°C 69% Calm Calm 1.0 mph1.6 kmh 30.34 in1027.4 mb 0.00 in0.0 mm 0.00 in0.0 mm 0.17 in4.3 mm
12:06 AM 27.5°F-2.5°C 19.1°F-7.2°C 70% Calm Calm 1.0 mph1.6 kmh 30.34 in1027.4 mb 0.00 in0.0 mm 0.00 in0.0 mm 0.17 in4.3 mm
12:07 AM 27.5°F-2.5°C 19.1°F-7.2°C 70% Calm Calm 1.0 mph1.6 kmh 30.34 in1027.4 mb 0.00 in0.0 mm 0.00 in0.0 mm 0.17 in4.3 mm
12:08 AM 27.5°F-2.5°C 19.1°F-7.2°C 70% Calm Calm 1.0 mph1.6 kmh 30.34 in1027.4 mb 0.00 in0.0 mm 0.00 in0.0 mm 0.17 in4.3 mm
12:09 AM 27.5°F-2.5°C 18.7°F-7.4°C 69% Calm Calm 1.0 mph1.6 kmh 30.34 in1027.4 mb 0.00 in0.0 mm 0.00 in0.0 mm 0.17 in4.3 mm
12:10 AM 27.5°F-2.5°C 18.7°F-7.4°C 69% Calm Calm 1.0 mph1.6 kmh 30.33 in1027.1 mb 0.00 in0.0 mm 0.00 in0.0 mm 0.17 in4.3 mm
12:11 AM 27.5°F-2.5°C 18.7°F-7.4°C 69% Calm Calm 1.0 mph1.6 kmh 30.34 in1027.4 mb 0.00 in0.0 mm 0.00 in0.0 mm 0.17 in4.3 mm
12:12 AM 27.5°F-2.5°C 18.7°F-7.4°C 69% Calm Calm 1.0 mph1.6 kmh 30.34 in1027.4 mb 0.00 in0.0 mm 0.00 in0.0 mm 0.17 in4.3 mm
12:13 AM 27.5°F-2.5°C 18.7°F-7.4°C 69% Calm Calm -- 30.33 in1027.1 mb 0.00 in0.0 mm 0.00 in0.0 mm 0.17 in4.3 mm
12:14 AM 27.5°F-2.5°C 18.7°F-7.4°C 69% Calm Calm 1.0 mph1.6 kmh 30.33 in1027.1 mb 0.00 in0.0 mm 0.00 in0.0 mm 0.17 in4.3 mm
12:15 AM 27.5°F-2.5°C 18.4°F-7.6°C 68% Calm Calm 1.0 mph1.6 kmh 30.33 in1027.1 mb 0.00 in0.0 mm 0.00 in0.0 mm 0.17 in4.3 mm
12:16 AM 27.3°F-2.6°C 18.2°F-7.7°C 68% Calm Calm 1.0 mph1.6 kmh 30.33 in1027.1 mb 0.00 in0.0 mm 0.00 in0.0 mm 0.17 in4.3 mm
12:17 AM 27.3°F-2.6°C 18.2°F-7.7°C 68% Calm Calm 1.0 mph1.6 kmh 30.33 in1027.1 mb 0.00 in0.0 mm 0.00 in0.0 mm 0.17 in4.3 mm
12:18 AM 27.3°F-2.6°C 18.2°F-7.7°C 68% Calm Calm 1.0 mph1.6 kmh 30.33 in1027.1 mb 0.00 in0.0 mm 0.00 in0.0 mm 0.17 in4.3 mm
12:19 AM 27.3°F-2.6°C 18.2°F-7.7°C 68% Calm Calm 1.0 mph1.6 kmh 30.33 in1027.1 mb 0.00 in0.0 mm 0.00 in0.0 mm 0.17 in4.3 mm
12:20 AM 27.1°F-2.7°C 18.0°F-7.8°C 68% Calm Calm 1.0 mph1.6 kmh 30.34 in1027.4 mb 0.00 in0.0 mm 0.00 in0.0 mm 0.17 in4.3 mm
12:21 AM 27.1°F-2.7°C 18.0°F-7.8°C 68% Calm Calm 1.0 mph1.6 kmh 30.34 in1027.4 mb 0.00 in0.0 mm 0.00 in0.0 mm 0.17 in4.3 mm
12:22 AM 27.1°F-2.7°C 17.3°F-8.2°C 66% Calm Calm 1.0 mph1.6 kmh 30.33 in1027.1 mb 0.00 in0.0 mm 0.00 in0.0 mm 0.17 in4.3 mm
12:23 AM 27.1°F-2.7°C 17.3°F-8.2°C 66% Calm Calm 1.0 mph1.6 kmh 30.34 in1027.4 mb 0.00 in0.0 mm 0.00 in0.0 mm 0.17 in4.3 mm
12:24 AM 26.9°F-2.8°C 17.1°F-8.3°C 66% Calm Calm 1.0 mph1.6 kmh 30.34 in1027.4 mb 0.00 in0.0 mm 0.00 in0.0 mm 0.17 in4.3 mm
12:25 AM 26.9°F-2.8°C 17.1°F-8.3°C 66% Calm Calm 1.0 mph1.6 kmh 30.33 in1027.1 mb 0.00 in0.0 mm 0.00 in0.0 mm 0.17 in4.3 mm
12:26 AM 26.9°F-2.8°C 17.1°F-8.3°C 66% Calm Calm -- 30.33 in1027.1 mb 0.00 in0.0 mm 0.00 in0.0 mm 0.17 in4.3 mm
12:27 AM 26.9°F-2.8°C 17.1°F-8.3°C 66% Calm Calm -- 30.33 in1027.1 mb 0.00 in0.0 mm 0.00 in0.0 mm 0.17 in4.3 mm
12:28 AM 26.9°F-2.8°C 17.1°F-8.3°C 66% Calm Calm -- 30.33 in1027.1 mb 0.00 in0.0 mm 0.00 in0.0 mm 0.17 in4.3 mm
12:29 AM 26.7°F-2.9°C 16.9°F-8.4°C 66% Calm Calm -- 30.33 in1027.1 mb 0.00 in0.0 mm 0.00 in0.0 mm 0.17 in4.3 mm
12:30 AM 26.7°F-2.9°C 16.9°F-8.4°C 66% Calm Calm -- 30.33 in1027.1 mb 0.00 in0.0 mm 0.00 in0.0 mm 0.17 in4.3 mm
12:31 AM 26.7°F-2.9°C 16.9°F-8.4°C 66% Calm Calm -- 30.33 in1027.1 mb 0.00 in0.0 mm 0.00 in0.0 mm 0.17 in4.3 mm
12:32 AM 26.7°F-2.9°C 16.9°F-8.4°C 66% Calm Calm -- 30.33 in1027.1 mb 0.00 in0.0 mm 0.00 in0.0 mm 0.17 in4.3 mm
12:33 AM 26.7°F-2.9°C 17.6°F-8.0°C 68% Calm Calm 1.0 mph1.6 kmh 30.33 in1027.1 mb 0.00 in0.0 mm 0.00 in0.0 mm 0.17 in4.3 mm
12:34 AM 26.7°F-2.9°C 17.6°F-8.0°C 68% Calm Calm 1.0 mph1.6 kmh 30.33 in1027.1 mb 0.00 in0.0 mm 0.00 in0.0 mm 0.17 in4.3 mm
12:35 AM 26.7°F-2.9°C 17.6°F-8.0°C 68% Calm Calm 1.0 mph1.6 kmh 30.33 in1027.1 mb 0.00 in0.0 mm 0.00 in0.0 mm 0.17 in4.3 mm
12:36 AM 26.7°F-2.9°C 17.6°F-8.0°C 68% 1.0 mph W1.6 kmh W 1.0 mph1.6 kmh 30.33 in1027.1 mb 0.00 in0.0 mm 0.00 in0.0 mm 0.17 in4.3 mm
12:37 AM 26.7°F-2.9°C 17.6°F-8.0°C 68% 1.0 mph W1.6 kmh W 1.0 mph1.6 kmh 30.33 in1027.1 mb 0.00 in0.0 mm 0.00 in0.0 mm 0.17 in4.3 mm
12:38 AM 26.7°F-2.9°C 17.6°F-8.0°C 68% Calm Calm 1.0 mph1.6 kmh 30.33 in1027.1 mb 0.00 in0.0 mm 0.00 in0.0 mm 0.17 in4.3 mm
12:39 AM 26.7°F-2.9°C 17.6°F-8.0°C 68% Calm Calm 1.0 mph1.6 kmh 30.33 in1027.1 mb 0.00 in0.0 mm 0.00 in0.0 mm 0.17 in4.3 mm
12:40 AM 26.7°F-2.9°C 16.9°F-8.4°C 66% Calm Calm 1.0 mph1.6 kmh 30.33 in1027.1 mb 0.00 in0.0 mm 0.00 in0.0 mm 0.17 in4.3 mm
12:41 AM 26.6°F-3.0°C 16.8°F-8.4°C 66% 2.0 mph W3.2 kmh W 2.0 mph3.2 kmh 30.33 in1027.1 mb 0.00 in0.0 mm 0.00 in0.0 mm 0.17 in4.3 mm
12:42 AM 26.6°F-3.0°C 16.8°F-8.4°C 66% 2.0 mph W3.2 kmh W 2.0 mph3.2 kmh 30.33 in1027.1 mb 0.00 in0.0 mm 0.00 in0.0 mm 0.17 in4.3 mm
12:43 AM 26.6°F-3.0°C 16.8°F-8.4°C 66% Calm Calm 2.0 mph3.2 kmh 30.34 in1027.4 mb 0.00 in0.0 mm 0.00 in0.0 mm 0.17 in4.3 mm
12:44 AM 26.6°F-3.0°C 16.8°F-8.4°C 66% Calm Calm 2.0 mph3.2 kmh 30.33 in1027.1 mb 0.00 in0.0 mm 0.00 in0.0 mm 0.17 in4.3 mm
12:45 AM 26.6°F-3.0°C 16.8°F-8.4°C 66% Calm Calm 2.0 mph3.2 kmh 30.33 in1027.1 mb 0.00 in0.0 mm 0.00 in0.0 mm 0.17 in4.3 mm
12:46 AM 26.6°F-3.0°C 16.8°F-8.4°C 66% Calm Calm 2.0 mph3.2 kmh 30.33 in1027.1 mb 0.00 in0.0 mm 0.00 in0.0 mm 0.17 in4.3 mm
12:47 AM 26.6°F-3.0°C 17.5°F-8.1°C 68% Calm Calm 2.0 mph3.2 kmh 30.33 in1027.1 mb 0.00 in0.0 mm 0.00 in0.0 mm 0.17 in4.3 mm
12:48 AM 26.6°F-3.0°C 17.5°F-8.1°C 68% Calm Calm 2.0 mph3.2 kmh 30.33 in1027.1 mb 0.00 in0.0 mm 0.00 in0.0 mm 0.17 in4.3 mm
12:49 AM 26.6°F-3.0°C 17.5°F-8.1°C 68% Calm Calm 2.0 mph3.2 kmh 30.33 in1027.1 mb 0.00 in0.0 mm 0.00 in0.0 mm 0.17 in4.3 mm
12:50 AM 26.6°F-3.0°C 17.5°F-8.1°C 68% Calm Calm 2.0 mph3.2 kmh 30.33 in1027.1 mb 0.00 in0.0 mm 0.00 in0.0 mm 0.17 in4.3 mm
12:51 AM 26.6°F-3.0°C 17.5°F-8.1°C 68% 1.0 mph WSW1.6 kmh WSW 2.0 mph3.2 kmh 30.33 in1027.1 mb 0.00 in0.0 mm 0.00 in0.0 mm 0.17 in4.3 mm
12:52 AM 26.6°F-3.0°C 17.5°F-8.1°C 68% Calm Calm 1.0 mph1.6 kmh 30.33 in1027.1 mb 0.00 in0.0 mm 0.00 in0.0 mm 0.17 in4.3 mm
12:53 AM 26.6°F-3.0°C 17.5°F-8.1°C 68% Calm Calm 1.0 mph1.6 kmh 30.33 in1027.1 mb 0.00 in0.0 mm 0.00 in0.0 mm 0.17 in4.3 mm
12:54 AM 26.6°F-3.0°C 17.5°F-8.1°C 68% Calm Calm 1.0 mph1.6 kmh 30.33 in1027.1 mb 0.00 in0.0 mm 0.00 in0.0 mm 0.17 in4.3 mm
12:55 AM 26.6°F-3.0°C 17.5°F-8.1°C 68% Calm Calm 1.0 mph1.6 kmh 30.33 in1027.1 mb 0.00 in0.0 mm 0.00 in0.0 mm 0.17 in4.3 mm
12:56 AM 26.6°F-3.0°C 17.5°F-8.1°C 68% Calm Calm 1.0 mph1.6 kmh 30.33 in1027.1 mb 0.00 in0.0 mm 0.00 in0.0 mm 0.17 in4.3 mm
12:57 AM 26.6°F-3.0°C 17.5°F-8.1°C 68% Calm Calm 1.0 mph1.6 kmh 30.33 in1027.1 mb 0.00 in0.0 mm 0.00 in0.0 mm 0.17 in4.3 mm
12:58 AM 26.4°F-3.1°C 17.7°F-7.9°C 69% Calm Calm 1.0 mph1.6 kmh 30.34 in1027.4 mb 0.00 in0.0 mm 0.00 in0.0 mm 0.17 in4.3 mm
12:59 AM 26.4°F-3.1°C 17.7°F-7.9°C 69% Calm Calm 1.0 mph1.6 kmh 30.34 in1027.4 mb 0.00 in0.0 mm 0.00 in0.0 mm 0.17 in4.3 mm
01:00 AM 26.4°F-3.1°C 17.7°F-7.9°C 69% Calm Calm 1.0 mph1.6 kmh 30.34 in1027.4 mb 0.00 in0.0 mm 0.00 in0.0 mm 0.17 in4.3 mm
01:01 AM 26.4°F-3.1°C 17.7°F-7.9°C 69% Calm Calm 1.0 mph1.6 kmh 30.34 in1027.4 mb 0.00 in0.0 mm 0.00 in0.0 mm 0.17 in4.3 mm
01:02 AM 26.4°F-3.1°C 17.7°F-7.9°C 69% Calm Calm -- 30.34 in1027.4 mb 0.00 in0.0 mm 0.00 in0.0 mm 0.17 in4.3 mm
01:03 AM 26.4°F-3.1°C 18.0°F-7.8°C 70% Calm Calm -- 30.34 in1027.4 mb 0.00 in0.0 mm 0.00 in0.0 mm 0.17 in4.3 mm
01:04 AM 26.4°F-3.1°C 18.0°F-7.8°C 70% Calm Calm -- 30.33 in1027.1 mb 0.00 in0.0 mm 0.00 in0.0 mm 0.17 in4.3 mm
01:05 AM 26.4°F-3.1°C 18.0°F-7.8°C 70% Calm Calm -- 30.33 in1027.1 mb 0.00 in0.0 mm 0.00 in0.0 mm 0.17 in4.3 mm
01:06 AM 26.4°F-3.1°C 18.0°F-7.8°C 70% Calm Calm -- 30.34 in1027.4 mb 0.00 in0.0 mm 0.00 in0.0 mm 0.17 in4.3 mm
01:07 AM 26.4°F-3.1°C 18.0°F-7.8°C 70% Calm Calm -- 30.34 in1027.4 mb 0.00 in0.0 mm 0.00 in0.0 mm 0.17 in4.3 mm
01:08 AM 26.4°F-3.1°C 18.0°F-7.8°C 70% Calm Calm -- 30.34 in1027.4 mb 0.00 in0.0 mm 0.00 in0.0 mm 0.17 in4.3 mm
01:09 AM 26.6°F-3.0°C 17.9°F-7.8°C 69% Calm Calm -- 30.34 in1027.4 mb 0.00 in0.0 mm 0.00 in0.0 mm 0.17 in4.3 mm
01:10 AM 26.6°F-3.0°C 17.9°F-7.8°C 69% Calm Calm -- 30.34 in1027.4 mb 0.00 in0.0 mm 0.00 in0.0 mm 0.17 in4.3 mm
01:11 AM 26.6°F-3.0°C 18.2°F-7.7°C 70% Calm Calm -- 30.34 in1027.4 mb 0.00 in0.0 mm 0.00 in0.0 mm 0.17 in4.3 mm
01:12 AM 26.6°F-3.0°C 18.2°F-7.7°C 70% Calm Calm -- 30.34 in1027.4 mb 0.00 in0.0 mm 0.00 in0.0 mm 0.17 in4.3 mm
01:13 AM 26.6°F-3.0°C 18.2°F-7.7°C 70% Calm Calm -- 30.34 in1027.4 mb 0.00 in0.0 mm 0.00 in0.0 mm 0.17 in4.3 mm
01:14 AM 26.6°F-3.0°C 18.2°F-7.7°C 70% Calm Calm -- 30.34 in1027.4 mb 0.00 in0.0 mm 0.00 in0.0 mm 0.17 in4.3 mm
01:15 AM 26.6°F-3.0°C 18.2°F-7.7°C 70% Calm Calm -- 30.34 in1027.4 mb 0.00 in0.0 mm 0.00 in0.0 mm 0.17 in4.3 mm
01:16 AM 26.6°F-3.0°C 17.9°F-7.8°C 69% Calm Calm -- 30.34 in1027.4 mb 0.00 in0.0 mm 0.00 in0.0 mm 0.17 in4.3 mm
01:17 AM 26.6°F-3.0°C 17.9°F-7.8°C 69% Calm Calm -- 30.34 in1027.4 mb 0.00 in0.0 mm 0.00 in0.0 mm 0.17 in4.3 mm
01:18 AM 26.6°F-3.0°C 17.9°F-7.8°C 69% Calm Calm -- 30.33 in1027.1 mb 0.00 in0.0 mm 0.00 in0.0 mm 0.17 in4.3 mm
01:19 AM 26.6°F-3.0°C 17.9°F-7.8°C 69% Calm Calm -- 30.33 in1027.1 mb 0.00 in0.0 mm 0.00 in0.0 mm 0.17 in4.3 mm
01:20 AM 26.6°F-3.0°C 17.9°F-7.8°C 69% Calm Calm -- 30.33 in1027.1 mb 0.00 in0.0 mm 0.00 in0.0 mm 0.17 in4.3 mm
01:21 AM 26.6°F-3.0°C 17.9°F-7.8°C 69% Calm Calm -- 30.33 in1027.1 mb 0.00 in0.0 mm 0.00 in0.0 mm 0.17 in4.3 mm
01:22 AM 26.6°F-3.0°C 17.9°F-7.8°C 69% Calm Calm -- 30.33 in1027.1 mb 0.00 in0.0 mm 0.00 in0.0 mm 0.17 in4.3 mm
01:23 AM 26.6°F-3.0°C 17.9°F-7.8°C 69% Calm Calm -- 30.34 in1027.4 mb 0.00 in0.0 mm 0.00 in0.0 mm 0.17 in4.3 mm
01:24 AM 26.6°F-3.0°C 17.9°F-7.8°C 69% Calm Calm -- 30.34 in1027.4 mb 0.00 in0.0 mm 0.00 in0.0 mm 0.17 in4.3 mm
01:25 AM 26.6°F-3.0°C 17.9°F-7.8°C 69% Calm Calm -- 30.33 in1027.1 mb 0.00 in0.0 mm 0.00 in0.0 mm 0.17 in4.3 mm
01:26 AM 26.6°F-3.0°C 17.9°F-7.8°C 69% Calm Calm -- 30.33 in1027.1 mb 0.00 in0.0 mm 0.00 in0.0 mm 0.17 in4.3 mm
01:27 AM 26.6°F-3.0°C 17.9°F-7.8°C 69% Calm Calm -- 30.34 in1027.4 mb 0.00 in0.0 mm 0.00 in0.0 mm 0.17 in4.3 mm
01:28 AM 26.6°F-3.0°C 17.9°F-7.8°C 69% Calm Calm -- 30.34 in1027.4 mb 0.00 in0.0 mm 0.00 in0.0 mm 0.17 in4.3 mm
01:29 AM 26.6°F-3.0°C 17.9°F-7.8°C 69% Calm Calm -- 30.34 in1027.4 mb 0.00 in0.0 mm 0.00 in0.0 mm 0.17 in4.3 mm
01:30 AM 26.6°F-3.0°C 17.9°F-7.8°C 69% Calm Calm -- 30.34 in1027.4 mb 0.00 in0.0 mm 0.00 in0.0 mm 0.17 in4.3 mm
01:31 AM 26.6°F-3.0°C 17.9°F-7.8°C 69% Calm Calm -- 30.34 in1027.4 mb 0.00 in0.0 mm 0.00 in0.0 mm 0.17 in4.3 mm
01:32 AM 26.6°F-3.0°C 17.9°F-7.8°C 69% Calm Calm -- 30.34 in1027.4 mb 0.00 in0.0 mm 0.00 in0.0 mm 0.17 in4.3 mm
01:33 AM 26.6°F-3.0°C 17.9°F-7.8°C 69% Calm Calm -- 30.34 in1027.4 mb 0.00 in0.0 mm 0.00 in0.0 mm 0.17 in4.3 mm
01:34 AM 26.6°F-3.0°C 17.5°F-8.1°C 68% Calm Calm -- 30.34 in1027.4 mb 0.00 in0.0 mm 0.00 in0.0 mm 0.17 in4.3 mm
01:35 AM 26.6°F-3.0°C 17.5°F-8.1°C 68% Calm Calm -- 30.34 in1027.4 mb 0.00 in0.0 mm 0.00 in0.0 mm 0.17 in4.3 mm
01:36 AM 26.6°F-3.0°C 17.5°F-8.1°C 68% Calm Calm -- 30.34 in1027.4 mb 0.00 in0.0 mm 0.00 in0.0 mm 0.17 in4.3 mm
01:37 AM 26.6°F-3.0°C 17.5°F-8.1°C 68% Calm Calm -- 30.33 in1027.1 mb 0.00 in0.0 mm 0.00 in0.0 mm 0.17 in4.3 mm
01:38 AM 26.6°F-3.0°C 17.5°F-8.1°C 68% Calm Calm -- 30.33 in1027.1 mb 0.00 in0.0 mm 0.00 in0.0 mm 0.17 in4.3 mm
01:39 AM 26.4°F-3.1°C 18.0°F-7.8°C 70% Calm Calm -- 30.33 in1027.1 mb 0.00 in0.0 mm 0.00 in0.0 mm 0.17 in4.3 mm
01:40 AM 26.4°F-3.1°C 18.0°F-7.8°C 70% Calm Calm -- 30.34 in1027.4 mb 0.00 in0.0 mm 0.00 in0.0 mm 0.17 in4.3 mm
01:41 AM 26.4°F-3.1°C 18.0°F-7.8°C 70% Calm Calm -- 30.33 in1027.1 mb 0.00 in0.0 mm 0.00 in0.0 mm 0.17 in4.3 mm
01:42 AM 26.4°F-3.1°C 18.0°F-7.8°C 70% Calm Calm -- 30.33 in1027.1 mb 0.00 in0.0 mm 0.00 in0.0 mm 0.17 in4.3 mm
01:43 AM 26.2°F-3.2°C 17.8°F-7.9°C 70% Calm Calm -- 30.33 in1027.1 mb 0.00 in0.0 mm 0.00 in0.0 mm 0.17 in4.3 mm
01:44 AM 26.2°F-3.2°C 17.8°F-7.9°C 70% Calm Calm -- 30.34 in1027.4 mb 0.00 in0.0 mm 0.00 in0.0 mm 0.17 in4.3 mm
01:45 AM 26.2°F-3.2°C 17.8°F-7.9°C 70% Calm Calm -- 30.34 in1027.4 mb 0.00 in0.0 mm 0.00 in0.0 mm 0.17 in4.3 mm
01:46 AM 26.2°F-3.2°C 17.8°F-7.9°C 70% Calm Calm -- 30.34 in1027.4 mb 0.00 in0.0 mm 0.00 in0.0 mm 0.17 in4.3 mm
01:47 AM 26.2°F-3.2°C 17.8°F-7.9°C 70% Calm Calm -- 30.34 in1027.4 mb 0.00 in0.0 mm 0.00 in0.0 mm 0.17 in4.3 mm
01:48 AM 26.0°F-3.3°C 17.6°F-8.0°C 70% Calm Calm -- 30.34 in1027.4 mb 0.00 in0.0 mm 0.00 in0.0 mm 0.17 in4.3 mm
01:49 AM 26.0°F-3.3°C 17.6°F-8.0°C 70% Calm Calm -- 30.34 in1027.4 mb 0.00 in0.0 mm 0.00 in0.0 mm 0.17 in4.3 mm
01:50 AM 26.0°F-3.3°C 17.6°F-8.0°C 70% Calm Calm -- 30.34 in1027.4 mb 0.00 in0.0 mm 0.00 in0.0 mm 0.17 in4.3 mm
01:51 AM 26.0°F-3.3°C 17.6°F-8.0°C 70% Calm Calm -- 30.34 in1027.4 mb 0.00 in0.0 mm 0.00 in0.0 mm 0.17 in4.3 mm
01:52 AM 26.0°F-3.3°C 17.6°F-8.0°C 70% Calm Calm -- 30.34 in1027.4 mb 0.00 in0.0 mm 0.00 in0.0 mm 0.17 in4.3 mm
01:53 AM 26.0°F-3.3°C 17.6°F-8.0°C 70% Calm Calm -- 30.34 in1027.4 mb 0.00 in0.0 mm 0.00 in0.0 mm 0.17 in4.3 mm
01:54 AM 25.8°F-3.4°C 17.4°F-8.1°C 70% Calm Calm -- 30.34 in1027.4 mb 0.00 in0.0 mm 0.00 in0.0 mm 0.17 in4.3 mm
01:55 AM 25.8°F-3.4°C 17.4°F-8.1°C 70% Calm Calm -- 30.34 in1027.4 mb 0.00 in0.0 mm 0.00 in0.0 mm 0.17 in4.3 mm
01:56 AM 25.8°F-3.4°C 17.4°F-8.1°C 70% Calm Calm -- 30.33 in1027.1 mb 0.00 in0.0 mm 0.00 in0.0 mm 0.17 in4.3 mm
01:57 AM 25.8°F-3.4°C 17.4°F-8.1°C 70% Calm Calm -- 30.33 in1027.1 mb 0.00 in0.0 mm 0.00 in0.0 mm 0.17 in4.3 mm
01:58 AM 25.7°F-3.5°C 17.3°F-8.2°C 70% Calm Calm -- 30.33 in1027.1 mb 0.00 in0.0 mm 0.00 in0.0 mm 0.17 in4.3 mm
01:59 AM 25.7°F-3.5°C 17.3°F-8.2°C 70% Calm Calm -- 30.33 in1027.1 mb 0.00 in0.0 mm 0.00 in0.0 mm 0.17 in4.3 mm
02:00 AM 25.5°F-3.6°C 17.1°F-8.3°C 70% Calm Calm -- 30.33 in1027.1 mb 0.00 in0.0 mm 0.00 in0.0 mm 0.17 in4.3 mm
02:01 AM 25.5°F-3.6°C 17.1°F-8.3°C 70% Calm Calm -- 30.33 in1027.1 mb 0.00 in0.0 mm 0.00 in0.0 mm 0.17 in4.3 mm
02:02 AM 25.5°F-3.6°C 17.1°F-8.3°C 70% Calm Calm -- 30.33 in1027.1 mb 0.00 in0.0 mm 0.00 in0.0 mm 0.17 in4.3 mm
02:03 AM 25.3°F-3.7°C 16.9°F-8.4°C 70% Calm Calm -- 30.33 in1027.1 mb 0.00 in0.0 mm 0.00 in0.0 mm 0.17 in4.3 mm
02:04 AM 25.3°F-3.7°C 16.9°F-8.4°C 70% Calm Calm -- 30.34 in1027.4 mb 0.00 in0.0 mm 0.00 in0.0 mm 0.17 in4.3 mm
02:05 AM 25.3°F-3.7°C 16.9°F-8.4°C 70% Calm Calm -- 30.34 in1027.4 mb 0.00 in0.0 mm 0.00 in0.0 mm 0.17 in4.3 mm
02:06 AM 25.3°F-3.7°C 16.9°F-8.4°C 70% Calm Calm -- 30.34 in1027.4 mb 0.00 in0.0 mm 0.00 in0.0 mm 0.17 in4.3 mm
02:07 AM 25.3°F-3.7°C 16.9°F-8.4°C 70% Calm Calm -- 30.34 in1027.4 mb 0.00 in0.0 mm 0.00 in0.0 mm 0.17 in4.3 mm
02:08 AM 25.3°F-3.7°C 16.9°F-8.4°C 70% Calm Calm -- 30.33 in1027.1 mb 0.00 in0.0 mm 0.00 in0.0 mm 0.17 in4.3 mm
02:09 AM 25.3°F-3.7°C 16.9°F-8.4°C 70% Calm Calm -- 30.34 in1027.4 mb 0.00 in0.0 mm 0.00 in0.0 mm 0.17 in4.3 mm
02:10 AM 25.3°F-3.7°C 16.9°F-8.4°C 70% Calm Calm -- 30.34 in1027.4 mb 0.00 in0.0 mm 0.00 in0.0 mm 0.17 in4.3 mm
02:11 AM 25.3°F-3.7°C 16.9°F-8.4°C 70% Calm Calm -- 30.34 in1027.4 mb 0.00 in0.0 mm 0.00 in0.0 mm 0.17 in4.3 mm
02:12 AM 25.3°F-3.7°C 16.9°F-8.4°C 70% Calm Calm -- 30.34 in1027.4 mb 0.00 in0.0 mm 0.00 in0.0 mm 0.17 in4.3 mm
02:13 AM 25.3°F-3.7°C 16.9°F-8.4°C 70% Calm Calm -- 30.34 in1027.4 mb 0.00 in0.0 mm 0.00 in0.0 mm 0.17 in4.3 mm
02:14 AM 25.3°F-3.7°C 16.9°F-8.4°C 70% Calm Calm -- 30.34 in1027.4 mb 0.00 in0.0 mm 0.00 in0.0 mm 0.17 in4.3 mm
02:15 AM 25.3°F-3.7°C 16.9°F-8.4°C 70% Calm Calm -- 30.34 in1027.4 mb 0.00 in0.0 mm 0.00 in0.0 mm 0.17 in4.3 mm
02:16 AM 25.3°F-3.7°C 16.9°F-8.4°C 70% Calm Calm -- 30.34 in1027.4 mb 0.00 in0.0 mm 0.00 in0.0 mm 0.17 in4.3 mm
02:17 AM 25.1°F-3.8°C 16.7°F-8.5°C 70% Calm Calm -- 30.34 in1027.4 mb 0.00 in0.0 mm 0.00 in0.0 mm 0.17 in4.3 mm
02:18 AM 25.1°F-3.8°C 16.7°F-8.5°C 70% Calm Calm -- 30.34 in1027.4 mb 0.00 in0.0 mm 0.00 in0.0 mm 0.17 in4.3 mm
02:19 AM 25.1°F-3.8°C 16.7°F-8.5°C 70% Calm Calm -- 30.34 in1027.4 mb 0.00 in0.0 mm 0.00 in0.0 mm 0.17 in4.3 mm
02:20 AM 25.1°F-3.8°C 16.7°F-8.5°C 70% Calm Calm -- 30.34 in1027.4 mb 0.00 in0.0 mm 0.00 in0.0 mm 0.17 in4.3 mm
02:21 AM 25.1°F-3.8°C 16.7°F-8.5°C 70% Calm Calm -- 30.34 in1027.4 mb 0.00 in0.0 mm 0.00 in0.0 mm 0.17 in4.3 mm
02:22 AM 25.1°F-3.8°C 16.7°F-8.5°C 70% Calm Calm -- 30.34 in1027.4 mb 0.00 in0.0 mm 0.00 in0.0 mm 0.17 in4.3 mm
02:23 AM 25.1°F-3.8°C 16.7°F-8.5°C 70% Calm Calm -- 30.34 in1027.4 mb 0.00 in0.0 mm 0.00 in0.0 mm 0.17 in4.3 mm
02:24 AM 25.1°F-3.8°C 16.7°F-8.5°C 70% Calm Calm -- 30.34 in1027.4 mb 0.00 in0.0 mm 0.00 in0.0 mm 0.17 in4.3 mm
02:25 AM 24.9°F-3.9°C 16.6°F-8.6°C 70% Calm Calm -- 30.34 in1027.4 mb 0.00 in0.0 mm 0.00 in0.0 mm 0.17 in4.3 mm
02:26 AM 24.9°F-3.9°C 16.6°F-8.6°C 70% Calm Calm -- 30.34 in1027.4 mb 0.00 in0.0 mm 0.00 in0.0 mm 0.17 in4.3 mm
02:27 AM 24.9°F-3.9°C 16.6°F-8.6°C 70% Calm Calm -- 30.34 in1027.4 mb 0.00 in0.0 mm 0.00 in0.0 mm 0.17 in4.3 mm
02:28 AM 24.9°F-3.9°C 16.6°F-8.6°C 70% Calm Calm -- 30.34 in1027.4 mb 0.00 in0.0 mm 0.00 in0.0 mm 0.17 in4.3 mm
02:29 AM 24.9°F-3.9°C 16.6°F-8.6°C 70% Calm Calm -- 30.33 in1027.1 mb 0.00 in0.0 mm 0.00 in0.0 mm 0.17 in4.3 mm
02:30 AM 24.9°F-3.9°C 16.6°F-8.6°C 70% Calm Calm -- 30.34 in1027.4 mb 0.00 in0.0 mm 0.00 in0.0 mm 0.17 in4.3 mm
02:31 AM 24.9°F-3.9°C 16.6°F-8.6°C 70% Calm Calm -- 30.34 in1027.4 mb 0.00 in0.0 mm 0.00 in0.0 mm 0.17 in4.3 mm
02:32 AM 24.9°F-3.9°C 16.6°F-8.6°C 70% Calm Calm -- 30.34 in1027.4 mb 0.00 in0.0 mm 0.00 in0.0 mm 0.17 in4.3 mm
02:33 AM 24.9°F-3.9°C 16.6°F-8.6°C 70% Calm Calm -- 30.34 in1027.4 mb 0.00 in0.0 mm 0.00 in0.0 mm 0.17 in4.3 mm
02:34 AM 24.9°F-3.9°C 16.6°F-8.6°C 70% Calm Calm -- 30.34 in1027.4 mb 0.00 in0.0 mm 0.00 in0.0 mm 0.17 in4.3 mm
02:35 AM 24.9°F-3.9°C 16.6°F-8.6°C 70% Calm Calm -- 30.34 in1027.4 mb 0.00 in0.0 mm 0.00 in0.0 mm 0.17 in4.3 mm
02:36 AM 24.9°F-3.9°C 16.6°F-8.6°C 70% Calm Calm -- 30.34 in1027.4 mb 0.00 in0.0 mm 0.00 in0.0 mm 0.17 in4.3 mm
02:37 AM 24.8°F-4.0°C 16.5°F-8.6°C 70% Calm Calm -- 30.34 in1027.4 mb 0.00 in0.0 mm 0.00 in0.0 mm 0.17 in4.3 mm
02:38 AM 24.8°F-4.0°C 16.5°F-8.6°C 70% Calm Calm -- 30.34 in1027.4 mb 0.00 in0.0 mm 0.00 in0.0 mm 0.17 in4.3 mm
02:39 AM 24.8°F-4.0°C 16.5°F-8.6°C 70% Calm Calm -- 30.34 in1027.4 mb 0.00 in0.0 mm 0.00 in0.0 mm 0.17 in4.3 mm
02:40 AM 24.8°F-4.0°C 16.5°F-8.6°C 70% Calm Calm -- 30.34 in1027.4 mb 0.00 in0.0 mm 0.00 in0.0 mm 0.17 in4.3 mm
02:41 AM 24.8°F-4.0°C 16.5°F-8.6°C 70% Calm Calm -- 30.34 in1027.4 mb 0.00 in0.0 mm 0.00 in0.0 mm 0.17 in4.3 mm
02:42 AM 24.8°F-4.0°C 16.5°F-8.6°C 70% Calm Calm -- 30.34 in1027.4 mb 0.00 in0.0 mm 0.00 in0.0 mm 0.17 in4.3 mm
02:43 AM 24.8°F-4.0°C 16.5°F-8.6°C 70% Calm Calm -- 30.34 in1027.4 mb 0.00 in0.0 mm 0.00 in0.0 mm 0.17 in4.3 mm
02:44 AM 24.8°F-4.0°C 16.5°F-8.6°C 70% Calm Calm -- 30.34 in1027.4 mb 0.00 in0.0 mm 0.00 in0.0 mm 0.17 in4.3 mm
02:45 AM 24.8°F-4.0°C 16.5°F-8.6°C 70% Calm Calm -- 30.35 in1027.8 mb 0.00 in0.0 mm 0.00 in0.0 mm 0.17 in4.3 mm
02:46 AM 24.8°F-4.0°C 16.5°F-8.6°C 70% Calm Calm -- 30.35 in1027.8 mb 0.00 in0.0 mm 0.00 in0.0 mm 0.17 in4.3 mm
02:47 AM 24.8°F-4.0°C 16.5°F-8.6°C 70% Calm Calm -- 30.34 in1027.4 mb 0.00 in0.0 mm 0.00 in0.0 mm 0.17 in4.3 mm
02:48 AM 24.8°F-4.0°C 16.5°F-8.6°C 70% Calm Calm -- 30.34 in1027.4 mb 0.00 in0.0 mm 0.00 in0.0 mm 0.17 in4.3 mm
02:49 AM 24.8°F-4.0°C 16.5°F-8.6°C 70% Calm Calm -- 30.34 in1027.4 mb 0.00 in0.0 mm 0.00 in0.0 mm 0.17 in4.3 mm
02:50 AM 24.8°F-4.0°C 16.5°F-8.6°C 70% Calm Calm -- 30.35 in1027.8 mb 0.00 in0.0 mm 0.00 in0.0 mm 0.17 in4.3 mm
02:51 AM 24.8°F-4.0°C 16.5°F-8.6°C 70% Calm Calm -- 30.35 in1027.8 mb 0.00 in0.0 mm 0.00 in0.0 mm 0.17 in4.3 mm
02:52 AM 24.8°F-4.0°C 16.5°F-8.6°C 70% Calm Calm -- 30.34 in1027.4 mb 0.00 in0.0 mm 0.00 in0.0 mm 0.17 in4.3 mm
02:53 AM 24.8°F-4.0°C 16.5°F-8.6°C 70% Calm Calm -- 30.34 in1027.4 mb 0.00 in0.0 mm 0.00 in0.0 mm 0.17 in4.3 mm
02:54 AM 24.8°F-4.0°C 16.5°F-8.6°C 70% Calm Calm -- 30.34 in1027.4 mb 0.00 in0.0 mm 0.00 in0.0 mm 0.17 in4.3 mm
02:55 AM 24.8°F-4.0°C 16.5°F-8.6°C 70% Calm Calm -- 30.34 in1027.4 mb 0.00 in0.0 mm 0.00 in0.0 mm 0.17 in4.3 mm
02:56 AM 24.8°F-4.0°C 16.5°F-8.6°C 70% Calm Calm -- 30.34 in1027.4 mb 0.00 in0.0 mm 0.00 in0.0 mm 0.17 in4.3 mm
02:57 AM 24.8°F-4.0°C 16.5°F-8.6°C 70% Calm Calm -- 30.34 in1027.4 mb 0.00 in0.0 mm 0.00 in0.0 mm 0.17 in4.3 mm
02:58 AM 24.8°F-4.0°C 16.5°F-8.6°C 70% Calm Calm -- 30.34 in1027.4 mb 0.00 in0.0 mm 0.00 in0.0 mm 0.17 in4.3 mm
02:59 AM 24.8°F-4.0°C 16.5°F-8.6°C 70% Calm Calm -- 30.34 in1027.4 mb 0.00 in0.0 mm 0.00 in0.0 mm 0.17 in4.3 mm
03:00 AM 24.8°F-4.0°C 16.5°F-8.6°C 70% Calm Calm -- 30.34 in1027.4 mb 0.00 in0.0 mm 0.00 in0.0 mm 0.17 in4.3 mm
03:01 AM 24.8°F-4.0°C 16.5°F-8.6°C 70% Calm Calm -- 30.34 in1027.4 mb 0.00 in0.0 mm 0.00 in0.0 mm 0.17 in4.3 mm
03:02 AM 24.6°F-4.1°C 16.6°F-8.6°C 71% Calm Calm -- 30.34 in1027.4 mb 0.00 in0.0 mm 0.00 in0.0 mm 0.17 in4.3 mm
03:03 AM 24.6°F-4.1°C 16.6°F-8.6°C 71% Calm Calm -- 30.34 in1027.4 mb 0.00 in0.0 mm 0.00 in0.0 mm 0.17 in4.3 mm
03:04 AM 24.6°F-4.1°C 16.6°F-8.6°C 71% Calm Calm -- 30.34 in1027.4 mb 0.00 in0.0 mm 0.00 in0.0 mm 0.17 in4.3 mm
03:05 AM 24.6°F-4.1°C 16.6°F-8.6°C 71% Calm Calm -- 30.34 in1027.4 mb 0.00 in0.0 mm 0.00 in0.0 mm 0.17 in4.3 mm
03:06 AM 24.6°F-4.1°C 16.6°F-8.6°C 71% Calm Calm -- 30.34 in1027.4 mb 0.00 in0.0 mm 0.00 in0.0 mm 0.17 in4.3 mm
03:07 AM 24.6°F-4.1°C 16.6°F-8.6°C 71% Calm Calm -- 30.34 in1027.4 mb 0.00 in0.0 mm 0.00 in0.0 mm 0.17 in4.3 mm
03:08 AM 24.6°F-4.1°C 16.6°F-8.6°C 71% Calm Calm -- 30.34 in1027.4 mb 0.00 in0.0 mm 0.00 in0.0 mm 0.17 in4.3 mm
03:09 AM 24.6°F-4.1°C 16.6°F-8.6°C 71% Calm Calm -- 30.34 in1027.4 mb 0.00 in0.0 mm 0.00 in0.0 mm 0.17 in4.3 mm
03:10 AM 24.6°F-4.1°C 16.6°F-8.6°C 71% Calm Calm -- 30.34 in1027.4 mb 0.00 in0.0 mm 0.00 in0.0 mm 0.17 in4.3 mm
03:11 AM 24.6°F-4.1°C 16.6°F-8.6°C 71% Calm Calm -- 30.34 in1027.4 mb 0.00 in0.0 mm 0.00 in0.0 mm 0.17 in4.3 mm
03:12 AM 24.6°F-4.1°C 16.6°F-8.6°C 71% Calm Calm -- 30.34 in1027.4 mb 0.00 in0.0 mm 0.00 in0.0 mm 0.17 in4.3 mm
03:13 AM 24.6°F-4.1°C 16.6°F-8.6°C 71% Calm Calm -- 30.34 in1027.4 mb 0.00 in0.0 mm 0.00 in0.0 mm 0.17 in4.3 mm
03:14 AM 24.6°F-4.1°C 16.6°F-8.6°C 71% Calm Calm -- 30.34 in1027.4 mb 0.00 in0.0 mm 0.00 in0.0 mm 0.17 in4.3 mm
03:15 AM 24.6°F-4.1°C 16.6°F-8.6°C 71% Calm Calm -- 30.34 in1027.4 mb 0.00 in0.0 mm 0.00 in0.0 mm 0.17 in4.3 mm
03:16 AM 24.6°F-4.1°C 16.6°F-8.6°C 71% Calm Calm -- 30.34 in1027.4 mb 0.00 in0.0 mm 0.00 in0.0 mm 0.17 in4.3 mm
03:17 AM 24.6°F-4.1°C 16.6°F-8.6°C 71% Calm Calm -- 30.34 in1027.4 mb 0.00 in0.0 mm 0.00 in0.0 mm 0.17 in4.3 mm
03:18 AM 24.6°F-4.1°C 16.6°F-8.6°C 71% Calm Calm -- 30.34 in1027.4 mb 0.00 in0.0 mm 0.00 in0.0 mm 0.17 in4.3 mm
03:19 AM 24.6°F-4.1°C 16.6°F-8.6°C 71% Calm Calm -- 30.34 in1027.4 mb 0.00 in0.0 mm 0.00 in0.0 mm 0.17 in4.3 mm
03:20 AM 24.4°F-4.2°C 16.4°F-8.7°C 71% Calm Calm -- 30.34 in1027.4 mb 0.00 in0.0 mm 0.00 in0.0 mm 0.17 in4.3 mm
03:21 AM 24.4°F-4.2°C 16.4°F-8.7°C 71% Calm Calm -- 30.34 in1027.4 mb 0.00 in0.0 mm 0.00 in0.0 mm 0.17 in4.3 mm
03:22 AM 24.4°F-4.2°C 16.4°F-8.7°C 71% Calm Calm -- 30.34 in1027.4 mb 0.00 in0.0 mm 0.00 in0.0 mm 0.17 in4.3 mm
03:23 AM 24.4°F-4.2°C 16.4°F-8.7°C 71% Calm Calm -- 30.34 in1027.4 mb 0.00 in0.0 mm 0.00 in0.0 mm 0.17 in4.3 mm
03:24 AM 24.4°F-4.2°C 16.4°F-8.7°C 71% Calm Calm -- 30.34 in1027.4 mb 0.00 in0.0 mm 0.00 in0.0 mm 0.17 in4.3 mm
03:25 AM 24.4°F-4.2°C 16.4°F-8.7°C 71% Calm Calm -- 30.34 in1027.4 mb 0.00 in0.0 mm 0.00 in0.0 mm 0.17 in4.3 mm
03:26 AM 24.4°F-4.2°C 16.4°F-8.7°C 71% Calm Calm -- 30.34 in1027.4 mb 0.00 in0.0 mm 0.00 in0.0 mm 0.17 in4.3 mm
03:27 AM 24.4°F-4.2°C 16.4°F-8.7°C 71% Calm Calm -- 30.35 in1027.8 mb 0.00 in0.0 mm 0.00 in0.0 mm 0.17 in4.3 mm
03:28 AM 24.4°F-4.2°C 16.4°F-8.7°C 71% Calm Calm -- 30.35 in1027.8 mb 0.00 in0.0 mm 0.00 in0.0 mm 0.17 in4.3 mm
03:29 AM 24.4°F-4.2°C 16.4°F-8.7°C 71% Calm Calm -- 30.34 in1027.4 mb 0.00 in0.0 mm 0.00 in0.0 mm 0.17 in4.3 mm
03:30 AM 24.4°F-4.2°C 16.4°F-8.7°C 71% Calm Calm -- 30.34 in1027.4 mb 0.00 in0.0 mm 0.00 in0.0 mm 0.17 in4.3 mm
03:31 AM 24.4°F-4.2°C 16.4°F-8.7°C 71% Calm Calm -- 30.34 in1027.4 mb 0.00 in0.0 mm 0.00 in0.0 mm 0.17 in4.3 mm
03:32 AM 24.2°F-4.3°C 16.2°F-8.8°C 71% Calm Calm -- 30.34 in1027.4 mb 0.00 in0.0 mm 0.00 in0.0 mm 0.17 in4.3 mm
03:33 AM 24.2°F-4.3°C 16.2°F-8.8°C 71% Calm Calm -- 30.34 in1027.4 mb 0.00 in0.0 mm 0.00 in0.0 mm 0.17 in4.3 mm
03:34 AM 24.2°F-4.3°C 16.2°F-8.8°C 71% Calm Calm -- 30.34 in1027.4 mb 0.00 in0.0 mm 0.00 in0.0 mm 0.17 in4.3 mm
03:35 AM 24.0°F-4.4°C 16.0°F-8.9°C 71% Calm Calm -- 30.34 in1027.4 mb 0.00 in0.0 mm 0.00 in0.0 mm 0.17 in4.3 mm
03:36 AM 24.0°F-4.4°C 16.0°F-8.9°C 71% Calm Calm -- 30.34 in1027.4 mb 0.00 in0.0 mm 0.00 in0.0 mm 0.17 in4.3 mm
03:37 AM 24.0°F-4.4°C 16.0°F-8.9°C 71% Calm Calm -- 30.34 in1027.4 mb 0.00 in0.0 mm 0.00 in0.0 mm 0.17 in4.3 mm
03:38 AM 24.0°F-4.4°C 16.0°F-8.9°C 71% Calm Calm -- 30.34 in1027.4 mb 0.00 in0.0 mm 0.00 in0.0 mm 0.17 in4.3 mm
03:39 AM 23.8°F-4.6°C 15.8°F-9.0°C 71% Calm Calm -- 30.34 in1027.4 mb 0.00 in0.0 mm 0.00 in0.0 mm 0.17 in4.3 mm
03:40 AM 23.8°F-4.6°C 15.8°F-9.0°C 71% Calm Calm -- 30.34 in1027.4 mb 0.00 in0.0 mm 0.00 in0.0 mm 0.17 in4.3 mm
03:41 AM 23.8°F-4.6°C 15.8°F-9.0°C 71% Calm Calm -- 30.33 in1027.1 mb 0.00 in0.0 mm 0.00 in0.0 mm 0.17 in4.3 mm
03:42 AM 23.8°F-4.6°C 15.8°F-9.0°C 71% Calm Calm -- 30.34 in1027.4 mb 0.00 in0.0 mm 0.00 in0.0 mm 0.17 in4.3 mm
03:43 AM 23.8°F-4.6°C 15.8°F-9.0°C 71% Calm Calm -- 30.34 in1027.4 mb 0.00 in0.0 mm 0.00 in0.0 mm 0.17 in4.3 mm
03:44 AM 23.8°F-4.6°C 15.8°F-9.0°C 71% Calm Calm -- 30.34 in1027.4 mb 0.00 in0.0 mm 0.00 in0.0 mm 0.17 in4.3 mm
03:45 AM 23.8°F-4.6°C 15.8°F-9.0°C 71% Calm Calm -- 30.34 in1027.4 mb 0.00 in0.0 mm 0.00 in0.0 mm 0.17 in4.3 mm
03:46 AM 23.8°F-4.6°C 15.8°F-9.0°C 71% Calm Calm -- 30.34 in1027.4 mb 0.00 in0.0 mm 0.00 in0.0 mm 0.17 in4.3 mm
03:47 AM 23.8°F-4.6°C 15.8°F-9.0°C 71% Calm Calm -- 30.34 in1027.4 mb 0.00 in0.0 mm 0.00 in0.0 mm 0.17 in4.3 mm
03:48 AM 23.8°F-4.6°C 15.8°F-9.0°C 71% Calm Calm -- 30.34 in1027.4 mb 0.00 in0.0 mm 0.00 in0.0 mm 0.17 in4.3 mm
03:49 AM 23.8°F-4.6°C 15.8°F-9.0°C 71% Calm Calm -- 30.34 in1027.4 mb 0.00 in0.0 mm 0.00 in0.0 mm 0.17 in4.3 mm
03:50 AM 23.8°F-4.6°C 15.8°F-9.0°C 71% Calm Calm -- 30.34 in1027.4 mb 0.00 in0.0 mm 0.00 in0.0 mm 0.17 in4.3 mm
03:51 AM 23.8°F-4.6°C 15.8°F-9.0°C 71% Calm Calm -- 30.34 in1027.4 mb 0.00 in0.0 mm 0.00 in0.0 mm 0.17 in4.3 mm
03:52 AM 23.8°F-4.6°C 15.8°F-9.0°C 71% Calm Calm -- 30.34 in1027.4 mb 0.00 in0.0 mm 0.00 in0.0 mm 0.17 in4.3 mm
03:53 AM 23.8°F-4.6°C 15.8°F-9.0°C 71% Calm Calm -- 30.34 in1027.4 mb 0.00 in0.0 mm 0.00 in0.0 mm 0.17 in4.3 mm
03:54 AM 23.8°F-4.6°C 15.8°F-9.0°C 71% Calm Calm -- 30.34 in1027.4 mb 0.00 in0.0 mm 0.00 in0.0 mm 0.17 in4.3 mm
03:55 AM 23.7°F-4.6°C 15.7°F-9.1°C 71% Calm Calm -- 30.34 in1027.4 mb 0.00 in0.0 mm 0.00 in0.0 mm 0.17 in4.3 mm
03:56 AM 23.7°F-4.6°C 15.7°F-9.1°C 71% Calm Calm -- 30.34 in1027.4 mb 0.00 in0.0 mm 0.00 in0.0 mm 0.17 in4.3 mm
03:57 AM 23.7°F-4.6°C 15.7°F-9.1°C 71% Calm Calm -- 30.34 in1027.4 mb 0.00 in0.0 mm 0.00 in0.0 mm 0.17 in4.3 mm
03:58 AM 23.7°F-4.6°C 15.7°F-9.1°C 71% Calm Calm -- 30.34 in1027.4 mb 0.00 in0.0 mm 0.00 in0.0 mm 0.17 in4.3 mm
03:59 AM 23.7°F-4.6°C 15.7°F-9.1°C 71% Calm Calm -- 30.34 in1027.4 mb 0.00 in0.0 mm 0.00 in0.0 mm 0.17 in4.3 mm
04:00 AM 23.7°F-4.6°C 15.7°F-9.1°C 71% Calm Calm -- 30.34 in1027.4 mb 0.00 in0.0 mm 0.00 in0.0 mm 0.17 in4.3 mm
04:01 AM 23.7°F-4.6°C 15.7°F-9.1°C 71% Calm Calm -- 30.34 in1027.4 mb 0.00 in0.0 mm 0.00 in0.0 mm 0.17 in4.3 mm
04:02 AM 23.7°F-4.6°C 15.7°F-9.1°C 71% Calm Calm -- 30.34 in1027.4 mb 0.00 in0.0 mm 0.00 in0.0 mm 0.17 in4.3 mm
04:03 AM 23.7°F-4.6°C 15.7°F-9.1°C 71% Calm Calm -- 30.33 in1027.1 mb 0.00 in0.0 mm 0.00 in0.0 mm 0.17 in4.3 mm
04:04 AM 23.7°F-4.6°C 15.7°F-9.1°C 71% Calm Calm -- 30.33 in1027.1 mb 0.00 in0.0 mm 0.00 in0.0 mm 0.17 in4.3 mm
04:05 AM 23.7°F-4.6°C 15.7°F-9.1°C 71% Calm Calm -- 30.33 in1027.1 mb 0.00 in0.0 mm 0.00 in0.0 mm 0.17 in4.3 mm
04:06 AM 23.5°F-4.7°C 15.5°F-9.2°C 71% Calm Calm -- 30.33 in1027.1 mb 0.00 in0.0 mm 0.00 in0.0 mm 0.17 in4.3 mm
04:07 AM 23.5°F-4.7°C 15.5°F-9.2°C 71% Calm Calm -- 30.33 in1027.1 mb 0.00 in0.0 mm 0.00 in0.0 mm 0.17 in4.3 mm
04:08 AM 23.5°F-4.7°C 15.5°F-9.2°C 71% Calm Calm -- 30.34 in1027.4 mb 0.00 in0.0 mm 0.00 in0.0 mm 0.17 in4.3 mm
04:09 AM 23.5°F-4.7°C 15.5°F-9.2°C 71% Calm Calm -- 30.33 in1027.1 mb 0.00 in0.0 mm 0.00 in0.0 mm 0.17 in4.3 mm
04:10 AM 23.5°F-4.7°C 15.5°F-9.2°C 71% Calm Calm -- 30.33 in1027.1 mb 0.00 in0.0 mm 0.00 in0.0 mm 0.17 in4.3 mm
04:11 AM 23.5°F-4.7°C 15.5°F-9.2°C 71% Calm Calm -- 30.34 in1027.4 mb 0.00 in0.0 mm 0.00 in0.0 mm 0.17 in4.3 mm
04:12 AM 23.5°F-4.7°C 15.5°F-9.2°C 71% Calm Calm -- 30.34 in1027.4 mb 0.00 in0.0 mm 0.00 in0.0 mm 0.17 in4.3 mm
04:13 AM 23.5°F-4.7°C 15.5°F-9.2°C 71% Calm Calm -- 30.34 in1027.4 mb 0.00 in0.0 mm 0.00 in0.0 mm 0.17 in4.3 mm
04:14 AM 23.5°F-4.7°C 16.2°F-8.8°C 73% Calm Calm -- 30.34 in1027.4 mb 0.00 in0.0 mm 0.00 in0.0 mm 0.17 in4.3 mm
04:15 AM 23.5°F-4.7°C 16.2°F-8.8°C 73% Calm Calm -- 30.34 in1027.4 mb 0.00 in0.0 mm 0.00 in0.0 mm 0.17 in4.3 mm
04:16 AM 23.5°F-4.7°C 16.2°F-8.8°C 73% Calm Calm -- 30.33 in1027.1 mb 0.00 in0.0 mm 0.00 in0.0 mm 0.17 in4.3 mm
04:17 AM 23.3°F-4.8°C 16.0°F-8.9°C 73% Calm Calm -- 30.33 in1027.1 mb 0.00 in0.0 mm 0.00 in0.0 mm 0.17 in4.3 mm
04:18 AM 23.3°F-4.8°C 16.0°F-8.9°C 73% Calm Calm -- 30.34 in1027.4 mb 0.00 in0.0 mm 0.00 in0.0 mm 0.17 in4.3 mm
04:19 AM 23.3°F-4.8°C 16.0°F-8.9°C 73% Calm Calm -- 30.34 in1027.4 mb 0.00 in0.0 mm 0.00 in0.0 mm 0.17 in4.3 mm
04:20 AM 23.3°F-4.8°C 16.0°F-8.9°C 73% Calm Calm -- 30.34 in1027.4 mb 0.00 in0.0 mm 0.00 in0.0 mm 0.17 in4.3 mm
04:21 AM 23.3°F-4.8°C 16.0°F-8.9°C 73% Calm Calm -- 30.34 in1027.4 mb 0.00 in0.0 mm 0.00 in0.0 mm 0.17 in4.3 mm
04:22 AM 23.3°F-4.8°C 16.3°F-8.7°C 74% Calm Calm -- 30.34 in1027.4 mb 0.00 in0.0 mm 0.00 in0.0 mm 0.17 in4.3 mm
04:23 AM 23.3°F-4.8°C 16.3°F-8.7°C 74% Calm Calm -- 30.34 in1027.4 mb 0.00 in0.0 mm 0.00 in0.0 mm 0.17 in4.3 mm
04:24 AM 23.3°F-4.8°C 16.3°F-8.7°C 74% Calm Calm -- 30.33 in1027.1 mb 0.00 in0.0 mm 0.00 in0.0 mm 0.17 in4.3 mm
04:25 AM 23.3°F-4.8°C 16.3°F-8.7°C 74% Calm Calm -- 30.33 in1027.1 mb 0.00 in0.0 mm 0.00 in0.0 mm 0.17 in4.3 mm
04:26 AM 23.3°F-4.8°C 16.3°F-8.7°C 74% Calm Calm -- 30.33 in1027.1 mb 0.00 in0.0 mm 0.00 in0.0 mm 0.17 in4.3 mm
04:27 AM 23.3°F-4.8°C 16.3°F-8.7°C 74% Calm Calm -- 30.33 in1027.1 mb 0.00 in0.0 mm 0.00 in0.0 mm 0.17 in4.3 mm
04:28 AM 23.3°F-4.8°C 16.3°F-8.7°C 74% Calm Calm -- 30.33 in1027.1 mb 0.00 in0.0 mm 0.00 in0.0 mm 0.17 in4.3 mm
04:29 AM 23.3°F-4.8°C 16.3°F-8.7°C 74% Calm Calm -- 30.33 in1027.1 mb 0.00 in0.0 mm 0.00 in0.0 mm 0.17 in4.3 mm
04:30 AM 23.3°F-4.8°C 16.3°F-8.7°C 74% Calm Calm -- 30.33 in1027.1 mb 0.00 in0.0 mm 0.00 in0.0 mm 0.17 in4.3 mm
04:31 AM 23.3°F-4.8°C 16.3°F-8.7°C 74% Calm Calm -- 30.34 in1027.4 mb 0.00 in0.0 mm 0.00 in0.0 mm 0.17 in4.3 mm
04:32 AM 23.3°F-4.8°C 16.3°F-8.7°C 74% Calm Calm -- 30.34 in1027.4 mb 0.00 in0.0 mm 0.00 in0.0 mm 0.17 in4.3 mm
04:33 AM 23.3°F-4.8°C 16.3°F-8.7°C 74% Calm Calm -- 30.34 in1027.4 mb 0.00 in0.0 mm 0.00 in0.0 mm 0.17 in4.3 mm
04:34 AM 23.3°F-4.8°C 16.3°F-8.7°C 74% Calm Calm -- 30.34 in1027.4 mb 0.00 in0.0 mm 0.00 in0.0 mm 0.17 in4.3 mm
04:35 AM 23.3°F-4.8°C 16.3°F-8.7°C 74% Calm Calm -- 30.33 in1027.1 mb 0.00 in0.0 mm 0.00 in0.0 mm 0.17 in4.3 mm
04:36 AM 23.3°F-4.8°C 16.3°F-8.7°C 74% Calm Calm -- 30.33 in1027.1 mb 0.00 in0.0 mm 0.00 in0.0 mm 0.17 in4.3 mm
04:37 AM 23.3°F-4.8°C 16.3°F-8.7°C 74% Calm Calm -- 30.33 in1027.1 mb 0.00 in0.0 mm 0.00 in0.0 mm 0.17 in4.3 mm
04:38 AM 23.3°F-4.8°C 16.3°F-8.7°C 74% Calm Calm -- 30.33 in1027.1 mb 0.00 in0.0 mm 0.00 in0.0 mm 0.17 in4.3 mm
04:39 AM 23.3°F-4.8°C 16.3°F-8.7°C 74% Calm Calm -- 30.33 in1027.1 mb 0.00 in0.0 mm 0.00 in0.0 mm 0.17 in4.3 mm
04:40 AM 23.3°F-4.8°C 16.3°F-8.7°C 74% Calm Calm -- 30.33 in1027.1 mb 0.00 in0.0 mm 0.00 in0.0 mm 0.17 in4.3 mm
04:41 AM 23.3°F-4.8°C 16.3°F-8.7°C 74% Calm Calm -- 30.33 in1027.1 mb 0.00 in0.0 mm 0.00 in0.0 mm 0.17 in4.3 mm
04:42 AM 23.3°F-4.8°C 16.3°F-8.7°C 74% Calm Calm -- 30.34 in1027.4 mb 0.00 in0.0 mm 0.00 in0.0 mm 0.17 in4.3 mm
04:43 AM 23.3°F-4.8°C 16.3°F-8.7°C 74% Calm Calm -- 30.34 in1027.4 mb 0.00 in0.0 mm 0.00 in0.0 mm 0.17 in4.3 mm
04:44 AM 23.3°F-4.8°C 16.0°F-8.9°C 73% Calm Calm -- 30.34 in1027.4 mb 0.00 in0.0 mm 0.00 in0.0 mm 0.17 in4.3 mm
04:45 AM 23.3°F-4.8°C 16.0°F-8.9°C 73% Calm Calm -- 30.34 in1027.4 mb 0.00 in0.0 mm 0.00 in0.0 mm 0.17 in4.3 mm
04:46 AM 23.3°F-4.8°C 16.0°F-8.9°C 73% Calm Calm -- 30.34 in1027.4 mb 0.00 in0.0 mm 0.00 in0.0 mm 0.17 in4.3 mm
04:47 AM 23.3°F-4.8°C 16.0°F-8.9°C 73% Calm Calm -- 30.33 in1027.1 mb 0.00 in0.0 mm 0.00 in0.0 mm 0.17 in4.3 mm
04:48 AM 23.3°F-4.8°C 16.0°F-8.9°C 73% Calm Calm -- 30.34 in1027.4 mb 0.00 in0.0 mm 0.00 in0.0 mm 0.17 in4.3 mm
04:49 AM 23.1°F-4.9°C 16.1°F-8.8°C 74% Calm Calm -- 30.34 in1027.4 mb 0.00 in0.0 mm 0.00 in0.0 mm 0.17 in4.3 mm
04:50 AM 23.1°F-4.9°C 16.1°F-8.8°C 74% Calm Calm -- 30.34 in1027.4 mb 0.00 in0.0 mm 0.00 in0.0 mm 0.17 in4.3 mm
04:51 AM 23.1°F-4.9°C 16.1°F-8.8°C 74% Calm Calm -- 30.34 in1027.4 mb 0.00 in0.0 mm 0.00 in0.0 mm 0.17 in4.3 mm
04:52 AM 23.1°F-4.9°C 16.1°F-8.8°C 74% Calm Calm -- 30.34 in1027.4 mb 0.00 in0.0 mm 0.00 in0.0 mm 0.17 in4.3 mm
04:53 AM 23.1°F-4.9°C 16.1°F-8.8°C 74% Calm Calm -- 30.34 in1027.4 mb 0.00 in0.0 mm 0.00 in0.0 mm 0.17 in4.3 mm
04:54 AM 22.9°F-5.1°C 15.9°F-8.9°C 74% Calm Calm -- 30.34 in1027.4 mb 0.00 in0.0 mm 0.00 in0.0 mm 0.17 in4.3 mm
04:55 AM 22.9°F-5.1°C 15.9°F-8.9°C 74% Calm Calm -- 30.34 in1027.4 mb 0.00 in0.0 mm 0.00 in0.0 mm 0.17 in4.3 mm
04:56 AM 22.9°F-5.1°C 15.9°F-8.9°C 74% Calm Calm -- 30.34 in1027.4 mb 0.00 in0.0 mm 0.00 in0.0 mm 0.17 in4.3 mm
04:57 AM 22.9°F-5.1°C 15.9°F-8.9°C 74% Calm Calm -- 30.34 in1027.4 mb 0.00 in0.0 mm 0.00 in0.0 mm 0.17 in4.3 mm
04:58 AM 22.9°F-5.1°C 15.9°F-8.9°C 74% Calm Calm -- 30.34 in1027.4 mb 0.00 in0.0 mm 0.00 in0.0 mm 0.17 in4.3 mm
04:59 AM 22.9°F-5.1°C 15.9°F-8.9°C 74% Calm Calm -- 30.34 in1027.4 mb 0.00 in0.0 mm 0.00 in0.0 mm 0.17 in4.3 mm
05:00 AM 22.9°F-5.1°C 15.9°F-8.9°C 74% Calm Calm -- 30.34 in1027.4 mb 0.00 in0.0 mm 0.00 in0.0 mm 0.17 in4.3 mm
05:01 AM 22.9°F-5.1°C 15.9°F-8.9°C 74% Calm Calm -- 30.34 in1027.4 mb 0.00 in0.0 mm 0.00 in0.0 mm 0.17 in4.3 mm
05:02 AM 22.9°F-5.1°C 15.9°F-8.9°C 74% Calm Calm -- 30.34 in1027.4 mb 0.00 in0.0 mm 0.00 in0.0 mm 0.17 in4.3 mm
05:03 AM 22.9°F-5.1°C 15.9°F-8.9°C 74% Calm Calm -- 30.34 in1027.4 mb 0.00 in0.0 mm 0.00 in0.0 mm 0.17 in4.3 mm
05:04 AM 22.9°F-5.1°C 15.9°F-8.9°C 74% Calm Calm -- 30.34 in1027.4 mb 0.00 in0.0 mm 0.00 in0.0 mm 0.17 in4.3 mm
05:05 AM 22.9°F-5.1°C 15.9°F-8.9°C 74% Calm Calm -- 30.34 in1027.4 mb 0.00 in0.0 mm 0.00 in0.0 mm 0.17 in4.3 mm
05:06 AM 22.9°F-5.1°C 15.9°F-8.9°C 74% Calm Calm -- 30.34 in1027.4 mb 0.00 in0.0 mm 0.00 in0.0 mm 0.17 in4.3 mm
05:07 AM 22.9°F-5.1°C 15.9°F-8.9°C 74% Calm Calm -- 30.34 in1027.4 mb 0.00 in0.0 mm 0.00 in0.0 mm 0.17 in4.3 mm
05:08 AM 22.9°F-5.1°C 15.9°F-8.9°C 74% Calm Calm -- 30.34 in1027.4 mb 0.00 in0.0 mm 0.00 in0.0 mm 0.17 in4.3 mm
05:09 AM 22.9°F-5.1°C 15.9°F-8.9°C 74% Calm Calm -- 30.34 in1027.4 mb 0.00 in0.0 mm 0.00 in0.0 mm 0.17 in4.3 mm
05:10 AM 22.9°F-5.1°C 15.9°F-8.9°C 74% Calm Calm -- 30.34 in1027.4 mb 0.00 in0.0 mm 0.00 in0.0 mm 0.17 in4.3 mm
05:11 AM 22.9°F-5.1°C 15.9°F-8.9°C 74% Calm Calm -- 30.35 in1027.8 mb 0.00 in0.0 mm 0.00 in0.0 mm 0.17 in4.3 mm
05:12 AM 22.9°F-5.1°C 15.9°F-8.9°C 74% Calm Calm -- 30.35 in1027.8 mb 0.00 in0.0 mm 0.00 in0.0 mm 0.17 in4.3 mm
05:13 AM 22.9°F-5.1°C 15.9°F-8.9°C 74% Calm Calm -- 30.35 in1027.8 mb 0.00 in0.0 mm 0.00 in0.0 mm 0.17 in4.3 mm
05:14 AM 22.9°F-5.1°C 15.9°F-8.9°C 74% Calm Calm -- 30.35 in1027.8 mb 0.00 in0.0 mm 0.00 in0.0 mm 0.17 in4.3 mm
05:15 AM 22.9°F-5.1°C 15.9°F-8.9°C 74% Calm Calm -- 30.35 in1027.8 mb 0.00 in0.0 mm 0.00 in0.0 mm 0.17 in4.3 mm
05:16 AM 22.8°F-5.1°C 16.1°F-8.8°C 75% Calm Calm -- 30.34 in1027.4 mb 0.00 in0.0 mm 0.00 in0.0 mm 0.17 in4.3 mm
05:17 AM 22.8°F-5.1°C 16.1°F-8.8°C 75% Calm Calm -- 30.35 in1027.8 mb 0.00 in0.0 mm 0.00 in0.0 mm 0.17 in4.3 mm
05:18 AM 22.8°F-5.1°C 16.1°F-8.8°C 75% Calm Calm -- 30.35 in1027.8 mb 0.00 in0.0 mm 0.00 in0.0 mm 0.17 in4.3 mm
05:19 AM 22.8°F-5.1°C 16.1°F-8.8°C 75% Calm Calm -- 30.35 in1027.8 mb 0.00 in0.0 mm 0.00 in0.0 mm 0.17 in4.3 mm
05:20 AM 22.8°F-5.1°C 16.1°F-8.8°C 75% Calm Calm -- 30.35 in1027.8 mb 0.00 in0.0 mm 0.00 in0.0 mm 0.17 in4.3 mm
05:21 AM 22.8°F-5.1°C 16.1°F-8.8°C 75% Calm Calm -- 30.35 in1027.8 mb 0.00 in0.0 mm 0.00 in0.0 mm 0.17 in4.3 mm
05:22 AM 22.8°F-5.1°C 16.1°F-8.8°C 75% Calm Calm -- 30.35 in1027.8 mb 0.00 in0.0 mm 0.00 in0.0 mm 0.17 in4.3 mm
05:23 AM 22.6°F-5.2°C 15.9°F-8.9°C 75% Calm Calm -- 30.35 in1027.8 mb 0.00 in0.0 mm 0.00 in0.0 mm 0.17 in4.3 mm
05:24 AM 22.6°F-5.2°C 15.9°F-8.9°C 75% Calm Calm -- 30.35 in1027.8 mb 0.00 in0.0 mm 0.00 in0.0 mm 0.17 in4.3 mm
05:25 AM 22.6°F-5.2°C 15.9°F-8.9°C 75% Calm Calm -- 30.35 in1027.8 mb 0.00 in0.0 mm 0.00 in0.0 mm 0.17 in4.3 mm
05:26 AM 22.6°F-5.2°C 15.9°F-8.9°C 75% Calm Calm -- 30.35 in1027.8 mb 0.00 in0.0 mm 0.00 in0.0 mm 0.17 in4.3 mm
05:27 AM 22.6°F-5.2°C 15.9°F-8.9°C 75% Calm Calm -- 30.35 in1027.8 mb 0.00 in0.0 mm 0.00 in0.0 mm 0.17 in4.3 mm
05:28 AM 22.6°F-5.2°C 15.9°F-8.9°C 75% Calm Calm -- 30.35 in1027.8 mb 0.00 in0.0 mm 0.00 in0.0 mm 0.17 in4.3 mm
05:29 AM 22.6°F-5.2°C 15.9°F-8.9°C 75% Calm Calm -- 30.35 in1027.8 mb 0.00 in0.0 mm 0.00 in0.0 mm 0.17 in4.3 mm
05:30 AM 22.6°F-5.2°C 15.9°F-8.9°C 75% Calm Calm -- 30.35 in1027.8 mb 0.00 in0.0 mm 0.00 in0.0 mm 0.17 in4.3 mm
05:31 AM 22.4°F-5.3°C 15.7°F-9.1°C 75% Calm Calm -- 30.35 in1027.8 mb 0.00 in0.0 mm 0.00 in0.0 mm 0.17 in4.3 mm
05:32 AM 22.4°F-5.3°C 15.7°F-9.1°C 75% Calm Calm -- 30.35 in1027.8 mb 0.00 in0.0 mm 0.00 in0.0 mm 0.17 in4.3 mm
05:33 AM 22.4°F-5.3°C 15.7°F-9.1°C 75% Calm Calm -- 30.35 in1027.8 mb 0.00 in0.0 mm 0.00 in0.0 mm 0.17 in4.3 mm
05:34 AM 22.1°F-5.5°C 15.4°F-9.2°C 75% Calm Calm -- 30.35 in1027.8 mb 0.00 in0.0 mm 0.00 in0.0 mm 0.17 in4.3 mm
05:35 AM 22.1°F-5.5°C 15.4°F-9.2°C 75% Calm Calm -- 30.35 in1027.8 mb 0.00 in0.0 mm 0.00 in0.0 mm 0.17 in4.3 mm
05:36 AM 22.1°F-5.5°C 15.4°F-9.2°C 75% Calm Calm -- 30.35 in1027.8 mb 0.00 in0.0 mm 0.00 in0.0 mm 0.17 in4.3 mm
05:37 AM 22.1°F-5.5°C 15.4°F-9.2°C 75% Calm Calm -- 30.35 in1027.8 mb 0.00 in0.0 mm 0.00 in0.0 mm 0.17 in4.3 mm
05:38 AM 22.1°F-5.5°C 15.4°F-9.2°C 75% Calm Calm -- 30.35 in1027.8 mb 0.00 in0.0 mm 0.00 in0.0 mm 0.17 in4.3 mm
05:39 AM 21.9°F-5.6°C 15.2°F-9.3°C 75% Calm Calm -- 30.35 in1027.8 mb 0.00 in0.0 mm 0.00 in0.0 mm 0.17 in4.3 mm
05:40 AM 21.9°F-5.6°C 15.2°F-9.3°C 75% Calm Calm -- 30.35 in1027.8 mb 0.00 in0.0 mm 0.00 in0.0 mm 0.17 in4.3 mm
05:41 AM 21.9°F-5.6°C 15.2°F-9.3°C 75% Calm Calm -- 30.35 in1027.8 mb 0.00 in0.0 mm 0.00 in0.0 mm 0.17 in4.3 mm
05:42 AM 21.9°F-5.6°C 15.2°F-9.3°C 75% Calm Calm -- 30.35 in1027.8 mb 0.00 in0.0 mm 0.00 in0.0 mm 0.17 in4.3 mm
05:43 AM 21.9°F-5.6°C 15.2°F-9.3°C 75% Calm Calm -- 30.35 in1027.8 mb 0.00 in0.0 mm 0.00 in0.0 mm 0.17 in4.3 mm
05:44 AM 21.7°F-5.7°C 15.0°F-9.4°C 75% Calm Calm -- 30.36 in1028.1 mb 0.00 in0.0 mm 0.00 in0.0 mm 0.17 in4.3 mm
05:45 AM 21.5°F-5.8°C 14.8°F-9.6°C 75% Calm Calm -- 30.35 in1027.8 mb 0.00 in0.0 mm 0.00 in0.0 mm 0.17 in4.3 mm
05:46 AM 21.5°F-5.8°C 14.8°F-9.6°C 75% Calm Calm -- 30.35 in1027.8 mb 0.00 in0.0 mm 0.00 in0.0 mm 0.17 in4.3 mm
05:47 AM 21.5°F-5.8°C 14.8°F-9.6°C 75% Calm Calm -- 30.35 in1027.8 mb 0.00 in0.0 mm 0.00 in0.0 mm 0.17 in4.3 mm
05:48 AM 21.5°F-5.8°C 14.8°F-9.6°C 75% Calm Calm -- 30.36 in1028.1 mb 0.00 in0.0 mm 0.00 in0.0 mm 0.17 in4.3 mm
05:49 AM 21.5°F-5.8°C 14.8°F-9.6°C 75% Calm Calm -- 30.36 in1028.1 mb 0.00 in0.0 mm 0.00 in0.0 mm 0.17 in4.3 mm
05:50 AM 21.5°F-5.8°C 14.8°F-9.6°C 75% Calm Calm -- 30.35 in1027.8 mb 0.00 in0.0 mm 0.00 in0.0 mm 0.17 in4.3 mm
05:51 AM 21.5°F-5.8°C 14.8°F-9.6°C 75% Calm Calm -- 30.35 in1027.8 mb 0.00 in0.0 mm 0.00 in0.0 mm 0.17 in4.3 mm
05:52 AM 21.5°F-5.8°C 14.8°F-9.6°C 75% Calm Calm -- 30.36 in1028.1 mb 0.00 in0.0 mm 0.00 in0.0 mm 0.17 in4.3 mm
05:53 AM 21.5°F-5.8°C 14.8°F-9.6°C 75% Calm Calm -- 30.36 in1028.1 mb 0.00 in0.0 mm 0.00 in0.0 mm 0.17 in4.3 mm
05:54 AM 21.3°F-5.9°C 14.6°F-9.7°C 75% Calm Calm -- 30.36 in1028.1 mb 0.00 in0.0 mm 0.00 in0.0 mm 0.17 in4.3 mm
05:55 AM 21.3°F-5.9°C 14.6°F-9.7°C 75% Calm Calm -- 30.36 in1028.1 mb 0.00 in0.0 mm 0.00 in0.0 mm 0.17 in4.3 mm
05:56 AM 21.3°F-5.9°C 14.6°F-9.7°C 75% Calm Calm -- 30.36 in1028.1 mb 0.00 in0.0 mm 0.00 in0.0 mm 0.17 in4.3 mm
05:57 AM 21.3°F-5.9°C 14.6°F-9.7°C 75% Calm Calm -- 30.35 in1027.8 mb 0.00 in0.0 mm 0.00 in0.0 mm 0.17 in4.3 mm
05:58 AM 21.3°F-5.9°C 14.6°F-9.7°C 75% Calm Calm -- 30.36 in1028.1 mb 0.00 in0.0 mm 0.00 in0.0 mm 0.17 in4.3 mm
05:59 AM 21.3°F-5.9°C 14.6°F-9.7°C 75% Calm Calm -- 30.36 in1028.1 mb 0.00 in0.0 mm 0.00 in0.0 mm 0.17 in4.3 mm
06:00 AM 21.3°F-5.9°C 14.6°F-9.7°C 75% Calm Calm -- 30.36 in1028.1 mb 0.00 in0.0 mm 0.00 in0.0 mm 0.17 in4.3 mm
06:01 AM 21.5°F-5.8°C 14.8°F-9.6°C 75% Calm Calm -- 30.36 in1028.1 mb 0.00 in0.0 mm 0.00 in0.0 mm 0.17 in4.3 mm
06:02 AM 21.5°F-5.8°C 14.8°F-9.6°C 75% Calm Calm -- 30.36 in1028.1 mb 0.00 in0.0 mm 0.00 in0.0 mm 0.17 in4.3 mm
06:03 AM 21.3°F-5.9°C 14.6°F-9.7°C 75% Calm Calm -- 30.35 in1027.8 mb 0.00 in0.0 mm 0.00 in0.0 mm 0.17 in4.3 mm
06:04 AM 21.3°F-5.9°C 14.6°F-9.7°C 75% Calm Calm -- 30.36 in1028.1 mb 0.00 in0.0 mm 0.00 in0.0 mm 0.17 in4.3 mm
06:05 AM 21.3°F-5.9°C 14.6°F-9.7°C 75% Calm Calm -- 30.36 in1028.1 mb 0.00 in0.0 mm 0.00 in0.0 mm 0.17 in4.3 mm
06:06 AM 21.3°F-5.9°C 14.6°F-9.7°C 75% Calm Calm -- 30.36 in1028.1 mb 0.00 in0.0 mm 0.00 in0.0 mm 0.17 in4.3 mm
06:07 AM 21.3°F-5.9°C 14.6°F-9.7°C 75% Calm Calm -- 30.36 in1028.1 mb 0.00 in0.0 mm 0.00 in0.0 mm 0.17 in4.3 mm
06:08 AM 21.3°F-5.9°C 14.6°F-9.7°C 75% Calm Calm -- 30.36 in1028.1 mb 0.00 in0.0 mm 0.00 in0.0 mm 0.17 in4.3 mm
06:09 AM 21.3°F-5.9°C 14.6°F-9.7°C 75% Calm Calm -- 30.36 in1028.1 mb 0.00 in0.0 mm 0.00 in0.0 mm 0.17 in4.3 mm
06:10 AM 21.3°F-5.9°C 14.6°F-9.7°C 75% Calm Calm -- 30.36 in1028.1 mb 0.00 in0.0 mm 0.00 in0.0 mm 0.17 in4.3 mm
06:11 AM 21.3°F-5.9°C 14.6°F-9.7°C 75% Calm Calm -- 30.36 in1028.1 mb 0.00 in0.0 mm 0.00 in0.0 mm 0.17 in4.3 mm
06:12 AM 21.3°F-5.9°C 14.6°F-9.7°C 75% Calm Calm -- 30.36 in1028.1 mb 0.00 in0.0 mm 0.00 in0.0 mm 0.17 in4.3 mm
06:13 AM 21.3°F-5.9°C 14.6°F-9.7°C 75% Calm Calm -- 30.36 in1028.1 mb 0.00 in0.0 mm 0.00 in0.0 mm 0.17 in4.3 mm
06:14 AM 21.3°F-5.9°C 14.6°F-9.7°C 75% Calm Calm -- 30.36 in1028.1 mb 0.00 in0.0 mm 0.00 in0.0 mm 0.17 in4.3 mm
06:15 AM 21.3°F-5.9°C 14.6°F-9.7°C 75% Calm Calm -- 30.36 in1028.1 mb 0.00 in0.0 mm 0.00 in0.0 mm 0.17 in4.3 mm
06:16 AM 21.3°F-5.9°C 14.6°F-9.7°C 75% Calm Calm -- 30.36 in1028.1 mb 0.00 in0.0 mm 0.00 in0.0 mm 0.17 in4.3 mm
06:17 AM 21.3°F-5.9°C 14.6°F-9.7°C 75% Calm Calm -- 30.36 in1028.1 mb 0.00 in0.0 mm 0.00 in0.0 mm 0.17 in4.3 mm
06:18 AM 21.3°F-5.9°C 14.6°F-9.7°C 75% Calm Calm -- 30.36 in1028.1 mb 0.00 in0.0 mm 0.00 in0.0 mm 0.17 in4.3 mm
06:19 AM 21.3°F-5.9°C 14.6°F-9.7°C 75% Calm Calm -- 30.35 in1027.8 mb 0.00 in0.0 mm 0.00 in0.0 mm 0.17 in4.3 mm
06:20 AM 21.3°F-5.9°C 14.6°F-9.7°C 75% Calm Calm -- 30.36 in1028.1 mb 0.00 in0.0 mm 0.00 in0.0 mm 0.17 in4.3 mm
06:21 AM 21.2°F-6.0°C 14.5°F-9.7°C 75% Calm Calm -- 30.36 in1028.1 mb 0.00 in0.0 mm 0.00 in0.0 mm 0.17 in4.3 mm
06:22 AM 21.2°F-6.0°C 14.5°F-9.7°C 75% Calm Calm -- 30.36 in1028.1 mb 0.00 in0.0 mm 0.00 in0.0 mm 0.17 in4.3 mm
06:23 AM 21.2°F-6.0°C 14.5°F-9.7°C 75% Calm Calm -- 30.36 in1028.1 mb 0.00 in0.0 mm 0.00 in0.0 mm 0.17 in4.3 mm
06:24 AM 21.2°F-6.0°C 14.5°F-9.7°C 75% Calm Calm -- 30.36 in1028.1 mb 0.00 in0.0 mm 0.00 in0.0 mm 0.17 in4.3 mm
06:25 AM 21.2°F-6.0°C 14.5°F-9.7°C 75% Calm Calm -- 30.36 in1028.1 mb 0.00 in0.0 mm 0.00 in0.0 mm 0.17 in4.3 mm
06:26 AM 21.2°F-6.0°C 14.5°F-9.7°C 75% Calm Calm -- 30.36 in1028.1 mb 0.00 in0.0 mm 0.00 in0.0 mm 0.17 in4.3 mm
06:27 AM 21.0°F-6.1°C 14.3°F-9.8°C 75% Calm Calm -- 30.36 in1028.1 mb 0.00 in0.0 mm 0.00 in0.0 mm 0.17 in4.3 mm
06:28 AM 21.0°F-6.1°C 14.3°F-9.8°C 75% Calm Calm -- 30.36 in1028.1 mb 0.00 in0.0 mm 0.00 in0.0 mm 0.17 in4.3 mm
06:29 AM 21.0°F-6.1°C 14.3°F-9.8°C 75% Calm Calm -- 30.36 in1028.1 mb 0.00 in0.0 mm 0.00 in0.0 mm 0.17 in4.3 mm
06:30 AM 21.0°F-6.1°C 14.3°F-9.8°C 75% Calm Calm -- 30.36 in1028.1 mb 0.00 in0.0 mm 0.00 in0.0 mm 0.17 in4.3 mm
06:31 AM 21.0°F-6.1°C 14.3°F-9.8°C 75% Calm Calm -- 30.36 in1028.1 mb 0.00 in0.0 mm 0.00 in0.0 mm 0.17 in4.3 mm
06:32 AM 21.0°F-6.1°C 14.3°F-9.8°C 75% Calm Calm -- 30.36 in1028.1 mb 0.00 in0.0 mm 0.00 in0.0 mm 0.17 in4.3 mm
06:33 AM 21.0°F-6.1°C 14.3°F-9.8°C 75% Calm Calm -- 30.36 in1028.1 mb 0.00 in0.0 mm 0.00 in0.0 mm 0.17 in4.3 mm
06:34 AM 21.0°F-6.1°C 14.3°F-9.8°C 75% Calm Calm -- 30.36 in1028.1 mb 0.00 in0.0 mm 0.00 in0.0 mm 0.17 in4.3 mm
06:35 AM 21.0°F-6.1°C 14.3°F-9.8°C 75% Calm Calm -- 30.36 in1028.1 mb 0.00 in0.0 mm 0.00 in0.0 mm 0.17 in4.3 mm
06:36 AM 21.0°F-6.1°C 14.3°F-9.8°C 75% Calm Calm -- 30.36 in1028.1 mb 0.00 in0.0 mm 0.00 in0.0 mm 0.17 in4.3 mm
06:37 AM 21.0°F-6.1°C 14.3°F-9.8°C 75% Calm Calm -- 30.36 in1028.1 mb 0.00 in0.0 mm 0.00 in0.0 mm 0.17 in4.3 mm
06:38 AM 20.8°F-6.2°C 14.2°F-9.9°C 75% Calm Calm -- 30.36 in1028.1 mb 0.00 in0.0 mm 0.00 in0.0 mm 0.17 in4.3 mm
06:39 AM 20.8°F-6.2°C 14.2°F-9.9°C 75% Calm Calm -- 30.37 in1028.4 mb 0.00 in0.0 mm 0.00 in0.0 mm 0.17 in4.3 mm
06:40 AM 20.8°F-6.2°C 14.2°F-9.9°C 75% Calm Calm -- 30.37 in1028.4 mb 0.00 in0.0 mm 0.00 in0.0 mm 0.17 in4.3 mm
06:41 AM 20.8°F-6.2°C 14.2°F-9.9°C 75% Calm Calm -- 30.36 in1028.1 mb 0.00 in0.0 mm 0.00 in0.0 mm 0.17 in4.3 mm
06:42 AM 20.8°F-6.2°C 14.2°F-9.9°C 75% Calm Calm -- 30.36 in1028.1 mb 0.00 in0.0 mm 0.00 in0.0 mm 0.17 in4.3 mm
06:43 AM 20.6°F-6.3°C 14.0°F-10.0°C 75% Calm Calm -- 30.36 in1028.1 mb 0.00 in0.0 mm 0.00 in0.0 mm 0.17 in4.3 mm
06:44 AM 20.6°F-6.3°C 14.0°F-10.0°C 75% Calm Calm -- 30.36 in1028.1 mb 0.00 in0.0 mm 0.00 in0.0 mm 0.17 in4.3 mm
06:45 AM 20.6°F-6.3°C 14.0°F-10.0°C 75% Calm Calm -- 30.36 in1028.1 mb 0.00 in0.0 mm 0.00 in0.0 mm 0.17 in4.3 mm
06:46 AM 20.4°F-6.4°C 13.8°F-10.1°C 75% Calm Calm -- 30.36 in1028.1 mb 0.00 in0.0 mm 0.00 in0.0 mm 0.17 in4.3 mm
06:47 AM 20.4°F-6.4°C 13.8°F-10.1°C 75% Calm Calm -- 30.36 in1028.1 mb 0.00 in0.0 mm 0.00 in0.0 mm 0.17 in4.3 mm
06:48 AM 20.4°F-6.4°C 13.8°F-10.1°C 75% Calm Calm -- 30.36 in1028.1 mb 0.00 in0.0 mm 0.00 in0.0 mm 0.17 in4.3 mm
06:49 AM 20.4°F-6.4°C 13.8°F-10.1°C 75% Calm Calm -- 30.36 in1028.1 mb 0.00 in0.0 mm 0.00 in0.0 mm 0.17 in4.3 mm
06:50 AM 20.4°F-6.4°C 13.8°F-10.1°C 75% Calm Calm -- 30.37 in1028.4 mb 0.00 in0.0 mm 0.00 in0.0 mm 0.17 in4.3 mm
06:51 AM 20.4°F-6.4°C 13.8°F-10.1°C 75% Calm Calm -- 30.37 in1028.4 mb 0.00 in0.0 mm 0.00 in0.0 mm 0.17 in4.3 mm
06:52 AM 20.4°F-6.4°C 13.8°F-10.1°C 75% Calm Calm -- 30.36 in1028.1 mb 0.00 in0.0 mm 0.00 in0.0 mm 0.17 in4.3 mm
06:53 AM 20.4°F-6.4°C 13.8°F-10.1°C 75% Calm Calm -- 30.36 in1028.1 mb 0.00 in0.0 mm 0.00 in0.0 mm 0.17 in4.3 mm
06:54 AM 20.4°F-6.4°C 13.8°F-10.1°C 75% Calm Calm -- 30.36 in1028.1 mb 0.00 in0.0 mm 0.00 in0.0 mm 0.17 in4.3 mm
06:55 AM 20.4°F-6.4°C 13.8°F-10.1°C 75% Calm Calm -- 30.36 in1028.1 mb 0.00 in0.0 mm 0.00 in0.0 mm 0.17 in4.3 mm
06:56 AM 20.4°F-6.4°C 13.8°F-10.1°C 75% Calm Calm -- 30.37 in1028.4 mb 0.00 in0.0 mm 0.00 in0.0 mm 0.17 in4.3 mm
06:57 AM 20.4°F-6.4°C 13.8°F-10.1°C 75% Calm Calm -- 30.37 in1028.4 mb 0.00 in0.0 mm 0.00 in0.0 mm 0.17 in4.3 mm
06:58 AM 20.4°F-6.4°C 13.8°F-10.1°C 75% Calm Calm -- 30.37 in1028.4 mb 0.00 in0.0 mm 0.00 in0.0 mm 0.17 in4.3 mm
06:59 AM 20.4°F-6.4°C 13.8°F-10.1°C 75% Calm Calm -- 30.37 in1028.4 mb 0.00 in0.0 mm 0.00 in0.0 mm 0.17 in4.3 mm
07:00 AM 20.4°F-6.4°C 13.8°F-10.1°C 75% Calm Calm -- 30.36 in1028.1 mb 0.00 in0.0 mm 0.00 in0.0 mm 0.17 in4.3 mm
07:01 AM 20.4°F-6.4°C 13.8°F-10.1°C 75% Calm Calm -- 30.37 in1028.4 mb 0.00 in0.0 mm 0.00 in0.0 mm 0.17 in4.3 mm
07:02 AM 20.6°F-6.3°C 14.0°F-10.0°C 75% Calm Calm -- 30.36 in1028.1 mb 0.00 in0.0 mm 0.00 in0.0 mm 0.17 in4.3 mm
07:03 AM 20.6°F-6.3°C 14.0°F-10.0°C 75% Calm Calm -- 30.37 in1028.4 mb 0.00 in0.0 mm 0.00 in0.0 mm 0.17 in4.3 mm
07:04 AM 20.6°F-6.3°C 14.0°F-10.0°C 75% Calm Calm -- 30.36 in1028.1 mb 0.00 in0.0 mm 0.00 in0.0 mm 0.17 in4.3 mm
07:05 AM 20.6°F-6.3°C 14.0°F-10.0°C 75% Calm Calm -- 30.37 in1028.4 mb 0.00 in0.0 mm 0.00 in0.0 mm 0.17 in4.3 mm
07:06 AM 20.6°F-6.3°C 14.0°F-10.0°C 75% Calm Calm -- 30.37 in1028.4 mb 0.00 in0.0 mm 0.00 in0.0 mm 0.17 in4.3 mm
07:07 AM 20.6°F-6.3°C 14.0°F-10.0°C 75% Calm Calm -- 30.37 in1028.4 mb 0.00 in0.0 mm 0.00 in0.0 mm 0.17 in4.3 mm
07:08 AM 20.6°F-6.3°C 14.0°F-10.0°C 75% Calm Calm -- 30.36 in1028.1 mb 0.00 in0.0 mm 0.00 in0.0 mm 0.17 in4.3 mm
07:09 AM 20.6°F-6.3°C 14.0°F-10.0°C 75% Calm Calm -- 30.37 in1028.4 mb 0.00 in0.0 mm 0.00 in0.0 mm 0.17 in4.3 mm
07:10 AM 20.6°F-6.3°C 14.0°F-10.0°C 75% Calm Calm -- 30.36 in1028.1 mb 0.00 in0.0 mm 0.00 in0.0 mm 0.17 in4.3 mm
07:11 AM 20.6°F-6.3°C 14.0°F-10.0°C 75% Calm Calm -- 30.37 in1028.4 mb 0.00 in0.0 mm 0.00 in0.0 mm 0.17 in4.3 mm
07:12 AM 20.6°F-6.3°C 14.0°F-10.0°C 75% Calm Calm -- 30.37 in1028.4 mb 0.00 in0.0 mm 0.00 in0.0 mm 0.17 in4.3 mm
07:13 AM 20.6°F-6.3°C 14.0°F-10.0°C 75% Calm Calm -- 30.37 in1028.4 mb 0.00 in0.0 mm 0.00 in0.0 mm 0.17 in4.3 mm
07:14 AM 20.6°F-6.3°C 14.0°F-10.0°C 75% Calm Calm -- 30.37 in1028.4 mb 0.00 in0.0 mm 0.00 in0.0 mm 0.17 in4.3 mm
07:15 AM 20.6°F-6.3°C 14.0°F-10.0°C 75% Calm Calm -- 30.37 in1028.4 mb 0.00 in0.0 mm 0.00 in0.0 mm 0.17 in4.3 mm
07:16 AM 20.6°F-6.3°C 14.0°F-10.0°C 75% Calm Calm -- 30.36 in1028.1 mb 0.00 in0.0 mm 0.00 in0.0 mm 0.17 in4.3 mm
07:17 AM 20.6°F-6.3°C 14.0°F-10.0°C 75% Calm Calm -- 30.37 in1028.4 mb 0.00 in0.0 mm 0.00 in0.0 mm 0.17 in4.3 mm
07:18 AM 20.6°F-6.3°C 14.0°F-10.0°C 75% Calm Calm -- 30.36 in1028.1 mb 0.00 in0.0 mm 0.00 in0.0 mm 0.17 in4.3 mm
07:19 AM 20.6°F-6.3°C 14.0°F-10.0°C 75% Calm Calm -- 30.37 in1028.4 mb 0.00 in0.0 mm 0.00 in0.0 mm 0.17 in4.3 mm
07:20 AM 20.6°F-6.3°C 14.0°F-10.0°C 75% Calm Calm -- 30.36 in1028.1 mb 0.00 in0.0 mm 0.00 in0.0 mm 0.17 in4.3 mm
07:21 AM 20.6°F-6.3°C 14.0°F-10.0°C 75% Calm Calm -- 30.37 in1028.4 mb 0.00 in0.0 mm 0.00 in0.0 mm 0.17 in4.3 mm
07:22 AM 20.6°F-6.3°C 14.0°F-10.0°C 75% Calm Calm -- 30.36 in1028.1 mb 0.00 in0.0 mm 0.00 in0.0 mm 0.17 in4.3 mm
07:23 AM 20.6°F-6.3°C 14.0°F-10.0°C 75% Calm Calm -- 30.37 in1028.4 mb 0.00 in0.0 mm 0.00 in0.0 mm 0.17 in4.3 mm
07:24 AM 20.6°F-6.3°C 14.3°F-9.8°C 76% Calm Calm -- 30.36 in1028.1 mb 0.00 in0.0 mm 0.00 in0.0 mm 0.17 in4.3 mm
07:25 AM 20.6°F-6.3°C 14.3°F-9.8°C 76% Calm Calm -- 30.36 in1028.1 mb 0.00 in0.0 mm 0.00 in0.0 mm 0.17 in4.3 mm
07:26 AM 20.6°F-6.3°C 14.3°F-9.8°C 76% Calm Calm -- 30.36 in1028.1 mb 0.00 in0.0 mm 0.00 in0.0 mm 0.17 in4.3 mm
07:27 AM 20.6°F-6.3°C 14.3°F-9.8°C 76% Calm Calm -- 30.37 in1028.4 mb 0.00 in0.0 mm 0.00 in0.0 mm 0.17 in4.3 mm
07:28 AM 20.4°F-6.4°C 14.1°F-9.9°C 76% 2.0 mph ESE3.2 kmh ESE 2.0 mph3.2 kmh 30.36 in1028.1 mb 0.00 in0.0 mm 0.00 in0.0 mm 0.17 in4.3 mm
07:29 AM 20.4°F-6.4°C 14.1°F-9.9°C 76% 2.0 mph ESE3.2 kmh ESE 2.0 mph3.2 kmh 30.36 in1028.1 mb 0.00 in0.0 mm 0.00 in0.0 mm 0.17 in4.3 mm
07:30 AM 20.4°F-6.4°C 14.1°F-9.9°C 76% Calm Calm 2.0 mph3.2 kmh 30.36 in1028.1 mb 0.00 in0.0 mm 0.00 in0.0 mm 0.17 in4.3 mm
07:31 AM 20.2°F-6.6°C 13.9°F-10.1°C 76% Calm Calm 2.0 mph3.2 kmh 30.36 in1028.1 mb 0.00 in0.0 mm 0.00 in0.0 mm 0.17 in4.3 mm
07:32 AM 20.2°F-6.6°C 13.9°F-10.1°C 76% Calm Calm 2.0 mph3.2 kmh 30.36 in1028.1 mb 0.00 in0.0 mm 0.00 in0.0 mm 0.17 in4.3 mm
07:33 AM 20.2°F-6.6°C 13.9°F-10.1°C 76% 2.0 mph ESE3.2 kmh ESE 2.0 mph3.2 kmh 30.36 in1028.1 mb 0.00 in0.0 mm 0.00 in0.0 mm 0.17 in4.3 mm
07:34 AM 20.1°F-6.6°C 13.8°F-10.1°C 76% 1.0 mph ESE1.6 kmh ESE 2.0 mph3.2 kmh 30.36 in1028.1 mb 0.00 in0.0 mm 0.00 in0.0 mm 0.17 in4.3 mm
07:35 AM 20.1°F-6.6°C 13.8°F-10.1°C 76% 1.0 mph ESE1.6 kmh ESE 2.0 mph3.2 kmh 30.37 in1028.4 mb 0.00 in0.0 mm 0.00 in0.0 mm 0.17 in4.3 mm
07:36 AM 20.1°F-6.6°C 13.8°F-10.1°C 76% 1.0 mph ESE1.6 kmh ESE 2.0 mph3.2 kmh 30.36 in1028.1 mb 0.00 in0.0 mm 0.00 in0.0 mm 0.17 in4.3 mm
07:37 AM 20.1°F-6.6°C 13.8°F-10.1°C 76% Calm Calm 2.0 mph3.2 kmh 30.37 in1028.4 mb 0.00 in0.0 mm 0.00 in0.0 mm 0.17 in4.3 mm
07:38 AM 20.1°F-6.6°C 13.8°F-10.1°C 76% Calm Calm 2.0 mph3.2 kmh 30.36 in1028.1 mb 0.00 in0.0 mm 0.00 in0.0 mm 0.17 in4.3 mm
07:39 AM 20.1°F-6.6°C 13.8°F-10.1°C 76% Calm Calm 2.0 mph3.2 kmh 30.36 in1028.1 mb 0.00 in0.0 mm 0.00 in0.0 mm 0.17 in4.3 mm
07:40 AM 20.1°F-6.6°C 13.8°F-10.1°C 76% Calm Calm 2.0 mph3.2 kmh 30.36 in1028.1 mb 0.00 in0.0 mm 0.00 in0.0 mm 0.17 in4.3 mm
07:41 AM 20.2°F-6.6°C 13.9°F-10.1°C 76% Calm Calm 2.0 mph3.2 kmh 30.36 in1028.1 mb 0.00 in0.0 mm 0.00 in0.0 mm 0.17 in4.3 mm
07:42 AM 20.2°F-6.6°C 13.9°F-10.1°C 76% Calm Calm 2.0 mph3.2 kmh 30.36 in1028.1 mb 0.00 in0.0 mm 0.00 in0.0 mm 0.17 in4.3 mm
07:43 AM 20.2°F-6.6°C 13.9°F-10.1°C 76% Calm Calm 2.0 mph3.2 kmh 30.36 in1028.1 mb 0.00 in0.0 mm 0.00 in0.0 mm 0.17 in4.3 mm
07:44 AM 20.2°F-6.6°C 13.9°F-10.1°C 76% Calm Calm -- 30.35 in1027.8 mb 0.00 in0.0 mm 0.00 in0.0 mm 0.17 in4.3 mm
07:45 AM 20.2°F-6.6°C 13.9°F-10.1°C 76% Calm Calm -- 30.36 in1028.1 mb 0.00 in0.0 mm 0.00 in0.0 mm 0.17 in4.3 mm
07:46 AM 20.4°F-6.4°C 14.1°F-9.9°C 76% Calm Calm -- 30.35 in1027.8 mb 0.00 in0.0 mm 0.00 in0.0 mm 0.17 in4.3 mm
07:47 AM 20.4°F-6.4°C 14.1°F-9.9°C 76% Calm Calm -- 30.35 in1027.8 mb 0.00 in0.0 mm 0.00 in0.0 mm 0.17 in4.3 mm
07:48 AM 20.4°F-6.4°C 14.1°F-9.9°C 76% Calm Calm -- 30.35 in1027.8 mb 0.00 in0.0 mm 0.00 in0.0 mm 0.17 in4.3 mm
07:49 AM 20.6°F-6.3°C 14.8°F-9.6°C 78% Calm Calm -- 30.36 in1028.1 mb 0.00 in0.0 mm 0.00 in0.0 mm 0.17 in4.3 mm
07:50 AM 20.8°F-6.2°C 15.0°F-9.4°C 78% Calm Calm -- 30.35 in1027.8 mb 0.00 in0.0 mm 0.00 in0.0 mm 0.17 in4.3 mm
07:51 AM 20.8°F-6.2°C 15.0°F-9.4°C 78% Calm Calm -- 30.36 in1028.1 mb 0.00 in0.0 mm 0.00 in0.0 mm 0.17 in4.3 mm
07:52 AM 21.0°F-6.1°C 15.5°F-9.2°C 79% Calm Calm -- 30.36 in1028.1 mb 0.00 in0.0 mm 0.00 in0.0 mm 0.17 in4.3 mm
07:53 AM 21.0°F-6.1°C 15.5°F-9.2°C 79% Calm Calm -- 30.36 in1028.1 mb 0.00 in0.0 mm 0.00 in0.0 mm 0.17 in4.3 mm
07:54 AM 21.2°F-6.0°C 15.4°F-9.2°C 78% Calm Calm -- 30.36 in1028.1 mb 0.00 in0.0 mm 0.00 in0.0 mm 0.17 in4.3 mm
07:55 AM 21.2°F-6.0°C 15.4°F-9.2°C 78% Calm Calm -- 30.35 in1027.8 mb 0.00 in0.0 mm 0.00 in0.0 mm 0.17 in4.3 mm
07:56 AM 21.3°F-5.9°C 15.5°F-9.2°C 78% Calm Calm -- 30.37 in1028.4 mb 0.00 in0.0 mm 0.00 in0.0 mm 0.17 in4.3 mm
07:57 AM 21.5°F-5.8°C 16.0°F-8.9°C 79% Calm Calm -- 30.37 in1028.4 mb 0.00 in0.0 mm 0.00 in0.0 mm 0.17 in4.3 mm
07:58 AM 21.5°F-5.8°C 16.0°F-8.9°C 79% Calm Calm -- 30.37 in1028.4 mb 0.00 in0.0 mm 0.00 in0.0 mm 0.17 in4.3 mm
07:59 AM 21.7°F-5.7°C 16.2°F-8.8°C 79% Calm Calm -- 30.37 in1028.4 mb 0.00 in0.0 mm 0.00 in0.0 mm 0.17 in4.3 mm
08:00 AM 21.7°F-5.7°C 16.2°F-8.8°C 79% 1.0 mph ESE1.6 kmh ESE 1.0 mph1.6 kmh 30.37 in1028.4 mb 0.00 in0.0 mm 0.00 in0.0 mm 0.17 in4.3 mm
08:01 AM 22.1°F-5.5°C 16.9°F-8.4°C 80% 1.0 mph ESE1.6 kmh ESE 1.0 mph1.6 kmh 30.37 in1028.4 mb 0.00 in0.0 mm 0.00 in0.0 mm 0.17 in4.3 mm
08:02 AM 22.1°F-5.5°C 16.9°F-8.4°C 80% 1.0 mph ESE1.6 kmh ESE 1.0 mph1.6 kmh 30.36 in1028.1 mb 0.00 in0.0 mm 0.00 in0.0 mm 0.17 in4.3 mm
08:03 AM 22.4°F-5.3°C 17.4°F-8.1°C 81% Calm Calm 1.0 mph1.6 kmh 30.37 in1028.4 mb 0.00 in0.0 mm 0.00 in0.0 mm 0.17 in4.3 mm
08:04 AM 22.4°F-5.3°C 17.4°F-8.1°C 81% Calm Calm 1.0 mph1.6 kmh 30.36 in1028.1 mb 0.00 in0.0 mm 0.00 in0.0 mm 0.17 in4.3 mm
08:05 AM 22.8°F-5.1°C 17.8°F-7.9°C 81% Calm Calm 1.0 mph1.6 kmh 30.37 in1028.4 mb 0.00 in0.0 mm 0.00 in0.0 mm 0.17 in4.3 mm
08:06 AM 22.8°F-5.1°C 17.8°F-7.9°C 81% Calm Calm 1.0 mph1.6 kmh 30.36 in1028.1 mb 0.00 in0.0 mm 0.00 in0.0 mm 0.17 in4.3 mm
08:07 AM 22.9°F-5.1°C 17.9°F-7.8°C 81% Calm Calm 1.0 mph1.6 kmh 30.36 in1028.1 mb 0.00 in0.0 mm 0.00 in0.0 mm 0.17 in4.3 mm
08:08 AM 22.9°F-5.1°C 17.9°F-7.8°C 81% Calm Calm 1.0 mph1.6 kmh 30.36 in1028.1 mb 0.00 in0.0 mm 0.00 in0.0 mm 0.17 in4.3 mm
08:09 AM 23.1°F-4.9°C 18.1°F-7.7°C 81% Calm Calm 1.0 mph1.6 kmh 30.36 in1028.1 mb 0.00 in0.0 mm 0.00 in0.0 mm 0.17 in4.3 mm
08:10 AM 23.3°F-4.8°C 18.3°F-7.6°C 81% Calm Calm 1.0 mph1.6 kmh 30.36 in1028.1 mb 0.00 in0.0 mm 0.00 in0.0 mm 0.17 in4.3 mm
08:11 AM 23.3°F-4.8°C 18.3°F-7.6°C 81% 1.0 mph NNE1.6 kmh NNE 1.0 mph1.6 kmh 30.37 in1028.4 mb 0.00 in0.0 mm 0.00 in0.0 mm 0.17 in4.3 mm
08:12 AM 23.7°F-4.6°C 18.7°F-7.4°C 81% Calm Calm 1.0 mph1.6 kmh 30.37 in1028.4 mb 0.00 in0.0 mm 0.00 in0.0 mm 0.17 in4.3 mm
08:13 AM 23.8°F-4.6°C 18.8°F-7.3°C 81% 1.0 mph NW1.6 kmh NW 1.0 mph1.6 kmh 30.37 in1028.4 mb 0.00 in0.0 mm 0.00 in0.0 mm 0.17 in4.3 mm
08:14 AM 23.8°F-4.6°C 18.8°F-7.3°C 81% Calm Calm 1.0 mph1.6 kmh 30.38 in1028.8 mb 0.00 in0.0 mm 0.00 in0.0 mm 0.17 in4.3 mm
08:15 AM 23.8°F-4.6°C 18.8°F-7.3°C 81% Calm Calm 1.0 mph1.6 kmh 30.37 in1028.4 mb 0.00 in0.0 mm 0.00 in0.0 mm 0.17 in4.3 mm
08:16 AM 24.0°F-4.4°C 19.0°F-7.2°C 81% 1.0 mph NNE1.6 kmh NNE 1.0 mph1.6 kmh 30.38 in1028.8 mb 0.00 in0.0 mm 0.00 in0.0 mm 0.17 in4.3 mm
08:17 AM 24.0°F-4.4°C 19.0°F-7.2°C 81% Calm Calm 2.0 mph3.2 kmh 30.37 in1028.4 mb 0.00 in0.0 mm 0.00 in0.0 mm 0.17 in4.3 mm
08:18 AM 24.4°F-4.2°C 20.0°F-6.7°C 83% Calm Calm 2.0 mph3.2 kmh 30.37 in1028.4 mb 0.00 in0.0 mm 0.00 in0.0 mm 0.17 in4.3 mm
08:19 AM 24.6°F-4.1°C 20.2°F-6.6°C 83% 1.0 mph NNE1.6 kmh NNE 2.0 mph3.2 kmh 30.37 in1028.4 mb 0.00 in0.0 mm 0.00 in0.0 mm 0.17 in4.3 mm
08:20 AM 24.6°F-4.1°C 20.2°F-6.6°C 83% Calm Calm 2.0 mph3.2 kmh 30.38 in1028.8 mb 0.00 in0.0 mm 0.00 in0.0 mm 0.17 in4.3 mm
08:21 AM 24.8°F-4.0°C 19.8°F-6.8°C 81% 1.0 mph NNE1.6 kmh NNE 2.0 mph3.2 kmh 30.38 in1028.8 mb 0.00 in0.0 mm 0.00 in0.0 mm 0.17 in4.3 mm
08:22 AM 24.9°F-3.9°C 19.9°F-6.7°C 81% 1.0 mph NNW1.6 kmh NNW 2.0 mph3.2 kmh 30.37 in1028.4 mb 0.00 in0.0 mm 0.00 in0.0 mm 0.17 in4.3 mm
08:23 AM 24.9°F-3.9°C 19.9°F-6.7°C 81% 1.0 mph NNW1.6 kmh NNW 2.0 mph3.2 kmh 30.37 in1028.4 mb 0.00 in0.0 mm 0.00 in0.0 mm 0.17 in4.3 mm
08:24 AM 25.1°F-3.8°C 20.1°F-6.6°C 81% Calm Calm 2.0 mph3.2 kmh 30.38 in1028.8 mb 0.00 in0.0 mm 0.00 in0.0 mm 0.17 in4.3 mm
08:25 AM 25.3°F-3.7°C 20.3°F-6.5°C 81% Calm Calm 2.0 mph3.2 kmh 30.38 in1028.8 mb 0.00 in0.0 mm 0.00 in0.0 mm 0.17 in4.3 mm
08:26 AM 25.5°F-3.6°C 20.5°F-6.4°C 81% Calm Calm 2.0 mph3.2 kmh 30.37 in1028.4 mb 0.00 in0.0 mm 0.00 in0.0 mm 0.17 in4.3 mm
08:27 AM 25.7°F-3.5°C 20.7°F-6.3°C 81% Calm Calm 1.0 mph1.6 kmh 30.37 in1028.4 mb 0.00 in0.0 mm 0.00 in0.0 mm 0.17 in4.3 mm
08:28 AM 25.7°F-3.5°C 20.7°F-6.3°C 81% Calm Calm 1.0 mph1.6 kmh 30.37 in1028.4 mb 0.00 in0.0 mm 0.00 in0.0 mm 0.17 in4.3 mm
08:29 AM 25.7°F-3.5°C 20.7°F-6.3°C 81% 1.0 mph WNW1.6 kmh WNW 1.0 mph1.6 kmh 30.37 in1028.4 mb 0.00 in0.0 mm 0.00 in0.0 mm 0.17 in4.3 mm
08:30 AM 25.8°F-3.4°C 20.8°F-6.2°C 81% 2.0 mph WNW3.2 kmh WNW 2.0 mph3.2 kmh 30.37 in1028.4 mb 0.00 in0.0 mm 0.00 in0.0 mm 0.17 in4.3 mm
08:31 AM 25.8°F-3.4°C 20.8°F-6.2°C 81% 2.0 mph WNW3.2 kmh WNW 2.0 mph3.2 kmh 30.37 in1028.4 mb 0.00 in0.0 mm 0.00 in0.0 mm 0.17 in4.3 mm
08:32 AM 26.0°F-3.3°C 21.0°F-6.1°C 81% 2.0 mph NW3.2 kmh NW 2.0 mph3.2 kmh 30.37 in1028.4 mb 0.00 in0.0 mm 0.00 in0.0 mm 0.17 in4.3 mm
08:33 AM 26.2°F-3.2°C 21.2°F-6.0°C 81% 2.0 mph NW3.2 kmh NW 2.0 mph3.2 kmh 30.37 in1028.4 mb 0.00 in0.0 mm 0.00 in0.0 mm 0.17 in4.3 mm
08:34 AM 26.4°F-3.1°C 21.4°F-5.9°C 81% 1.0 mph NW1.6 kmh NW 2.0 mph3.2 kmh 30.38 in1028.8 mb 0.00 in0.0 mm 0.00 in0.0 mm 0.17 in4.3 mm
08:35 AM 26.4°F-3.1°C 21.4°F-5.9°C 81% 1.0 mph NW1.6 kmh NW 2.0 mph3.2 kmh 30.37 in1028.4 mb 0.00 in0.0 mm 0.00 in0.0 mm 0.17 in4.3 mm
08:36 AM 26.4°F-3.1°C 21.4°F-5.9°C 81% 1.0 mph NW1.6 kmh NW 2.0 mph3.2 kmh 30.37 in1028.4 mb 0.00 in0.0 mm 0.00 in0.0 mm 0.17 in4.3 mm
08:37 AM 26.6°F-3.0°C 21.0°F-6.1°C 79% Calm Calm 2.0 mph3.2 kmh 30.37 in1028.4 mb 0.00 in0.0 mm 0.00 in0.0 mm 0.17 in4.3 mm
08:38 AM 26.6°F-3.0°C 21.0°F-6.1°C 79% Calm Calm 2.0 mph3.2 kmh 30.38 in1028.8 mb 0.00 in0.0 mm 0.00 in0.0 mm 0.17 in4.3 mm
08:39 AM 26.7°F-2.9°C 21.1°F-6.1°C 79% 2.0 mph 3.2 kmh 2.0 mph3.2 kmh 30.38 in1028.8 mb 0.00 in0.0 mm 0.00 in0.0 mm 0.17 in4.3 mm
08:40 AM 26.7°F-2.9°C 21.1°F-6.1°C 79% 2.0 mph 3.2 kmh 2.0 mph3.2 kmh 30.38 in1028.8 mb 0.00 in0.0 mm 0.00 in0.0 mm 0.17 in4.3 mm
08:41 AM 27.1°F-2.7°C 21.5°F-5.8°C 79% 2.0 mph 3.2 kmh 2.0 mph3.2 kmh 30.38 in1028.8 mb 0.00 in0.0 mm 0.00 in0.0 mm 0.17 in4.3 mm
08:42 AM 27.1°F-2.7°C 21.5°F-5.8°C 79% 2.0 mph 3.2 kmh 2.0 mph3.2 kmh 30.38 in1028.8 mb 0.00 in0.0 mm 0.00 in0.0 mm 0.17 in4.3 mm
08:43 AM 27.5°F-2.5°C 21.9°F-5.6°C 79% 2.0 mph NNW3.2 kmh NNW 2.0 mph3.2 kmh 30.38 in1028.8 mb 0.00 in0.0 mm 0.00 in0.0 mm 0.17 in4.3 mm
08:44 AM 27.5°F-2.5°C 21.9°F-5.6°C 79% Calm Calm 2.0 mph3.2 kmh 30.37 in1028.4 mb 0.00 in0.0 mm 0.00 in0.0 mm 0.17 in4.3 mm
08:45 AM 27.6°F-2.4°C 22.0°F-5.6°C 79% 1.0 mph 1.6 kmh 2.0 mph3.2 kmh 30.38 in1028.8 mb 0.00 in0.0 mm 0.00 in0.0 mm 0.17 in4.3 mm
08:46 AM 27.6°F-2.4°C 22.0°F-5.6°C 79% 1.0 mph NNW1.6 kmh NNW 2.0 mph3.2 kmh 30.38 in1028.8 mb 0.00 in0.0 mm 0.00 in0.0 mm 0.17 in4.3 mm
08:47 AM 27.8°F-2.3°C 22.1°F-5.5°C 79% 1.0 mph 1.6 kmh 2.0 mph3.2 kmh 30.38 in1028.8 mb 0.00 in0.0 mm 0.00 in0.0 mm 0.17 in4.3 mm
08:48 AM 27.8°F-2.3°C 22.1°F-5.5°C 79% Calm Calm 2.0 mph3.2 kmh 30.37 in1028.4 mb 0.00 in0.0 mm 0.00 in0.0 mm 0.17 in4.3 mm
08:49 AM 27.8°F-2.3°C 22.1°F-5.5°C 79% 1.0 mph NNE1.6 kmh NNE 2.0 mph3.2 kmh 30.38 in1028.8 mb 0.00 in0.0 mm 0.00 in0.0 mm 0.17 in4.3 mm
08:50 AM 28.0°F-2.2°C 22.0°F-5.6°C 78% Calm Calm 2.0 mph3.2 kmh 30.38 in1028.8 mb 0.00 in0.0 mm 0.00 in0.0 mm 0.17 in4.3 mm
08:51 AM 28.0°F-2.2°C 22.0°F-5.6°C 78% 1.0 mph NE1.6 kmh NE 2.0 mph3.2 kmh 30.38 in1028.8 mb 0.00 in0.0 mm 0.00 in0.0 mm 0.17 in4.3 mm
08:52 AM 28.0°F-2.2°C 22.0°F-5.6°C 78% 1.0 mph NNE1.6 kmh NNE 2.0 mph3.2 kmh 30.38 in1028.8 mb 0.00 in0.0 mm 0.00 in0.0 mm 0.17 in4.3 mm
08:53 AM 28.2°F-2.1°C 22.2°F-5.4°C 78% 1.0 mph NNE1.6 kmh NNE 2.0 mph3.2 kmh 30.38 in1028.8 mb 0.00 in0.0 mm 0.00 in0.0 mm 0.17 in4.3 mm
08:54 AM 28.2°F-2.1°C 22.2°F-5.4°C 78% 1.0 mph NNE1.6 kmh NNE 1.0 mph1.6 kmh 30.38 in1028.8 mb 0.00 in0.0 mm 0.00 in0.0 mm 0.17 in4.3 mm
08:55 AM 28.2°F-2.1°C 22.2°F-5.4°C 78% 1.0 mph NNE1.6 kmh NNE 1.0 mph1.6 kmh 30.39 in1029.1 mb 0.00 in0.0 mm 0.00 in0.0 mm 0.17 in4.3 mm
08:56 AM 28.3°F-2.1°C 21.4°F-5.9°C 75% 1.0 mph NNE1.6 kmh NNE 1.0 mph1.6 kmh 30.38 in1028.8 mb 0.00 in0.0 mm 0.00 in0.0 mm 0.17 in4.3 mm
08:57 AM 28.3°F-2.1°C 21.4°F-5.9°C 75% 2.0 mph NNW3.2 kmh NNW 2.0 mph3.2 kmh 30.39 in1029.1 mb 0.00 in0.0 mm 0.00 in0.0 mm 0.17 in4.3 mm
08:58 AM 28.5°F-1.9°C 21.6°F-5.8°C 75% 1.0 mph NNW1.6 kmh NNW 2.0 mph3.2 kmh 30.38 in1028.8 mb 0.00 in0.0 mm 0.00 in0.0 mm 0.17 in4.3 mm
08:59 AM 28.5°F-1.9°C 21.6°F-5.8°C 75% 2.0 mph NNE3.2 kmh NNE 2.0 mph3.2 kmh 30.39 in1029.1 mb 0.00 in0.0 mm 0.00 in0.0 mm 0.17 in4.3 mm
09:00 AM 28.7°F-1.8°C 21.8°F-5.7°C 75% 2.0 mph 3.2 kmh 3.0 mph4.8 kmh 30.38 in1028.8 mb 0.00 in0.0 mm 0.00 in0.0 mm 0.17 in4.3 mm
09:01 AM 29.1°F-1.6°C 22.2°F-5.4°C 75% 2.0 mph NNW3.2 kmh NNW 3.0 mph4.8 kmh 30.38 in1028.8 mb 0.00 in0.0 mm 0.00 in0.0 mm 0.17 in4.3 mm
09:02 AM 29.2°F-1.6°C 22.3°F-5.4°C 75% 1.0 mph NNW1.6 kmh NNW 3.0 mph4.8 kmh 30.38 in1028.8 mb 0.00 in0.0 mm 0.00 in0.0 mm 0.17 in4.3 mm
09:03 AM 29.4°F-1.4°C 22.5°F-5.3°C 75% 1.0 mph NNW1.6 kmh NNW 3.0 mph4.8 kmh 30.38 in1028.8 mb 0.00 in0.0 mm 0.00 in0.0 mm 0.17 in4.3 mm
09:04 AM 29.4°F-1.4°C 22.5°F-5.3°C 75% 2.0 mph NW3.2 kmh NW 3.0 mph4.8 kmh 30.38 in1028.8 mb 0.00 in0.0 mm 0.00 in0.0 mm 0.17 in4.3 mm
09:05 AM 29.8°F-1.2°C 22.9°F-5.1°C 75% 2.0 mph NW3.2 kmh NW 3.0 mph4.8 kmh 30.38 in1028.8 mb 0.00 in0.0 mm 0.00 in0.0 mm 0.17 in4.3 mm
09:06 AM 29.8°F-1.2°C 22.9°F-5.1°C 75% 2.0 mph NE3.2 kmh NE 3.0 mph4.8 kmh 30.38 in1028.8 mb 0.00 in0.0 mm 0.00 in0.0 mm 0.17 in4.3 mm
09:07 AM 30.0°F-1.1°C 23.1°F-4.9°C 75% Calm Calm 3.0 mph4.8 kmh 30.38 in1028.8 mb 0.00 in0.0 mm 0.00 in0.0 mm 0.17 in4.3 mm
09:08 AM 30.1°F-1.1°C 22.5°F-5.3°C 73% 1.0 mph WNW1.6 kmh WNW 3.0 mph4.8 kmh 30.39 in1029.1 mb 0.00 in0.0 mm 0.00 in0.0 mm 0.17 in4.3 mm
09:09 AM 30.1°F-1.1°C 22.5°F-5.3°C 73% 2.0 mph WNW3.2 kmh WNW 3.0 mph4.8 kmh 30.39 in1029.1 mb 0.00 in0.0 mm 0.00 in0.0 mm 0.17 in4.3 mm
09:10 AM 30.3°F-0.9°C 22.7°F-5.2°C 73% 2.0 mph WNW3.2 kmh WNW 3.0 mph4.8 kmh 30.38 in1028.8 mb 0.00 in0.0 mm 0.00 in0.0 mm 0.17 in4.3 mm
09:11 AM 30.5°F-0.8°C 22.9°F-5.1°C 73% Calm Calm 2.0 mph3.2 kmh 30.39 in1029.1 mb 0.00 in0.0 mm 0.00 in0.0 mm 0.17 in4.3 mm
09:12 AM 30.5°F-0.8°C 22.9°F-5.1°C 73% Calm Calm 2.0 mph3.2 kmh 30.38 in1028.8 mb 0.00 in0.0 mm 0.00 in0.0 mm 0.17 in4.3 mm
09:13 AM 30.7°F-0.7°C 22.5°F-5.3°C 71% 1.0 mph NNW1.6 kmh NNW 2.0 mph3.2 kmh 30.38 in1028.8 mb 0.00 in0.0 mm 0.00 in0.0 mm 0.17 in4.3 mm
09:14 AM 30.7°F-0.7°C 22.5°F-5.3°C 71% 1.0 mph NNW1.6 kmh NNW 2.0 mph3.2 kmh 30.38 in1028.8 mb 0.00 in0.0 mm 0.00 in0.0 mm 0.17 in4.3 mm
09:15 AM 30.7°F-0.7°C 22.1°F-5.5°C 70% 1.0 mph NNE1.6 kmh NNE 2.0 mph3.2 kmh 30.38 in1028.8 mb 0.00 in0.0 mm 0.00 in0.0 mm 0.17 in4.3 mm
09:16 AM 30.9°F-0.6°C 22.3°F-5.4°C 70% 1.0 mph NNE1.6 kmh NNE 2.0 mph3.2 kmh 30.38 in1028.8 mb 0.00 in0.0 mm 0.00 in0.0 mm 0.17 in4.3 mm
09:17 AM 30.9°F-0.6°C 22.3°F-5.4°C 70% Calm Calm 2.0 mph3.2 kmh 30.38 in1028.8 mb 0.00 in0.0 mm 0.00 in0.0 mm 0.17 in4.3 mm
09:18 AM 30.7°F-0.7°C 22.1°F-5.5°C 70% Calm Calm 2.0 mph3.2 kmh 30.38 in1028.8 mb 0.00 in0.0 mm 0.00 in0.0 mm 0.17 in4.3 mm
09:19 AM 30.7°F-0.7°C 22.1°F-5.5°C 70% 1.0 mph NE1.6 kmh NE 1.0 mph1.6 kmh 30.38 in1028.8 mb 0.00 in0.0 mm 0.00 in0.0 mm 0.17 in4.3 mm
09:20 AM 30.9°F-0.6°C 22.3°F-5.4°C 70% 1.0 mph NE1.6 kmh NE 1.0 mph1.6 kmh 30.38 in1028.8 mb 0.00 in0.0 mm 0.00 in0.0 mm 0.17 in4.3 mm
09:21 AM 30.9°F-0.6°C 22.3°F-5.4°C 70% 1.0 mph NE1.6 kmh NE 1.0 mph1.6 kmh 30.38 in1028.8 mb 0.00 in0.0 mm 0.00 in0.0 mm 0.17 in4.3 mm
09:22 AM 30.9°F-0.6°C 22.3°F-5.4°C 70% Calm Calm 1.0 mph1.6 kmh 30.39 in1029.1 mb 0.00 in0.0 mm 0.00 in0.0 mm 0.17 in4.3 mm
09:23 AM 30.9°F-0.6°C 22.0°F-5.6°C 69% Calm Calm 1.0 mph1.6 kmh 30.38 in1028.8 mb 0.00 in0.0 mm 0.00 in0.0 mm 0.17 in4.3 mm
09:24 AM 31.1°F-0.5°C 22.2°F-5.4°C 69% 1.0 mph ENE1.6 kmh ENE 1.0 mph1.6 kmh 30.38 in1028.8 mb 0.00 in0.0 mm 0.00 in0.0 mm 0.17 in4.3 mm
09:25 AM 31.1°F-0.5°C 21.8°F-5.7°C 68% 1.0 mph NE1.6 kmh NE 1.0 mph1.6 kmh 30.38 in1028.8 mb 0.00 in0.0 mm 0.00 in0.0 mm 0.17 in4.3 mm
09:26 AM 31.2°F-0.4°C 21.9°F-5.6°C 68% 2.0 mph NE3.2 kmh NE 2.0 mph3.2 kmh 30.38 in1028.8 mb 0.00 in0.0 mm 0.00 in0.0 mm 0.17 in4.3 mm
09:27 AM 31.2°F-0.4°C 21.9°F-5.6°C 68% 2.0 mph NE3.2 kmh NE 2.0 mph3.2 kmh 30.38 in1028.8 mb 0.00 in0.0 mm 0.00 in0.0 mm 0.17 in4.3 mm
09:28 AM 31.4°F-0.3°C 22.1°F-5.5°C 68% 2.0 mph NE3.2 kmh NE 2.0 mph3.2 kmh 30.39 in1029.1 mb 0.00 in0.0 mm 0.00 in0.0 mm 0.17 in4.3 mm
09:29 AM 31.6°F-0.2°C 22.3°F-5.4°C 68% 2.0 mph NE3.2 kmh NE 2.0 mph3.2 kmh 30.38 in1028.8 mb 0.00 in0.0 mm 0.00 in0.0 mm 0.17 in4.3 mm
09:30 AM 31.6°F-0.2°C 21.6°F-5.8°C 66% 1.0 mph NNW1.6 kmh NNW 2.0 mph3.2 kmh 30.39 in1029.1 mb 0.00 in0.0 mm 0.00 in0.0 mm 0.17 in4.3 mm
09:31 AM 31.9°F-0.1°C 21.5°F-5.8°C 65% 1.0 mph NNW1.6 kmh NNW 2.0 mph3.2 kmh 30.39 in1029.1 mb 0.00 in0.0 mm 0.00 in0.0 mm 0.17 in4.3 mm
09:32 AM 31.9°F-0.1°C 21.5°F-5.8°C 65% 1.0 mph NNW1.6 kmh NNW 2.0 mph3.2 kmh 30.38 in1028.8 mb 0.00 in0.0 mm 0.00 in0.0 mm 0.17 in4.3 mm
09:33 AM 31.9°F-0.1°C 21.5°F-5.8°C 65% 1.0 mph 1.6 kmh 2.0 mph3.2 kmh 30.39 in1029.1 mb 0.00 in0.0 mm 0.00 in0.0 mm 0.17 in4.3 mm
09:34 AM 31.9°F-0.1°C 21.5°F-5.8°C 65% 1.0 mph 1.6 kmh 2.0 mph3.2 kmh 30.39 in1029.1 mb 0.00 in0.0 mm 0.00 in0.0 mm 0.17 in4.3 mm
09:35 AM 31.9°F-0.1°C 21.5°F-5.8°C 65% 1.0 mph NNE1.6 kmh NNE 2.0 mph3.2 kmh 30.39 in1029.1 mb 0.00 in0.0 mm 0.00 in0.0 mm 0.17 in4.3 mm
09:36 AM 32.3°F0.2°C 21.9°F-5.6°C 65% 2.0 mph WNW3.2 kmh WNW 2.0 mph3.2 kmh 30.38 in1028.8 mb 0.00 in0.0 mm 0.00 in0.0 mm 0.17 in4.3 mm
09:37 AM 32.5°F0.3°C 22.1°F-5.5°C 65% 2.0 mph NW3.2 kmh NW 2.0 mph3.2 kmh 30.39 in1029.1 mb 0.00 in0.0 mm 0.00 in0.0 mm 0.17 in4.3 mm
09:38 AM 32.5°F0.3°C 22.1°F-5.5°C 65% 2.0 mph NW3.2 kmh NW 2.0 mph3.2 kmh 30.38 in1028.8 mb 0.00 in0.0 mm 0.00 in0.0 mm 0.17 in4.3 mm
09:39 AM 32.7°F0.4°C 22.3°F-5.4°C 65% 2.0 mph WNW3.2 kmh WNW 2.0 mph3.2 kmh 30.38 in1028.8 mb 0.00 in0.0 mm 0.00 in0.0 mm 0.17 in4.3 mm
09:40 AM 32.7°F0.4°C 22.3°F-5.4°C 65% 1.0 mph W1.6 kmh W 2.0 mph3.2 kmh 30.38 in1028.8 mb 0.00 in0.0 mm 0.00 in0.0 mm 0.17 in4.3 mm
09:41 AM 32.7°F0.4°C 22.3°F-5.4°C 65% 2.0 mph W3.2 kmh W 2.0 mph3.2 kmh 30.39 in1029.1 mb 0.00 in0.0 mm 0.00 in0.0 mm 0.17 in4.3 mm
09:42 AM 32.9°F0.5°C 21.7°F-5.7°C 63% 2.0 mph W3.2 kmh W 2.0 mph3.2 kmh 30.39 in1029.1 mb 0.00 in0.0 mm 0.00 in0.0 mm 0.17 in4.3 mm
09:43 AM 32.9°F0.5°C 21.7°F-5.7°C 63% 3.0 mph NNE4.8 kmh NNE 3.0 mph4.8 kmh 30.39 in1029.1 mb 0.00 in0.0 mm 0.00 in0.0 mm 0.17 in4.3 mm
09:44 AM 32.9°F0.5°C 21.7°F-5.7°C 63% 2.0 mph NNE3.2 kmh NNE 3.0 mph4.8 kmh 30.38 in1028.8 mb 0.00 in0.0 mm 0.00 in0.0 mm 0.17 in4.3 mm
09:45 AM 32.9°F0.5°C 21.7°F-5.7°C 63% Calm Calm 3.0 mph4.8 kmh 30.39 in1029.1 mb 0.00 in0.0 mm 0.00 in0.0 mm 0.17 in4.3 mm
09:46 AM 32.9°F0.5°C 21.7°F-5.7°C 63% 1.0 mph NE1.6 kmh NE 3.0 mph4.8 kmh 30.38 in1028.8 mb 0.00 in0.0 mm 0.00 in0.0 mm 0.17 in4.3 mm
09:47 AM 32.9°F0.5°C 21.7°F-5.7°C 63% 2.0 mph NE3.2 kmh NE 3.0 mph4.8 kmh 30.39 in1029.1 mb 0.00 in0.0 mm 0.00 in0.0 mm 0.17 in4.3 mm
09:48 AM 33.0°F0.6°C 21.8°F-5.7°C 63% 2.0 mph NNE3.2 kmh NNE 3.0 mph4.8 kmh 30.39 in1029.1 mb 0.00 in0.0 mm 0.00 in0.0 mm 0.17 in4.3 mm
09:49 AM 33.0°F0.6°C 21.8°F-5.7°C 63% 1.0 mph 1.6 kmh 3.0 mph4.8 kmh 30.38 in1028.8 mb 0.00 in0.0 mm 0.00 in0.0 mm 0.17 in4.3 mm
09:50 AM 33.2°F0.7°C 22.0°F-5.6°C 63% 1.0 mph NNW1.6 kmh NNW 3.0 mph4.8 kmh 30.38 in1028.8 mb 0.00 in0.0 mm 0.00 in0.0 mm 0.17 in4.3 mm
09:51 AM 33.2°F0.7°C 22.0°F-5.6°C 63% Calm Calm 3.0 mph4.8 kmh 30.38 in1028.8 mb 0.00 in0.0 mm 0.00 in0.0 mm 0.17 in4.3 mm
09:52 AM 33.4°F0.8°C 22.2°F-5.4°C 63% Calm Calm 3.0 mph4.8 kmh 30.38 in1028.8 mb 0.00 in0.0 mm 0.00 in0.0 mm 0.17 in4.3 mm
09:53 AM 33.4°F0.8°C 22.2°F-5.4°C 63% Calm Calm 3.0 mph4.8 kmh 30.38 in1028.8 mb 0.00 in0.0 mm 0.00 in0.0 mm 0.17 in4.3 mm
09:54 AM 33.4°F0.8°C 22.2°F-5.4°C 63% Calm Calm 2.0 mph3.2 kmh 30.39 in1029.1 mb 0.00 in0.0 mm 0.00 in0.0 mm 0.17 in4.3 mm
09:55 AM 33.6°F0.9°C 22.4°F-5.3°C 63% Calm Calm 2.0 mph3.2 kmh 30.38 in1028.8 mb 0.00 in0.0 mm 0.00 in0.0 mm 0.17 in4.3 mm
09:56 AM 33.8°F1.0°C 21.8°F-5.7°C 61% 2.0 mph NW3.2 kmh NW 2.0 mph3.2 kmh 30.38 in1028.8 mb 0.00 in0.0 mm 0.00 in0.0 mm 0.17 in4.3 mm
09:57 AM 33.8°F1.0°C 21.8°F-5.7°C 61% 1.0 mph NW1.6 kmh NW 2.0 mph3.2 kmh 30.38 in1028.8 mb 0.00 in0.0 mm 0.00 in0.0 mm 0.17 in4.3 mm
09:58 AM 33.8°F1.0°C 21.8°F-5.7°C 61% 1.0 mph NW1.6 kmh NW 2.0 mph3.2 kmh 30.38 in1028.8 mb 0.00 in0.0 mm 0.00 in0.0 mm 0.17 in4.3 mm
09:59 AM 33.8°F1.0°C 21.8°F-5.7°C 61% 1.0 mph NW1.6 kmh NW 2.0 mph3.2 kmh 30.38 in1028.8 mb 0.00 in0.0 mm 0.00 in0.0 mm 0.17 in4.3 mm
10:00 AM 33.9°F1.1°C 21.9°F-5.6°C 61% 2.0 mph NE3.2 kmh NE 2.0 mph3.2 kmh 30.39 in1029.1 mb 0.00 in0.0 mm 0.00 in0.0 mm 0.17 in4.3 mm
10:01 AM 33.9°F1.1°C 21.9°F-5.6°C 61% 2.0 mph NE3.2 kmh NE 2.0 mph3.2 kmh 30.38 in1028.8 mb 0.00 in0.0 mm 0.00 in0.0 mm 0.17 in4.3 mm
10:02 AM 34.1°F1.2°C 21.7°F-5.7°C 60% 2.0 mph NE3.2 kmh NE 2.0 mph3.2 kmh 30.38 in1028.8 mb 0.00 in0.0 mm 0.00 in0.0 mm 0.17 in4.3 mm
10:03 AM 34.3°F1.3°C 21.9°F-5.6°C 60% 2.0 mph NW3.2 kmh NW 2.0 mph3.2 kmh 30.38 in1028.8 mb 0.00 in0.0 mm 0.00 in0.0 mm 0.17 in4.3 mm
10:04 AM 34.5°F1.4°C 22.1°F-5.5°C 60% 2.0 mph 3.2 kmh 2.0 mph3.2 kmh 30.38 in1028.8 mb 0.00 in0.0 mm 0.00 in0.0 mm 0.17 in4.3 mm
10:05 AM 34.5°F1.4°C 22.1°F-5.5°C 60% 2.0 mph 3.2 kmh 2.0 mph3.2 kmh 30.38 in1028.8 mb 0.00 in0.0 mm 0.00 in0.0 mm 0.17 in4.3 mm
10:06 AM 34.7°F1.5°C 22.3°F-5.4°C 60% 1.0 mph 1.6 kmh 2.0 mph3.2 kmh 30.39 in1029.1 mb 0.00 in0.0 mm 0.00 in0.0 mm 0.17 in4.3 mm
10:07 AM 34.7°F1.5°C 22.3°F-5.4°C 60% 1.0 mph 1.6 kmh 2.0 mph3.2 kmh 30.38 in1028.8 mb 0.00 in0.0 mm 0.00 in0.0 mm 0.17 in4.3 mm
10:08 AM 35.0°F1.7°C 22.6°F-5.2°C 60% 2.0 mph 3.2 kmh 2.0 mph3.2 kmh 30.39 in1029.1 mb 0.00 in0.0 mm 0.00 in0.0 mm 0.17 in4.3 mm
10:09 AM 35.2°F1.8°C 23.2°F-4.9°C 61% 2.0 mph SE3.2 kmh SE 2.0 mph3.2 kmh 30.39 in1029.1 mb 0.00 in0.0 mm 0.00 in0.0 mm 0.17 in4.3 mm
10:10 AM 35.5°F1.9°C 23.0°F-5.0°C 60% 2.0 mph S3.2 kmh S 3.0 mph4.8 kmh 30.39 in1029.1 mb 0.00 in0.0 mm 0.00 in0.0 mm 0.17 in4.3 mm
10:11 AM 35.5°F1.9°C 23.0°F-5.0°C 60% Calm Calm 3.0 mph4.8 kmh 30.39 in1029.1 mb 0.00 in0.0 mm 0.00 in0.0 mm 0.17 in4.3 mm
10:12 AM 35.5°F1.9°C 23.0°F-5.0°C 60% 1.0 mph SSE1.6 kmh SSE 3.0 mph4.8 kmh 30.38 in1028.8 mb 0.00 in0.0 mm 0.00 in0.0 mm 0.17 in4.3 mm
10:13 AM 35.9°F2.2°C 23.4°F-4.8°C 60% 1.0 mph SW1.6 kmh SW 3.0 mph4.8 kmh 30.38 in1028.8 mb 0.00 in0.0 mm 0.00 in0.0 mm 0.17 in4.3 mm
10:14 AM 36.1°F2.3°C 23.6°F-4.7°C 60% 2.0 mph NW3.2 kmh NW 3.0 mph4.8 kmh 30.39 in1029.1 mb 0.00 in0.0 mm 0.00 in0.0 mm 0.17 in4.3 mm
10:15 AM 36.3°F2.4°C 23.4°F-4.8°C 59% 2.0 mph NW3.2 kmh NW 3.0 mph4.8 kmh 30.39 in1029.1 mb 0.00 in0.0 mm 0.00 in0.0 mm 0.17 in4.3 mm
10:16 AM 36.3°F2.4°C 23.0°F-5.0°C 58% 2.0 mph 3.2 kmh 3.0 mph4.8 kmh 30.39 in1029.1 mb 0.00 in0.0 mm 0.00 in0.0 mm 0.17 in4.3 mm
10:17 AM 36.3°F2.4°C 21.7°F-5.7°C 55% 3.0 mph 4.8 kmh 3.0 mph4.8 kmh 30.38 in1028.8 mb 0.00 in0.0 mm 0.00 in0.0 mm 0.17 in4.3 mm
10:18 AM 36.1°F2.3°C 21.5°F-5.8°C 55% 2.0 mph WNW3.2 kmh WNW 3.0 mph4.8 kmh 30.39 in1029.1 mb 0.00 in0.0 mm 0.00 in0.0 mm 0.17 in4.3 mm
10:19 AM 36.1°F2.3°C 21.5°F-5.8°C 55% 3.0 mph 4.8 kmh 3.0 mph4.8 kmh 30.39 in1029.1 mb 0.00 in0.0 mm 0.00 in0.0 mm 0.17 in4.3 mm
10:20 AM 36.3°F2.4°C 21.7°F-5.7°C 55% 2.0 mph 3.2 kmh 3.0 mph4.8 kmh 30.39 in1029.1 mb 0.00 in0.0 mm 0.00 in0.0 mm 0.17 in4.3 mm
10:21 AM 36.3°F2.4°C 21.7°F-5.7°C 55% 2.0 mph 3.2 kmh 3.0 mph4.8 kmh 30.39 in1029.1 mb 0.00 in0.0 mm 0.00 in0.0 mm 0.17 in4.3 mm
10:22 AM 36.3°F2.4°C 21.7°F-5.7°C 55% 2.0 mph NNE3.2 kmh NNE 3.0 mph4.8 kmh 30.39 in1029.1 mb 0.00 in0.0 mm 0.00 in0.0 mm 0.17 in4.3 mm
10:23 AM 36.3°F2.4°C 21.7°F-5.7°C 55% 1.0 mph NNE1.6 kmh NNE 3.0 mph4.8 kmh 30.39 in1029.1 mb 0.00 in0.0 mm 0.00 in0.0 mm 0.17 in4.3 mm
10:24 AM 36.5°F2.5°C 21.9°F-5.6°C 55% 1.0 mph NNE1.6 kmh NNE 3.0 mph4.8 kmh 30.39 in1029.1 mb 0.00 in0.0 mm 0.00 in0.0 mm 0.17 in4.3 mm
10:25 AM 36.5°F2.5°C 21.9°F-5.6°C 55% Calm Calm 3.0 mph4.8 kmh 30.39 in1029.1 mb 0.00 in0.0 mm 0.00 in0.0 mm 0.17 in4.3 mm
10:26 AM 36.6°F2.6°C 22.0°F-5.6°C 55% 1.0 mph ESE1.6 kmh ESE 3.0 mph4.8 kmh 30.39 in1029.1 mb 0.00 in0.0 mm 0.00 in0.0 mm 0.17 in4.3 mm
10:27 AM 36.6°F2.6°C 22.4°F-5.3°C 56% 2.0 mph ESE3.2 kmh ESE 3.0 mph4.8 kmh 30.39 in1029.1 mb 0.00 in0.0 mm 0.00 in0.0 mm 0.17 in4.3 mm
10:28 AM 37.2°F2.9°C 23.0°F-5.0°C 56% 1.0 mph ESE1.6 kmh ESE 3.0 mph4.8 kmh 30.39 in1029.1 mb 0.00 in0.0 mm 0.00 in0.0 mm 0.17 in4.3 mm
10:29 AM 37.2°F2.9°C 23.0°F-5.0°C 56% Calm Calm 3.0 mph4.8 kmh 30.39 in1029.1 mb 0.00 in0.0 mm 0.00 in0.0 mm 0.17 in4.3 mm
10:30 AM 37.4°F3.0°C 22.7°F-5.2°C 55% 2.0 mph NW3.2 kmh NW 3.0 mph4.8 kmh 30.39 in1029.1 mb 0.00 in0.0 mm 0.00 in0.0 mm 0.17 in4.3 mm
10:31 AM 37.5°F3.1°C 22.8°F-5.1°C 55% 3.0 mph WNW4.8 kmh WNW 3.0 mph4.8 kmh 30.39 in1029.1 mb 0.00 in0.0 mm 0.00 in0.0 mm 0.17 in4.3 mm
10:32 AM 37.7°F3.2°C 23.0°F-5.0°C 55% 3.0 mph NNW4.8 kmh NNW 3.0 mph4.8 kmh 30.39 in1029.1 mb 0.00 in0.0 mm 0.00 in0.0 mm 0.17 in4.3 mm
10:33 AM 37.9°F3.3°C 23.2°F-4.9°C 55% 2.0 mph NNW3.2 kmh NNW 3.0 mph4.8 kmh 30.39 in1029.1 mb 0.00 in0.0 mm 0.00 in0.0 mm 0.17 in4.3 mm
10:34 AM 37.9°F3.3°C 22.7°F-5.2°C 54% 2.0 mph NNE3.2 kmh NNE 3.0 mph4.8 kmh 30.39 in1029.1 mb 0.00 in0.0 mm 0.00 in0.0 mm 0.17 in4.3 mm
10:35 AM 37.9°F3.3°C 22.7°F-5.2°C 54% 4.0 mph ESE6.4 kmh ESE 4.0 mph6.4 kmh 30.40 in1029.5 mb 0.00 in0.0 mm 0.00 in0.0 mm 0.17 in4.3 mm
10:36 AM 37.9°F3.3°C 22.3°F-5.4°C 53% 4.0 mph ESE6.4 kmh ESE 4.0 mph6.4 kmh 30.39 in1029.1 mb 0.00 in0.0 mm 0.00 in0.0 mm 0.17 in4.3 mm
10:37 AM 37.9°F3.3°C 22.3°F-5.4°C 53% 4.0 mph ESE6.4 kmh ESE 4.0 mph6.4 kmh 30.39 in1029.1 mb 0.00 in0.0 mm 0.00 in0.0 mm 0.17 in4.3 mm
10:38 AM 38.1°F3.4°C 22.5°F-5.3°C 53% 4.0 mph NE6.4 kmh NE 4.0 mph6.4 kmh 30.39 in1029.1 mb 0.00 in0.0 mm 0.00 in0.0 mm 0.17 in4.3 mm
10:39 AM 38.1°F3.4°C 22.5°F-5.3°C 53% 3.0 mph ESE4.8 kmh ESE 4.0 mph6.4 kmh 30.39 in1029.1 mb 0.00 in0.0 mm 0.00 in0.0 mm 0.17 in4.3 mm
10:40 AM 38.1°F3.4°C 22.5°F-5.3°C 53% 2.0 mph ESE3.2 kmh ESE 4.0 mph6.4 kmh 30.39 in1029.1 mb 0.00 in0.0 mm 0.00 in0.0 mm 0.17 in4.3 mm
10:41 AM 38.2°F3.4°C 22.6°F-5.2°C 53% Calm Calm 4.0 mph6.4 kmh 30.39 in1029.1 mb 0.00 in0.0 mm 0.00 in0.0 mm 0.17 in4.3 mm
10:42 AM 38.2°F3.4°C 22.6°F-5.2°C 53% 3.0 mph E4.8 kmh E 4.0 mph6.4 kmh 30.39 in1029.1 mb 0.00 in0.0 mm 0.00 in0.0 mm 0.17 in4.3 mm
10:43 AM 38.6°F3.7°C 22.9°F-5.1°C 53% 3.0 mph E4.8 kmh E 4.0 mph6.4 kmh 30.39 in1029.1 mb 0.00 in0.0 mm 0.00 in0.0 mm 0.17 in4.3 mm
10:44 AM 38.8°F3.8°C 23.1°F-4.9°C 53% 3.0 mph E4.8 kmh E 4.0 mph6.4 kmh 30.39 in1029.1 mb 0.00 in0.0 mm 0.00 in0.0 mm 0.17 in4.3 mm
10:45 AM 39.2°F4.0°C 22.5°F-5.3°C 51% 3.0 mph SSE4.8 kmh SSE 4.0 mph6.4 kmh 30.39 in1029.1 mb 0.00 in0.0 mm 0.00 in0.0 mm 0.17 in4.3 mm
10:46 AM 39.2°F4.0°C 23.5°F-4.7°C 53% 1.0 mph S1.6 kmh S 4.0 mph6.4 kmh 30.40 in1029.5 mb 0.00 in0.0 mm 0.00 in0.0 mm 0.17 in4.3 mm
10:47 AM 39.3°F4.1°C 23.6°F-4.7°C 53% 2.0 mph S3.2 kmh S 4.0 mph6.4 kmh 30.39 in1029.1 mb 0.00 in0.0 mm 0.00 in0.0 mm 0.17 in4.3 mm
10:48 AM 39.5°F4.2°C 23.8°F-4.6°C 53% 5.0 mph ESE8.0 kmh ESE 5.0 mph8.0 kmh 30.40 in1029.5 mb 0.00 in0.0 mm 0.00 in0.0 mm 0.17 in4.3 mm
10:49 AM 39.5°F4.2°C 23.8°F-4.6°C 53% 2.0 mph SE3.2 kmh SE 5.0 mph8.0 kmh 30.40 in1029.5 mb 0.00 in0.0 mm 0.00 in0.0 mm 0.17 in4.3 mm
10:50 AM 39.7°F4.3°C 23.0°F-5.0°C 51% 2.0 mph NNE3.2 kmh NNE 5.0 mph8.0 kmh 30.40 in1029.5 mb 0.00 in0.0 mm 0.00 in0.0 mm 0.17 in4.3 mm
10:51 AM 39.7°F4.3°C 22.5°F-5.3°C 50% 2.0 mph NNE3.2 kmh NNE 5.0 mph8.0 kmh 30.39 in1029.1 mb 0.00 in0.0 mm 0.00 in0.0 mm 0.17 in4.3 mm
10:52 AM 39.7°F4.3°C 23.0°F-5.0°C 51% 1.0 mph S1.6 kmh S 5.0 mph8.0 kmh 30.39 in1029.1 mb 0.00 in0.0 mm 0.00 in0.0 mm 0.17 in4.3 mm
10:53 AM 39.9°F4.4°C 23.2°F-4.9°C 51% 1.0 mph S1.6 kmh S 5.0 mph8.0 kmh 30.39 in1029.1 mb 0.00 in0.0 mm 0.00 in0.0 mm 0.17 in4.3 mm
10:54 AM 39.9°F4.4°C 23.2°F-4.9°C 51% 3.0 mph SE4.8 kmh SE 5.0 mph8.0 kmh 30.39 in1029.1 mb 0.00 in0.0 mm 0.00 in0.0 mm 0.17 in4.3 mm
10:55 AM 39.9°F4.4°C 23.2°F-4.9°C 51% 2.0 mph SE3.2 kmh SE 5.0 mph8.0 kmh 30.40 in1029.5 mb 0.00 in0.0 mm 0.00 in0.0 mm 0.17 in4.3 mm
10:56 AM 39.9°F4.4°C 23.2°F-4.9°C 51% 2.0 mph SE3.2 kmh SE 5.0 mph8.0 kmh 30.40 in1029.5 mb 0.00 in0.0 mm 0.00 in0.0 mm 0.17 in4.3 mm
10:57 AM 40.4°F4.7°C 23.2°F-4.9°C 50% 2.0 mph SE3.2 kmh SE 5.0 mph8.0 kmh 30.39 in1029.1 mb 0.00 in0.0 mm 0.00 in0.0 mm 0.17 in4.3 mm
10:58 AM 40.6°F4.8°C 23.8°F-4.6°C 51% 3.0 mph ESE4.8 kmh ESE 4.0 mph6.4 kmh 30.39 in1029.1 mb 0.00 in0.0 mm 0.00 in0.0 mm 0.17 in4.3 mm
10:59 AM 40.6°F4.8°C 23.8°F-4.6°C 51% 1.0 mph ESE1.6 kmh ESE 4.0 mph6.4 kmh 30.39 in1029.1 mb 0.00 in0.0 mm 0.00 in0.0 mm 0.17 in4.3 mm
11:00 AM 40.6°F4.8°C 23.8°F-4.6°C 51% 2.0 mph ESE3.2 kmh ESE 4.0 mph6.4 kmh 30.39 in1029.1 mb 0.00 in0.0 mm 0.00 in0.0 mm 0.17 in4.3 mm
11:01 AM 40.9°F4.9°C 24.1°F-4.4°C 51% 1.0 mph ENE1.6 kmh ENE 4.0 mph6.4 kmh 30.39 in1029.1 mb 0.00 in0.0 mm 0.00 in0.0 mm 0.17 in4.3 mm
11:02 AM 41.1°F5.1°C 23.8°F-4.6°C 50% 1.0 mph WSW1.6 kmh WSW 4.0 mph6.4 kmh 30.40 in1029.5 mb 0.00 in0.0 mm 0.00 in0.0 mm 0.17 in4.3 mm
11:03 AM 41.3°F5.2°C 24.0°F-4.4°C 50% 4.0 mph WSW6.4 kmh WSW 4.0 mph6.4 kmh 30.39 in1029.1 mb 0.00 in0.0 mm 0.00 in0.0 mm 0.17 in4.3 mm
11:04 AM 41.3°F5.2°C 24.0°F-4.4°C 50% 2.0 mph NNW3.2 kmh NNW 4.0 mph6.4 kmh 30.39 in1029.1 mb 0.00 in0.0 mm 0.00 in0.0 mm 0.17 in4.3 mm
11:05 AM 41.5°F5.3°C 24.2°F-4.3°C 50% 4.0 mph E6.4 kmh E 4.0 mph6.4 kmh 30.39 in1029.1 mb 0.00 in0.0 mm 0.00 in0.0 mm 0.17 in4.3 mm
11:06 AM 41.5°F5.3°C 24.2°F-4.3°C 50% 4.0 mph NNE6.4 kmh NNE 4.0 mph6.4 kmh 30.40 in1029.5 mb 0.00 in0.0 mm 0.00 in0.0 mm 0.17 in4.3 mm
11:07 AM 41.5°F5.3°C 24.2°F-4.3°C 50% 2.0 mph NW3.2 kmh NW 4.0 mph6.4 kmh 30.39 in1029.1 mb 0.00 in0.0 mm 0.00 in0.0 mm 0.17 in4.3 mm
11:08 AM 41.5°F5.3°C 24.2°F-4.3°C 50% 4.0 mph E6.4 kmh E 4.0 mph6.4 kmh 30.39 in1029.1 mb 0.00 in0.0 mm 0.00 in0.0 mm 0.17 in4.3 mm
11:09 AM 41.7°F5.4°C 24.4°F-4.2°C 50% 4.0 mph E6.4 kmh E 4.0 mph6.4 kmh 30.39 in1029.1 mb 0.00 in0.0 mm 0.00 in0.0 mm 0.17 in4.3 mm
11:10 AM 41.9°F5.5°C 24.6°F-4.1°C 50% 2.0 mph SE3.2 kmh SE 4.0 mph6.4 kmh 30.40 in1029.5 mb 0.00 in0.0 mm 0.00 in0.0 mm 0.17 in4.3 mm
11:11 AM 41.9°F5.5°C 24.6°F-4.1°C 50% 2.0 mph SE3.2 kmh SE 4.0 mph6.4 kmh 30.39 in1029.1 mb 0.00 in0.0 mm 0.00 in0.0 mm 0.17 in4.3 mm
11:12 AM 42.0°F5.6°C 24.7°F-4.1°C 50% 2.0 mph SE3.2 kmh SE 4.0 mph6.4 kmh 30.39 in1029.1 mb 0.00 in0.0 mm 0.00 in0.0 mm 0.17 in4.3 mm
11:13 AM 42.0°F5.6°C 24.7°F-4.1°C 50% 2.0 mph SE3.2 kmh SE 4.0 mph6.4 kmh 30.39 in1029.1 mb 0.00 in0.0 mm 0.00 in0.0 mm 0.17 in4.3 mm
11:14 AM 42.0°F5.6°C 24.7°F-4.1°C 50% 2.0 mph SE3.2 kmh SE 4.0 mph6.4 kmh 30.39 in1029.1 mb 0.00 in0.0 mm 0.00 in0.0 mm 0.17 in4.3 mm
11:15 AM 42.0°F5.6°C 24.7°F-4.1°C 50% 3.0 mph ESE4.8 kmh ESE 4.0 mph6.4 kmh 30.39 in1029.1 mb 0.00 in0.0 mm 0.00 in0.0 mm 0.17 in4.3 mm
11:16 AM 42.0°F5.6°C 24.7°F-4.1°C 50% 3.0 mph ENE4.8 kmh ENE 4.0 mph6.4 kmh 30.39 in1029.1 mb 0.00 in0.0 mm 0.00 in0.0 mm 0.17 in4.3 mm
11:17 AM 42.0°F5.6°C 24.7°F-4.1°C 50% 3.0 mph ENE4.8 kmh ENE 4.0 mph6.4 kmh 30.39 in1029.1 mb 0.00 in0.0 mm 0.00 in0.0 mm 0.17 in4.3 mm
11:18 AM 42.0°F5.6°C 24.7°F-4.1°C 50% 3.0 mph ENE4.8 kmh ENE 4.0 mph6.4 kmh 30.39 in1029.1 mb 0.00 in0.0 mm 0.00 in0.0 mm 0.17 in4.3 mm
11:19 AM 42.2°F5.7°C 24.8°F-4.0°C 50% 2.0 mph ENE3.2 kmh ENE 4.0 mph6.4 kmh 30.39 in1029.1 mb 0.00 in0.0 mm 0.00 in0.0 mm 0.17 in4.3 mm
11:20 AM 42.2°F5.7°C 24.8°F-4.0°C 50% 2.0 mph ENE3.2 kmh ENE 4.0 mph6.4 kmh 30.39 in1029.1 mb 0.00 in0.0 mm 0.00 in0.0 mm 0.17 in4.3 mm
11:21 AM 42.2°F5.7°C 24.8°F-4.0°C 50% 2.0 mph SW3.2 kmh SW 4.0 mph6.4 kmh 30.39 in1029.1 mb 0.00 in0.0 mm 0.00 in0.0 mm 0.17 in4.3 mm
11:22 AM 42.4°F5.8°C 25.0°F-3.9°C 50% 3.0 mph SSE4.8 kmh SSE 4.0 mph6.4 kmh 30.39 in1029.1 mb 0.00 in0.0 mm 0.00 in0.0 mm 0.17 in4.3 mm
11:23 AM 42.6°F5.9°C 25.2°F-3.8°C 50% 3.0 mph S4.8 kmh S 4.0 mph6.4 kmh 30.39 in1029.1 mb 0.00 in0.0 mm 0.00 in0.0 mm 0.17 in4.3 mm
11:24 AM 42.7°F5.9°C 24.8°F-4.0°C 49% 2.0 mph S3.2 kmh S 4.0 mph6.4 kmh 30.39 in1029.1 mb 0.00 in0.0 mm 0.00 in0.0 mm 0.17 in4.3 mm
11:25 AM 42.7°F5.9°C 24.8°F-4.0°C 49% 2.0 mph SSE3.2 kmh SSE 4.0 mph6.4 kmh 30.39 in1029.1 mb 0.00 in0.0 mm 0.00 in0.0 mm 0.17 in4.3 mm
11:26 AM 42.7°F5.9°C 24.8°F-4.0°C 49% 2.0 mph SSE3.2 kmh SSE 4.0 mph6.4 kmh 30.39 in1029.1 mb 0.00 in0.0 mm 0.00 in0.0 mm 0.17 in4.3 mm
11:27 AM 42.7°F5.9°C 24.3°F-4.3°C 48% 1.0 mph SSW1.6 kmh SSW 4.0 mph6.4 kmh 30.39 in1029.1 mb 0.00 in0.0 mm 0.00 in0.0 mm 0.17 in4.3 mm
11:28 AM 42.7°F5.9°C 24.3°F-4.3°C 48% 1.0 mph SSE1.6 kmh SSE 4.0 mph6.4 kmh 30.39 in1029.1 mb 0.00 in0.0 mm 0.00 in0.0 mm 0.17 in4.3 mm
11:29 AM 42.7°F5.9°C 24.8°F-4.0°C 49% 4.0 mph NE6.4 kmh NE 4.0 mph6.4 kmh 30.39 in1029.1 mb 0.00 in0.0 mm 0.00 in0.0 mm 0.17 in4.3 mm
11:30 AM 42.7°F5.9°C 24.3°F-4.3°C 48% 3.0 mph ESE4.8 kmh ESE 4.0 mph6.4 kmh 30.38 in1028.8 mb 0.00 in0.0 mm 0.00 in0.0 mm 0.17 in4.3 mm
11:31 AM 42.7°F5.9°C 24.3°F-4.3°C 48% 3.0 mph SE4.8 kmh SE 4.0 mph6.4 kmh 30.39 in1029.1 mb 0.00 in0.0 mm 0.00 in0.0 mm 0.17 in4.3 mm
11:32 AM 42.7°F5.9°C 24.3°F-4.3°C 48% 6.0 mph ESE9.7 kmh ESE 6.0 mph9.7 kmh 30.38 in1028.8 mb 0.00 in0.0 mm 0.00 in0.0 mm 0.17 in4.3 mm
11:33 AM 42.7°F5.9°C 24.3°F-4.3°C 48% 4.0 mph S6.4 kmh S 6.0 mph9.7 kmh 30.39 in1029.1 mb 0.00 in0.0 mm 0.00 in0.0 mm 0.17 in4.3 mm
11:34 AM 42.6°F5.9°C 24.2°F-4.3°C 48% 2.0 mph S3.2 kmh S 6.0 mph9.7 kmh 30.38 in1028.8 mb 0.00 in0.0 mm 0.00 in0.0 mm 0.17 in4.3 mm
11:35 AM 42.6°F5.9°C 24.7°F-4.1°C 49% 3.0 mph ESE4.8 kmh ESE 6.0 mph9.7 kmh 30.39 in1029.1 mb 0.00 in0.0 mm 0.00 in0.0 mm 0.17 in4.3 mm
11:36 AM 42.6°F5.9°C 24.7°F-4.1°C 49% 2.0 mph WSW3.2 kmh WSW 6.0 mph9.7 kmh 30.38 in1028.8 mb 0.00 in0.0 mm 0.00 in0.0 mm 0.17 in4.3 mm
11:37 AM 42.6°F5.9°C 25.2°F-3.8°C 50% 3.0 mph WSW4.8 kmh WSW 6.0 mph9.7 kmh 30.38 in1028.8 mb 0.00 in0.0 mm 0.00 in0.0 mm 0.17 in4.3 mm
11:38 AM 42.6°F5.9°C 25.2°F-3.8°C 50% 2.0 mph S3.2 kmh S 6.0 mph9.7 kmh 30.38 in1028.8 mb 0.00 in0.0 mm 0.00 in0.0 mm 0.17 in4.3 mm
11:39 AM 42.7°F5.9°C 24.3°F-4.3°C 48% 2.0 mph S3.2 kmh S 6.0 mph9.7 kmh 30.38 in1028.8 mb 0.00 in0.0 mm 0.00 in0.0 mm 0.17 in4.3 mm
11:40 AM 42.7°F5.9°C 24.3°F-4.3°C 48% 3.0 mph ESE4.8 kmh ESE 6.0 mph9.7 kmh 30.38 in1028.8 mb 0.00 in0.0 mm 0.00 in0.0 mm 0.17 in4.3 mm
11:41 AM 42.7°F5.9°C 24.3°F-4.3°C 48% 3.0 mph 4.8 kmh 6.0 mph9.7 kmh 30.37 in1028.4 mb 0.00 in0.0 mm 0.00 in0.0 mm 0.17 in4.3 mm
11:42 AM 42.7°F5.9°C 24.3°F-4.3°C 48% 2.0 mph 3.2 kmh 7.0 mph11.3 kmh 30.38 in1028.8 mb 0.00 in0.0 mm 0.00 in0.0 mm 0.17 in4.3 mm
11:43 AM 42.7°F5.9°C 24.3°F-4.3°C 48% 3.0 mph SSE4.8 kmh SSE 7.0 mph11.3 kmh 30.38 in1028.8 mb 0.00 in0.0 mm 0.00 in0.0 mm 0.17 in4.3 mm
11:44 AM 42.7°F5.9°C 24.3°F-4.3°C 48% 3.0 mph ESE4.8 kmh ESE 7.0 mph11.3 kmh 30.38 in1028.8 mb 0.00 in0.0 mm 0.00 in0.0 mm 0.17 in4.3 mm
11:45 AM 42.7°F5.9°C 24.3°F-4.3°C 48% 2.0 mph 3.2 kmh 7.0 mph11.3 kmh 30.38 in1028.8 mb 0.00 in0.0 mm 0.00 in0.0 mm 0.17 in4.3 mm
11:46 AM 42.7°F5.9°C 23.2°F-4.9°C 46% 4.0 mph SSW6.4 kmh SSW 7.0 mph11.3 kmh 30.38 in1028.8 mb 0.00 in0.0 mm 0.00 in0.0 mm 0.17 in4.3 mm
11:47 AM 42.7°F5.9°C 23.2°F-4.9°C 46% 2.0 mph ENE3.2 kmh ENE 7.0 mph11.3 kmh 30.38 in1028.8 mb 0.00 in0.0 mm 0.00 in0.0 mm 0.17 in4.3 mm
11:48 AM 42.7°F5.9°C 23.2°F-4.9°C 46% 4.0 mph ENE6.4 kmh ENE 7.0 mph11.3 kmh 30.38 in1028.8 mb 0.00 in0.0 mm 0.00 in0.0 mm 0.17 in4.3 mm
11:49 AM 42.7°F5.9°C 23.2°F-4.9°C 46% 3.0 mph ENE4.8 kmh ENE 7.0 mph11.3 kmh 30.38 in1028.8 mb 0.00 in0.0 mm 0.00 in0.0 mm 0.17 in4.3 mm
11:50 AM 42.9°F6.1°C 23.4°F-4.8°C 46% 3.0 mph ESE4.8 kmh ESE 7.0 mph11.3 kmh 30.37 in1028.4 mb 0.00 in0.0 mm 0.00 in0.0 mm 0.17 in4.3 mm
11:51 AM 42.9°F6.1°C 23.4°F-4.8°C 46% 4.0 mph ENE6.4 kmh ENE 7.0 mph11.3 kmh 30.38 in1028.8 mb 0.00 in0.0 mm 0.00 in0.0 mm 0.17 in4.3 mm
11:52 AM 42.9°F6.1°C 24.5°F-4.2°C 48% 4.0 mph ENE6.4 kmh ENE 7.0 mph11.3 kmh 30.37 in1028.4 mb 0.00 in0.0 mm 0.00 in0.0 mm 0.17 in4.3 mm
11:53 AM 42.9°F6.1°C 24.5°F-4.2°C 48% 3.0 mph SW4.8 kmh SW 4.0 mph6.4 kmh 30.38 in1028.8 mb 0.00 in0.0 mm 0.00 in0.0 mm 0.17 in4.3 mm
11:54 AM 42.9°F6.1°C 24.5°F-4.2°C 48% 3.0 mph SW4.8 kmh SW 4.0 mph6.4 kmh 30.37 in1028.4 mb 0.00 in0.0 mm 0.00 in0.0 mm 0.17 in4.3 mm
11:55 AM 43.1°F6.2°C 23.6°F-4.7°C 46% 5.0 mph SSE8.0 kmh SSE 8.0 mph12.9 kmh 30.37 in1028.4 mb 0.00 in0.0 mm 0.00 in0.0 mm 0.17 in4.3 mm
11:56 AM 43.1°F6.2°C 23.6°F-4.7°C 46% 3.0 mph ESE4.8 kmh ESE 8.0 mph12.9 kmh 30.38 in1028.8 mb 0.00 in0.0 mm 0.00 in0.0 mm 0.17 in4.3 mm
11:57 AM 43.1°F6.2°C 23.6°F-4.7°C 46% 3.0 mph ESE4.8 kmh ESE 8.0 mph12.9 kmh 30.37 in1028.4 mb 0.00 in0.0 mm 0.00 in0.0 mm 0.17 in4.3 mm
11:58 AM 42.9°F6.1°C 22.9°F-5.1°C 45% 4.0 mph ESE6.4 kmh ESE 8.0 mph12.9 kmh 30.37 in1028.4 mb 0.00 in0.0 mm 0.00 in0.0 mm 0.17 in4.3 mm
11:59 AM 42.9°F6.1°C 22.9°F-5.1°C 45% 5.0 mph E8.0 kmh E 8.0 mph12.9 kmh 30.37 in1028.4 mb 0.00 in0.0 mm 0.00 in0.0 mm 0.17 in4.3 mm
12:00 PM 42.7°F5.9°C 23.2°F-4.9°C 46% 6.0 mph NE9.7 kmh NE 8.0 mph12.9 kmh 30.38 in1028.8 mb 0.00 in0.0 mm 0.00 in0.0 mm 0.17 in4.3 mm
12:01 PM 42.7°F5.9°C 23.2°F-4.9°C 46% 6.0 mph ESE9.7 kmh ESE 8.0 mph12.9 kmh 30.38 in1028.8 mb 0.00 in0.0 mm 0.00 in0.0 mm 0.17 in4.3 mm
12:02 PM 42.6°F5.9°C 23.1°F-4.9°C 46% 6.0 mph ENE9.7 kmh ENE 8.0 mph12.9 kmh 30.38 in1028.8 mb 0.00 in0.0 mm 0.00 in0.0 mm 0.17 in4.3 mm
12:03 PM 42.6°F5.9°C 24.2°F-4.3°C 48% 5.0 mph E8.0 kmh E 8.0 mph12.9 kmh 30.38 in1028.8 mb 0.00 in0.0 mm 0.00 in0.0 mm 0.17 in4.3 mm
12:04 PM 42.6°F5.9°C 24.2°F-4.3°C 48% 3.0 mph SE4.8 kmh SE 8.0 mph12.9 kmh 30.38 in1028.8 mb 0.00 in0.0 mm 0.00 in0.0 mm 0.17 in4.3 mm
12:05 PM 42.6°F5.9°C 24.2°F-4.3°C 48% 3.0 mph ESE4.8 kmh ESE 7.0 mph11.3 kmh 30.37 in1028.4 mb 0.00 in0.0 mm 0.00 in0.0 mm 0.17 in4.3 mm
12:06 PM 42.7°F5.9°C 23.2°F-4.9°C 46% 3.0 mph ESE4.8 kmh ESE 7.0 mph11.3 kmh 30.38 in1028.8 mb 0.00 in0.0 mm 0.00 in0.0 mm 0.17 in4.3 mm
12:07 PM 42.7°F5.9°C 23.2°F-4.9°C 46% 3.0 mph SSE4.8 kmh SSE 7.0 mph11.3 kmh 30.37 in1028.4 mb 0.00 in0.0 mm 0.00 in0.0 mm 0.17 in4.3 mm
12:08 PM 42.7°F5.9°C 23.2°F-4.9°C 46% 4.0 mph SE6.4 kmh SE 7.0 mph11.3 kmh 30.38 in1028.8 mb 0.00 in0.0 mm 0.00 in0.0 mm 0.17 in4.3 mm
12:09 PM 42.7°F5.9°C 23.2°F-4.9°C 46% 3.0 mph SE4.8 kmh SE 7.0 mph11.3 kmh 30.37 in1028.4 mb 0.00 in0.0 mm 0.00 in0.0 mm 0.17 in4.3 mm
12:10 PM 43.1°F6.2°C 23.6°F-4.7°C 46% 4.0 mph SE6.4 kmh SE 6.0 mph9.7 kmh 30.37 in1028.4 mb 0.00 in0.0 mm 0.00 in0.0 mm 0.17 in4.3 mm
12:11 PM 43.3°F6.3°C 23.8°F-4.6°C 46% 5.0 mph ESE8.0 kmh ESE 6.0 mph9.7 kmh 30.38 in1028.8 mb 0.00 in0.0 mm 0.00 in0.0 mm 0.17 in4.3 mm
12:12 PM 43.3°F6.3°C 23.8°F-4.6°C 46% 5.0 mph ESE8.0 kmh ESE 6.0 mph9.7 kmh 30.38 in1028.8 mb 0.00 in0.0 mm 0.00 in0.0 mm 0.17 in4.3 mm
12:13 PM 43.6°F6.4°C 24.1°F-4.4°C 46% 1.0 mph NE1.6 kmh NE 5.0 mph8.0 kmh 30.38 in1028.8 mb 0.00 in0.0 mm 0.00 in0.0 mm 0.17 in4.3 mm
12:14 PM 43.6°F6.4°C 24.1°F-4.4°C 46% 1.0 mph WNW1.6 kmh WNW 5.0 mph8.0 kmh 30.37 in1028.4 mb 0.00 in0.0 mm 0.00 in0.0 mm 0.17 in4.3 mm
12:15 PM 44.0°F6.7°C 24.4°F-4.2°C 46% 4.0 mph WNW6.4 kmh WNW 5.0 mph8.0 kmh 30.38 in1028.8 mb 0.00 in0.0 mm 0.00 in0.0 mm 0.17 in4.3 mm
12:16 PM 44.0°F6.7°C 24.4°F-4.2°C 46% 4.0 mph S6.4 kmh S 5.0 mph8.0 kmh 30.37 in1028.4 mb 0.00 in0.0 mm 0.00 in0.0 mm 0.17 in4.3 mm
12:17 PM 44.0°F6.7°C 23.9°F-4.5°C 45% 4.0 mph SSE6.4 kmh SSE 5.0 mph8.0 kmh 30.37 in1028.4 mb 0.00 in0.0 mm 0.00 in0.0 mm 0.17 in4.3 mm
12:18 PM 44.0°F6.7°C 23.9°F-4.5°C 45% 6.0 mph ESE9.7 kmh ESE 6.0 mph9.7 kmh 30.38 in1028.8 mb 0.00 in0.0 mm 0.00 in0.0 mm 0.17 in4.3 mm
12:19 PM 44.0°F6.7°C 23.9°F-4.5°C 45% 6.0 mph ESE9.7 kmh ESE 6.0 mph9.7 kmh 30.38 in1028.8 mb 0.00 in0.0 mm 0.00 in0.0 mm 0.17 in4.3 mm
12:20 PM 44.0°F6.7°C 23.9°F-4.5°C 45% 6.0 mph ESE9.7 kmh ESE 6.0 mph9.7 kmh 30.37 in1028.4 mb 0.00 in0.0 mm 0.00 in0.0 mm 0.17 in4.3 mm
12:21 PM 44.0°F6.7°C 23.9°F-4.5°C 45% 2.0 mph E3.2 kmh E 6.0 mph9.7 kmh 30.37 in1028.4 mb 0.00 in0.0 mm 0.00 in0.0 mm 0.17 in4.3 mm
12:22 PM 44.0°F6.7°C 24.4°F-4.2°C 46% 2.0 mph NE3.2 kmh NE 6.0 mph9.7 kmh 30.37 in1028.4 mb 0.00 in0.0 mm 0.00 in0.0 mm 0.17 in4.3 mm
12:23 PM 44.0°F6.7°C 23.9°F-4.5°C 45% 5.0 mph ESE8.0 kmh ESE 6.0 mph9.7 kmh 30.37 in1028.4 mb 0.00 in0.0 mm 0.00 in0.0 mm 0.17 in4.3 mm
12:24 PM 44.0°F6.7°C 23.9°F-4.5°C 45% 5.0 mph ESE8.0 kmh ESE 6.0 mph9.7 kmh 30.37 in1028.4 mb 0.00 in0.0 mm 0.00 in0.0 mm 0.17 in4.3 mm
12:25 PM 43.8°F6.6°C 23.7°F-4.6°C 45% 6.0 mph ESE9.7 kmh ESE 6.0 mph9.7 kmh 30.37 in1028.4 mb 0.00 in0.0 mm 0.00 in0.0 mm 0.17 in4.3 mm
12:26 PM 43.8°F6.6°C 23.7°F-4.6°C 45% 5.0 mph ESE8.0 kmh ESE 6.0 mph9.7 kmh 30.38 in1028.8 mb 0.00 in0.0 mm 0.00 in0.0 mm 0.17 in4.3 mm
12:27 PM 43.6°F6.4°C 23.5°F-4.7°C 45% 6.0 mph NE9.7 kmh NE 6.0 mph9.7 kmh 30.38 in1028.8 mb 0.00 in0.0 mm 0.00 in0.0 mm 0.17 in4.3 mm
12:28 PM 43.5°F6.4°C 23.4°F-4.8°C 45% 6.0 mph NE9.7 kmh NE 6.0 mph9.7 kmh 30.37 in1028.4 mb 0.00 in0.0 mm 0.00 in0.0 mm 0.17 in4.3 mm
12:29 PM 43.5°F6.4°C 23.4°F-4.8°C 45% 5.0 mph ESE8.0 kmh ESE 6.0 mph9.7 kmh 30.37 in1028.4 mb 0.00 in0.0 mm 0.00 in0.0 mm 0.17 in4.3 mm
12:30 PM 43.5°F6.4°C 23.4°F-4.8°C 45% 3.0 mph E4.8 kmh E 6.0 mph9.7 kmh 30.37 in1028.4 mb 0.00 in0.0 mm 0.00 in0.0 mm 0.17 in4.3 mm
12:31 PM 43.5°F6.4°C 23.4°F-4.8°C 45% 2.0 mph SSE3.2 kmh SSE 6.0 mph9.7 kmh 30.37 in1028.4 mb 0.00 in0.0 mm 0.00 in0.0 mm 0.17 in4.3 mm
12:32 PM 43.5°F6.4°C 23.4°F-4.8°C 45% 4.0 mph E6.4 kmh E 6.0 mph9.7 kmh 30.37 in1028.4 mb 0.00 in0.0 mm 0.00 in0.0 mm 0.17 in4.3 mm
12:33 PM 43.8°F6.6°C 23.7°F-4.6°C 45% 7.0 mph ESE11.3 kmh ESE 7.0 mph11.3 kmh 30.37 in1028.4 mb 0.00 in0.0 mm 0.00 in0.0 mm 0.17 in4.3 mm
12:34 PM 43.8°F6.6°C 23.7°F-4.6°C 45% 8.0 mph E12.9 kmh E 8.0 mph12.9 kmh 30.36 in1028.1 mb 0.00 in0.0 mm 0.00 in0.0 mm 0.17 in4.3 mm
12:35 PM 43.6°F6.4°C 23.5°F-4.7°C 45% 5.0 mph ESE8.0 kmh ESE 8.0 mph12.9 kmh 30.37 in1028.4 mb 0.00 in0.0 mm 0.00 in0.0 mm 0.17 in4.3 mm
12:36 PM 43.6°F6.4°C 23.5°F-4.7°C 45% 4.0 mph ESE6.4 kmh ESE 8.0 mph12.9 kmh 30.36 in1028.1 mb 0.00 in0.0 mm 0.00 in0.0 mm 0.17 in4.3 mm
12:37 PM 43.5°F6.4°C 23.4°F-4.8°C 45% 4.0 mph ESE6.4 kmh ESE 8.0 mph12.9 kmh 30.37 in1028.4 mb 0.00 in0.0 mm 0.00 in0.0 mm 0.17 in4.3 mm
12:38 PM 43.5°F6.4°C 23.4°F-4.8°C 45% 3.0 mph SSE4.8 kmh SSE 8.0 mph12.9 kmh 30.37 in1028.4 mb 0.00 in0.0 mm 0.00 in0.0 mm 0.17 in4.3 mm
12:39 PM 43.5°F6.4°C 23.4°F-4.8°C 45% 3.0 mph S4.8 kmh S 8.0 mph12.9 kmh 30.36 in1028.1 mb 0.00 in0.0 mm 0.00 in0.0 mm 0.17 in4.3 mm
12:40 PM 43.5°F6.4°C 23.4°F-4.8°C 45% 4.0 mph E6.4 kmh E 8.0 mph12.9 kmh 30.36 in1028.1 mb 0.00 in0.0 mm 0.00 in0.0 mm 0.17 in4.3 mm
12:41 PM 43.5°F6.4°C 23.4°F-4.8°C 45% 4.0 mph E6.4 kmh E 8.0 mph12.9 kmh 30.35 in1027.8 mb 0.00 in0.0 mm 0.00 in0.0 mm 0.17 in4.3 mm
12:42 PM 43.8°F6.6°C 24.2°F-4.3°C 46% 4.0 mph SSE6.4 kmh SSE 8.0 mph12.9 kmh 30.36 in1028.1 mb 0.00 in0.0 mm 0.00 in0.0 mm 0.17 in4.3 mm
12:43 PM 44.0°F6.7°C 23.9°F-4.5°C 45% 4.0 mph S6.4 kmh S 8.0 mph12.9 kmh 30.36 in1028.1 mb 0.00 in0.0 mm 0.00 in0.0 mm 0.17 in4.3 mm
12:44 PM 44.4°F6.9°C 24.8°F-4.0°C 46% 6.0 mph SSE9.7 kmh SSE 8.0 mph12.9 kmh 30.36 in1028.1 mb 0.00 in0.0 mm 0.00 in0.0 mm 0.17 in4.3 mm
12:45 PM 44.6°F7.0°C 24.4°F-4.2°C 45% 3.0 mph SSE4.8 kmh SSE 6.0 mph9.7 kmh 30.36 in1028.1 mb 0.00 in0.0 mm 0.00 in0.0 mm 0.17 in4.3 mm
12:46 PM 44.6°F7.0°C 24.4°F-4.2°C 45% 5.0 mph ESE8.0 kmh ESE 7.0 mph11.3 kmh 30.36 in1028.1 mb 0.00 in0.0 mm 0.00 in0.0 mm 0.17 in4.3 mm
12:47 PM 44.6°F7.0°C 24.4°F-4.2°C 45% 4.0 mph SSW6.4 kmh SSW 7.0 mph11.3 kmh 30.36 in1028.1 mb 0.00 in0.0 mm 0.00 in0.0 mm 0.17 in4.3 mm
12:48 PM 44.6°F7.0°C 24.4°F-4.2°C 45% 3.0 mph ESE4.8 kmh ESE 7.0 mph11.3 kmh 30.36 in1028.1 mb 0.00 in0.0 mm 0.00 in0.0 mm 0.17 in4.3 mm
12:49 PM 44.7°F7.1°C 24.5°F-4.2°C 45% 4.0 mph E6.4 kmh E 7.0 mph11.3 kmh 30.36 in1028.1 mb 0.00 in0.0 mm 0.00 in0.0 mm 0.17 in4.3 mm
12:50 PM 44.7°F7.1°C 24.5°F-4.2°C 45% 3.0 mph SSE4.8 kmh SSE 7.0 mph11.3 kmh 30.36 in1028.1 mb 0.00 in0.0 mm 0.00 in0.0 mm 0.17 in4.3 mm
12:51 PM 44.7°F7.1°C 24.5°F-4.2°C 45% 3.0 mph S4.8 kmh S 7.0 mph11.3 kmh 30.36 in1028.1 mb 0.00 in0.0 mm 0.00 in0.0 mm 0.17 in4.3 mm
12:52 PM 44.9°F7.2°C 24.7°F-4.1°C 45% 5.0 mph S8.0 kmh S 7.0 mph11.3 kmh 30.36 in1028.1 mb 0.00 in0.0 mm 0.00 in0.0 mm 0.17 in4.3 mm
12:53 PM 45.3°F7.4°C 24.5°F-4.2°C 44% 4.0 mph S6.4 kmh S 7.0 mph11.3 kmh 30.36 in1028.1 mb 0.00 in0.0 mm 0.00 in0.0 mm 0.17 in4.3 mm
12:54 PM 45.5°F7.5°C 24.1°F-4.4°C 43% 5.0 mph SSE8.0 kmh SSE 7.0 mph11.3 kmh 30.37 in1028.4 mb 0.00 in0.0 mm 0.00 in0.0 mm 0.17 in4.3 mm
12:55 PM 45.3°F7.4°C 24.0°F-4.4°C 43% 3.0 mph S4.8 kmh S 7.0 mph11.3 kmh 30.37 in1028.4 mb 0.00 in0.0 mm 0.00 in0.0 mm 0.17 in4.3 mm
12:56 PM 45.3°F7.4°C 24.5°F-4.2°C 44% 2.0 mph SW3.2 kmh SW 5.0 mph8.0 kmh 30.37 in1028.4 mb 0.00 in0.0 mm 0.00 in0.0 mm 0.17 in4.3 mm
12:57 PM 45.1°F7.3°C 24.3°F-4.3°C 44% 3.0 mph ESE4.8 kmh ESE 5.0 mph8.0 kmh 30.37 in1028.4 mb 0.00 in0.0 mm 0.00 in0.0 mm 0.17 in4.3 mm
12:58 PM 45.1°F7.3°C 23.8°F-4.6°C 43% 6.0 mph ESE9.7 kmh ESE 6.0 mph9.7 kmh 30.37 in1028.4 mb 0.00 in0.0 mm 0.00 in0.0 mm 0.17 in4.3 mm
12:59 PM 44.7°F7.1°C 23.4°F-4.8°C 43% 5.0 mph ESE8.0 kmh ESE 6.0 mph9.7 kmh 30.36 in1028.1 mb 0.00 in0.0 mm 0.00 in0.0 mm 0.17 in4.3 mm
01:00 PM 44.7°F7.1°C 23.4°F-4.8°C 43% 4.0 mph SSE6.4 kmh SSE 6.0 mph9.7 kmh 30.36 in1028.1 mb 0.00 in0.0 mm 0.00 in0.0 mm 0.17 in4.3 mm
01:01 PM 44.6°F7.0°C 23.9°F-4.5°C 44% 5.0 mph E8.0 kmh E 6.0 mph9.7 kmh 30.36 in1028.1 mb 0.00 in0.0 mm 0.00 in0.0 mm 0.17 in4.3 mm
01:02 PM 44.6°F7.0°C 23.9°F-4.5°C 44% 2.0 mph E3.2 kmh E 6.0 mph9.7 kmh 30.36 in1028.1 mb 0.00 in0.0 mm 0.00 in0.0 mm 0.17 in4.3 mm
01:03 PM 44.6°F7.0°C 23.9°F-4.5°C 44% 2.0 mph ENE3.2 kmh ENE 6.0 mph9.7 kmh 30.36 in1028.1 mb 0.00 in0.0 mm 0.00 in0.0 mm 0.17 in4.3 mm
01:04 PM 44.6°F7.0°C 23.9°F-4.5°C 44% 3.0 mph WSW4.8 kmh WSW 6.0 mph9.7 kmh 30.36 in1028.1 mb 0.00 in0.0 mm 0.00 in0.0 mm 0.17 in4.3 mm
01:05 PM 44.6°F7.0°C 23.3°F-4.8°C 43% 3.0 mph WSW4.8 kmh WSW 6.0 mph9.7 kmh 30.36 in1028.1 mb 0.00 in0.0 mm 0.00 in0.0 mm 0.17 in4.3 mm
01:06 PM 44.7°F7.1°C 24.0°F-4.4°C 44% 3.0 mph WSW4.8 kmh WSW 6.0 mph9.7 kmh 30.36 in1028.1 mb 0.00 in0.0 mm 0.00 in0.0 mm 0.17 in4.3 mm
01:07 PM 44.7°F7.1°C 24.0°F-4.4°C 44% 4.0 mph SE6.4 kmh SE 6.0 mph9.7 kmh 30.36 in1028.1 mb 0.00 in0.0 mm 0.00 in0.0 mm 0.17 in4.3 mm
01:08 PM 44.9°F7.2°C 23.6°F-4.7°C 43% 4.0 mph ESE6.4 kmh ESE 6.0 mph9.7 kmh 30.36 in1028.1 mb 0.00 in0.0 mm 0.00 in0.0 mm 0.17 in4.3 mm
01:09 PM 44.9°F7.2°C 23.6°F-4.7°C 43% 6.0 mph ESE9.7 kmh ESE 6.0 mph9.7 kmh 30.36 in1028.1 mb 0.00 in0.0 mm 0.00 in0.0 mm 0.17 in4.3 mm
01:10 PM 44.7°F7.1°C 23.4°F-4.8°C 43% 4.0 mph ESE6.4 kmh ESE 6.0 mph9.7 kmh 30.36 in1028.1 mb 0.00 in0.0 mm 0.00 in0.0 mm 0.17 in4.3 mm
01:11 PM 44.7°F7.1°C 23.4°F-4.8°C 43% 4.0 mph SE6.4 kmh SE 6.0 mph9.7 kmh 30.35 in1027.8 mb 0.00 in0.0 mm 0.00 in0.0 mm 0.17 in4.3 mm
01:12 PM 44.7°F7.1°C 23.4°F-4.8°C 43% 2.0 mph SE3.2 kmh SE 6.0 mph9.7 kmh 30.36 in1028.1 mb 0.00 in0.0 mm 0.00 in0.0 mm 0.17 in4.3 mm
01:13 PM 44.9°F7.2°C 22.4°F-5.3°C 41% 2.0 mph ESE3.2 kmh ESE 6.0 mph9.7 kmh 30.36 in1028.1 mb 0.00 in0.0 mm 0.00 in0.0 mm 0.17 in4.3 mm
01:14 PM 44.9°F7.2°C 22.4°F-5.3°C 41% 2.0 mph S3.2 kmh S 6.0 mph9.7 kmh 30.36 in1028.1 mb 0.00 in0.0 mm 0.00 in0.0 mm 0.17 in4.3 mm
01:15 PM 45.1°F7.3°C 22.6°F-5.2°C 41% 5.0 mph SE8.0 kmh SE 6.0 mph9.7 kmh 30.36 in1028.1 mb 0.00 in0.0 mm 0.00 in0.0 mm 0.17 in4.3 mm
01:16 PM 45.1°F7.3°C 22.6°F-5.2°C 41% 5.0 mph S8.0 kmh S 6.0 mph9.7 kmh 30.36 in1028.1 mb 0.00 in0.0 mm 0.00 in0.0 mm 0.17 in4.3 mm
01:17 PM 45.1°F7.3°C 22.6°F-5.2°C 41% 5.0 mph S8.0 kmh S 6.0 mph9.7 kmh 30.36 in1028.1 mb 0.00 in0.0 mm 0.00 in0.0 mm 0.17 in4.3 mm
01:18 PM 45.1°F7.3°C 22.6°F-5.2°C 41% 6.0 mph S9.7 kmh S 6.0 mph9.7 kmh 30.36 in1028.1 mb 0.00 in0.0 mm 0.00 in0.0 mm 0.17 in4.3 mm
01:19 PM 45.1°F7.3°C 22.6°F-5.2°C 41% 4.0 mph S6.4 kmh S 6.0 mph9.7 kmh 30.36 in1028.1 mb 0.00 in0.0 mm 0.00 in0.0 mm 0.17 in4.3 mm
01:20 PM 45.1°F7.3°C 22.6°F-5.2°C 41% 3.0 mph SSW4.8 kmh SSW 6.0 mph9.7 kmh 30.36 in1028.1 mb 0.00 in0.0 mm 0.00 in0.0 mm 0.17 in4.3 mm
01:21 PM 45.3°F7.4°C 22.8°F-5.1°C 41% 4.0 mph SSW6.4 kmh SSW 6.0 mph9.7 kmh 30.36 in1028.1 mb 0.00 in0.0 mm 0.00 in0.0 mm 0.17 in4.3 mm
01:22 PM 45.3°F7.4°C 22.8°F-5.1°C 41% 7.0 mph SSE11.3 kmh SSE 7.0 mph11.3 kmh 30.36 in1028.1 mb 0.00 in0.0 mm 0.00 in0.0 mm 0.17 in4.3 mm
01:23 PM 45.3°F7.4°C 22.8°F-5.1°C 41% 7.0 mph SSE11.3 kmh SSE 7.0 mph11.3 kmh 30.36 in1028.1 mb 0.00 in0.0 mm 0.00 in0.0 mm 0.17 in4.3 mm
01:24 PM 45.3°F7.4°C 22.8°F-5.1°C 41% 6.0 mph S9.7 kmh S 7.0 mph11.3 kmh 30.36 in1028.1 mb 0.00 in0.0 mm 0.00 in0.0 mm 0.17 in4.3 mm
01:25 PM 45.3°F7.4°C 22.8°F-5.1°C 41% 4.0 mph SSW6.4 kmh SSW 7.0 mph11.3 kmh 30.36 in1028.1 mb 0.00 in0.0 mm 0.00 in0.0 mm 0.17 in4.3 mm
01:26 PM 45.3°F7.4°C 22.8°F-5.1°C 41% 4.0 mph SSW6.4 kmh SSW 7.0 mph11.3 kmh 30.36 in1028.1 mb 0.00 in0.0 mm 0.00 in0.0 mm 0.17 in4.3 mm
01:27 PM 46.0°F7.8°C 22.8°F-5.1°C 40% 2.0 mph SSE3.2 kmh SSE 7.0 mph11.3 kmh 30.36 in1028.1 mb 0.00 in0.0 mm 0.00 in0.0 mm 0.17 in4.3 mm
01:28 PM 45.8°F7.7°C 22.6°F-5.2°C 40% 7.0 mph ESE11.3 kmh ESE 7.0 mph11.3 kmh 30.35 in1027.8 mb 0.00 in0.0 mm 0.00 in0.0 mm 0.17 in4.3 mm
01:29 PM 45.6°F7.6°C 22.5°F-5.3°C 40% 7.0 mph NNW11.3 kmh NNW 7.0 mph11.3 kmh 30.35 in1027.8 mb 0.00 in0.0 mm 0.00 in0.0 mm 0.17 in4.3 mm
01:30 PM 45.6°F7.6°C 22.5°F-5.3°C 40% 4.0 mph SW6.4 kmh SW 7.0 mph11.3 kmh 30.35 in1027.8 mb 0.00 in0.0 mm 0.00 in0.0 mm 0.17 in4.3 mm
01:31 PM 45.5°F7.5°C 22.4°F-5.3°C 40% 1.0 mph NE1.6 kmh NE 7.0 mph11.3 kmh 30.35 in1027.8 mb 0.00 in0.0 mm 0.00 in0.0 mm 0.17 in4.3 mm
01:32 PM 45.6°F7.6°C 22.5°F-5.3°C 40% 2.0 mph SSW3.2 kmh SSW 7.0 mph11.3 kmh 30.35 in1027.8 mb 0.00 in0.0 mm 0.00 in0.0 mm 0.17 in4.3 mm
01:33 PM 45.6°F7.6°C 22.5°F-5.3°C 40% 4.0 mph E6.4 kmh E 7.0 mph11.3 kmh 30.35 in1027.8 mb 0.00 in0.0 mm 0.00 in0.0 mm 0.17 in4.3 mm
01:34 PM 45.8°F7.7°C 22.6°F-5.2°C 40% 4.0 mph E6.4 kmh E 7.0 mph11.3 kmh 30.35 in1027.8 mb 0.00 in0.0 mm 0.00 in0.0 mm 0.17 in4.3 mm
01:35 PM 45.6°F7.6°C 22.5°F-5.3°C 40% 3.0 mph E4.8 kmh E 7.0 mph11.3 kmh 30.36 in1028.1 mb 0.00 in0.0 mm 0.00 in0.0 mm 0.17 in4.3 mm
01:36 PM 45.6°F7.6°C 22.5°F-5.3°C 40% 2.0 mph ESE3.2 kmh ESE 7.0 mph11.3 kmh 30.36 in1028.1 mb 0.00 in0.0 mm 0.00 in0.0 mm 0.17 in4.3 mm
01:37 PM 45.5°F7.5°C 22.4°F-5.3°C 40% 2.0 mph ESE3.2 kmh ESE 7.0 mph11.3 kmh 30.36 in1028.1 mb 0.00 in0.0 mm 0.00 in0.0 mm 0.17 in4.3 mm
01:38 PM 45.5°F7.5°C 22.4°F-5.3°C 40% 2.0 mph ESE3.2 kmh ESE 7.0 mph11.3 kmh 30.36 in1028.1 mb 0.00 in0.0 mm 0.00 in0.0 mm 0.17 in4.3 mm
01:39 PM 45.5°F7.5°C 22.4°F-5.3°C 40% 5.0 mph ESE8.0 kmh ESE 7.0 mph11.3 kmh 30.35 in1027.8 mb 0.00 in0.0 mm 0.00 in0.0 mm 0.17 in4.3 mm
01:40 PM 45.6°F7.6°C 22.5°F-5.3°C 40% 4.0 mph ESE6.4 kmh ESE 5.0 mph8.0 kmh 30.36 in1028.1 mb 0.00 in0.0 mm 0.00 in0.0 mm 0.17 in4.3 mm
01:41 PM 45.6°F7.6°C 22.5°F-5.3°C 40% 5.0 mph S8.0 kmh S 5.0 mph8.0 kmh 30.35 in1027.8 mb 0.00 in0.0 mm 0.00 in0.0 mm 0.17 in4.3 mm
01:42 PM 45.8°F7.7°C 22.6°F-5.2°C 40% 2.0 mph SW3.2 kmh SW 5.0 mph8.0 kmh 30.36 in1028.1 mb 0.00 in0.0 mm 0.00 in0.0 mm 0.17 in4.3 mm
01:43 PM 45.8°F7.7°C 22.6°F-5.2°C 40% 2.0 mph SW3.2 kmh SW 5.0 mph8.0 kmh 30.36 in1028.1 mb 0.00 in0.0 mm 0.00 in0.0 mm 0.17 in4.3 mm
01:44 PM 46.0°F7.8°C 22.8°F-5.1°C 40% 4.0 mph SSW6.4 kmh SSW 5.0 mph8.0 kmh 30.36 in1028.1 mb 0.00 in0.0 mm 0.00 in0.0 mm 0.17 in4.3 mm
01:45 PM 46.0°F7.8°C 22.8°F-5.1°C 40% 1.0 mph ESE1.6 kmh ESE 5.0 mph8.0 kmh 30.35 in1027.8 mb 0.00 in0.0 mm 0.00 in0.0 mm 0.17 in4.3 mm
01:46 PM 46.2°F7.9°C 23.0°F-5.0°C 40% 3.0 mph ESE4.8 kmh ESE 5.0 mph8.0 kmh 30.35 in1027.8 mb 0.00 in0.0 mm 0.00 in0.0 mm 0.17 in4.3 mm
01:47 PM 46.2°F7.9°C 23.0°F-5.0°C 40% 6.0 mph E9.7 kmh E 6.0 mph9.7 kmh 30.35 in1027.8 mb 0.00 in0.0 mm 0.00 in0.0 mm 0.17 in4.3 mm
01:48 PM 46.0°F7.8°C 22.8°F-5.1°C 40% 3.0 mph E4.8 kmh E 6.0 mph9.7 kmh 30.35 in1027.8 mb 0.00 in0.0 mm 0.00 in0.0 mm 0.17 in4.3 mm
01:49 PM 46.0°F7.8°C 22.8°F-5.1°C 40% 3.0 mph E4.8 kmh E 6.0 mph9.7 kmh 30.35 in1027.8 mb 0.00 in0.0 mm 0.00 in0.0 mm 0.17 in4.3 mm
01:50 PM 45.6°F7.6°C 22.5°F-5.3°C 40% 3.0 mph E4.8 kmh E 6.0 mph9.7 kmh 30.35 in1027.8 mb 0.00 in0.0 mm 0.00 in0.0 mm 0.17 in4.3 mm
01:51 PM 45.6°F7.6°C 22.5°F-5.3°C 40% 6.0 mph E9.7 kmh E 6.0 mph9.7 kmh 30.36 in1028.1 mb 0.00 in0.0 mm 0.00 in0.0 mm 0.17 in4.3 mm
01:52 PM 45.6°F7.6°C 22.5°F-5.3°C 40% 3.0 mph SSE4.8 kmh SSE 6.0 mph9.7 kmh 30.36 in1028.1 mb 0.00 in0.0 mm 0.00 in0.0 mm 0.17 in4.3 mm
01:53 PM 45.6°F7.6°C 22.5°F-5.3°C 40% 4.0 mph SE6.4 kmh SE 6.0 mph9.7 kmh 30.35 in1027.8 mb 0.00 in0.0 mm 0.00 in0.0 mm 0.17 in4.3 mm
01:54 PM 45.8°F7.7°C 22.6°F-5.2°C 40% 3.0 mph ESE4.8 kmh ESE 6.0 mph9.7 kmh 30.35 in1027.8 mb 0.00 in0.0 mm 0.00 in0.0 mm 0.17 in4.3 mm
01:55 PM 45.8°F7.7°C 22.6°F-5.2°C 40% 6.0 mph SSE9.7 kmh SSE 6.0 mph9.7 kmh 30.35 in1027.8 mb 0.00 in0.0 mm 0.00 in0.0 mm 0.17 in4.3 mm
01:56 PM 46.0°F7.8°C 22.8°F-5.1°C 40% 5.0 mph SE8.0 kmh SE 6.0 mph9.7 kmh 30.35 in1027.8 mb 0.00 in0.0 mm 0.00 in0.0 mm 0.17 in4.3 mm
01:57 PM 46.0°F7.8°C 22.8°F-5.1°C 40% 5.0 mph SE8.0 kmh SE 6.0 mph9.7 kmh 30.35 in1027.8 mb 0.00 in0.0 mm 0.00 in0.0 mm 0.17 in4.3 mm
01:58 PM 46.0°F7.8°C 22.8°F-5.1°C 40% 5.0 mph S8.0 kmh S 6.0 mph9.7 kmh 30.35 in1027.8 mb 0.00 in0.0 mm 0.00 in0.0 mm 0.17 in4.3 mm
01:59 PM 46.2°F7.9°C 23.0°F-5.0°C 40% 2.0 mph NW3.2 kmh NW 6.0 mph9.7 kmh 30.35 in1027.8 mb 0.00 in0.0 mm 0.00 in0.0 mm 0.17 in4.3 mm
02:00 PM 46.2°F7.9°C 23.0°F-5.0°C 40% 3.0 mph NW4.8 kmh NW 6.0 mph9.7 kmh 30.35 in1027.8 mb 0.00 in0.0 mm 0.00 in0.0 mm 0.17 in4.3 mm
02:01 PM 46.4°F8.0°C 23.2°F-4.9°C 40% 3.0 mph NW4.8 kmh NW 6.0 mph9.7 kmh 30.35 in1027.8 mb 0.00 in0.0 mm 0.00 in0.0 mm 0.17 in4.3 mm
02:02 PM 46.5°F8.1°C 23.3°F-4.8°C 40% 1.0 mph NNW1.6 kmh NNW 6.0 mph9.7 kmh 30.35 in1027.8 mb 0.00 in0.0 mm 0.00 in0.0 mm 0.17 in4.3 mm
02:03 PM 46.7°F8.2°C 23.5°F-4.7°C 40% 1.0 mph NNW1.6 kmh NNW 6.0 mph9.7 kmh 30.35 in1027.8 mb 0.00 in0.0 mm 0.00 in0.0 mm 0.17 in4.3 mm
02:04 PM 46.9°F8.3°C 23.6°F-4.7°C 40% 8.0 mph SSE12.9 kmh SSE 8.0 mph12.9 kmh 30.35 in1027.8 mb 0.00 in0.0 mm 0.00 in0.0 mm 0.17 in4.3 mm
02:05 PM 47.1°F8.4°C 23.8°F-4.6°C 40% 4.0 mph SSE6.4 kmh SSE 8.0 mph12.9 kmh 30.35 in1027.8 mb 0.00 in0.0 mm 0.00 in0.0 mm 0.17 in4.3 mm
02:06 PM 47.1°F8.4°C 23.8°F-4.6°C 40% 4.0 mph SSE6.4 kmh SSE 8.0 mph12.9 kmh 30.35 in1027.8 mb 0.00 in0.0 mm 0.00 in0.0 mm 0.17 in4.3 mm
02:07 PM 47.1°F8.4°C 23.8°F-4.6°C 40% 3.0 mph ESE4.8 kmh ESE 8.0 mph12.9 kmh 30.35 in1027.8 mb 0.00 in0.0 mm 0.00 in0.0 mm 0.17 in4.3 mm
02:08 PM 46.9°F8.3°C 23.6°F-4.7°C 40% 7.0 mph SSE11.3 kmh SSE 8.0 mph12.9 kmh 30.35 in1027.8 mb 0.00 in0.0 mm 0.00 in0.0 mm 0.17 in4.3 mm
02:09 PM 47.1°F8.4°C 23.8°F-4.6°C 40% 4.0 mph SSE6.4 kmh SSE 8.0 mph12.9 kmh 30.35 in1027.8 mb 0.00 in0.0 mm 0.00 in0.0 mm 0.17 in4.3 mm
02:10 PM 47.1°F8.4°C 23.8°F-4.6°C 40% 3.0 mph E4.8 kmh E 8.0 mph12.9 kmh 30.35 in1027.8 mb 0.00 in0.0 mm 0.00 in0.0 mm 0.17 in4.3 mm
02:11 PM 47.1°F8.4°C 23.8°F-4.6°C 40% 5.0 mph ESE8.0 kmh ESE 8.0 mph12.9 kmh 30.35 in1027.8 mb 0.00 in0.0 mm 0.00 in0.0 mm 0.17 in4.3 mm
02:12 PM 47.1°F8.4°C 23.8°F-4.6°C 40% 7.0 mph SSE11.3 kmh SSE 8.0 mph12.9 kmh 30.35 in1027.8 mb 0.00 in0.0 mm 0.00 in0.0 mm 0.17 in4.3 mm
02:13 PM 47.1°F8.4°C 23.8°F-4.6°C 40% 4.0 mph SSW6.4 kmh SSW 8.0 mph12.9 kmh 30.35 in1027.8 mb 0.00 in0.0 mm 0.00 in0.0 mm 0.17 in4.3 mm
02:14 PM 47.1°F8.4°C 23.8°F-4.6°C 40% 4.0 mph SSW6.4 kmh SSW 8.0 mph12.9 kmh 30.35 in1027.8 mb 0.00 in0.0 mm 0.00 in0.0 mm 0.17 in4.3 mm
02:15 PM 47.1°F8.4°C 23.8°F-4.6°C 40% 5.0 mph SSW8.0 kmh SSW 7.0 mph11.3 kmh 30.35 in1027.8 mb 0.00 in0.0 mm 0.00 in0.0 mm 0.17 in4.3 mm
02:16 PM 47.1°F8.4°C 23.8°F-4.6°C 40% 2.0 mph SSW3.2 kmh SSW 7.0 mph11.3 kmh 30.35 in1027.8 mb 0.00 in0.0 mm 0.00 in0.0 mm 0.17 in4.3 mm
02:17 PM 46.9°F8.3°C 23.6°F-4.7°C 40% 8.0 mph SE12.9 kmh SE 8.0 mph12.9 kmh 30.35 in1027.8 mb 0.00 in0.0 mm 0.00 in0.0 mm 0.17 in4.3 mm
02:18 PM 46.9°F8.3°C 23.6°F-4.7°C 40% 4.0 mph SE6.4 kmh SE 8.0 mph12.9 kmh 30.34 in1027.4 mb 0.00 in0.0 mm 0.00 in0.0 mm 0.17 in4.3 mm
02:19 PM 46.7°F8.2°C 23.5°F-4.7°C 40% 3.0 mph SE4.8 kmh SE 8.0 mph12.9 kmh 30.34 in1027.4 mb 0.00 in0.0 mm 0.00 in0.0 mm 0.17 in4.3 mm
02:20 PM 46.7°F8.2°C 23.5°F-4.7°C 40% 4.0 mph SE6.4 kmh SE 8.0 mph12.9 kmh 30.34 in1027.4 mb 0.00 in0.0 mm 0.00 in0.0 mm 0.17 in4.3 mm
02:21 PM 46.7°F8.2°C 23.5°F-4.7°C 40% 4.0 mph SE6.4 kmh SE 8.0 mph12.9 kmh 30.34 in1027.4 mb 0.00 in0.0 mm 0.00 in0.0 mm 0.17 in4.3 mm
02:22 PM 46.5°F8.1°C 23.3°F-4.8°C 40% 3.0 mph ESE4.8 kmh ESE 8.0 mph12.9 kmh 30.33 in1027.1 mb 0.00 in0.0 mm 0.00 in0.0 mm 0.17 in4.3 mm
02:23 PM 46.7°F8.2°C 23.5°F-4.7°C 40% 4.0 mph ESE6.4 kmh ESE 8.0 mph12.9 kmh 30.34 in1027.4 mb 0.00 in0.0 mm 0.00 in0.0 mm 0.17 in4.3 mm
02:24 PM 46.9°F8.3°C 23.6°F-4.7°C 40% 3.0 mph WSW4.8 kmh WSW 8.0 mph12.9 kmh 30.34 in1027.4 mb 0.00 in0.0 mm 0.00 in0.0 mm 0.17 in4.3 mm
02:25 PM 46.9°F8.3°C 23.6°F-4.7°C 40% 2.0 mph SSW3.2 kmh SSW 8.0 mph12.9 kmh 30.34 in1027.4 mb 0.00 in0.0 mm 0.00 in0.0 mm 0.17 in4.3 mm
02:26 PM 46.9°F8.3°C 23.6°F-4.7°C 40% 2.0 mph SSW3.2 kmh SSW 8.0 mph12.9 kmh 30.34 in1027.4 mb 0.00 in0.0 mm 0.00 in0.0 mm 0.17 in4.3 mm
02:27 PM 46.9°F8.3°C 23.6°F-4.7°C 40% 4.0 mph SSW6.4 kmh SSW 7.0 mph11.3 kmh 30.34 in1027.4 mb 0.00 in0.0 mm 0.00 in0.0 mm 0.17 in4.3 mm
02:28 PM 46.9°F8.3°C 23.6°F-4.7°C 40% 5.0 mph S8.0 kmh S 7.0 mph11.3 kmh 30.34 in1027.4 mb 0.00 in0.0 mm 0.00 in0.0 mm 0.17 in4.3 mm
02:29 PM 46.7°F8.2°C 23.5°F-4.7°C 40% 2.0 mph ESE3.2 kmh ESE 7.0 mph11.3 kmh 30.34 in1027.4 mb 0.00 in0.0 mm 0.00 in0.0 mm 0.17 in4.3 mm
02:30 PM 46.7°F8.2°C 23.5°F-4.7°C 40% 5.0 mph SSE8.0 kmh SSE 7.0 mph11.3 kmh 30.33 in1027.1 mb 0.00 in0.0 mm 0.00 in0.0 mm 0.17 in4.3 mm
02:31 PM 46.9°F8.3°C 23.6°F-4.7°C 40% 5.0 mph ESE8.0 kmh ESE 7.0 mph11.3 kmh 30.34 in1027.4 mb 0.00 in0.0 mm 0.00 in0.0 mm 0.17 in4.3 mm
02:32 PM 46.9°F8.3°C 23.6°F-4.7°C 40% 4.0 mph ESE6.4 kmh ESE 7.0 mph11.3 kmh 30.34 in1027.4 mb 0.00 in0.0 mm 0.00 in0.0 mm 0.17 in4.3 mm
02:33 PM 46.9°F8.3°C 23.6°F-4.7°C 40% 3.0 mph ESE4.8 kmh ESE 7.0 mph11.3 kmh 30.34 in1027.4 mb 0.00 in0.0 mm 0.00 in0.0 mm 0.17 in4.3 mm
02:34 PM 46.9°F8.3°C 23.6°F-4.7°C 40% 2.0 mph ESE3.2 kmh ESE 6.0 mph9.7 kmh 30.33 in1027.1 mb 0.00 in0.0 mm 0.00 in0.0 mm 0.17 in4.3 mm
02:35 PM 46.9°F8.3°C 23.6°F-4.7°C 40% 4.0 mph ESE6.4 kmh ESE 7.0 mph11.3 kmh 30.34 in1027.4 mb 0.00 in0.0 mm 0.00 in0.0 mm 0.17 in4.3 mm
02:36 PM 46.9°F8.3°C 23.6°F-4.7°C 40% 3.0 mph SSW4.8 kmh SSW 7.0 mph11.3 kmh 30.34 in1027.4 mb 0.00 in0.0 mm 0.00 in0.0 mm 0.17 in4.3 mm
02:37 PM 46.9°F8.3°C 23.6°F-4.7°C 40% 6.0 mph SE9.7 kmh SE 12.0 mph19.3 kmh 30.34 in1027.4 mb 0.00 in0.0 mm 0.00 in0.0 mm 0.17 in4.3 mm
02:38 PM 46.9°F8.3°C 23.6°F-4.7°C 40% 4.0 mph SSE6.4 kmh SSE 12.0 mph19.3 kmh 30.34 in1027.4 mb 0.00 in0.0 mm 0.00 in0.0 mm 0.17 in4.3 mm
02:39 PM 46.7°F8.2°C 23.5°F-4.7°C 40% 4.0 mph SSE6.4 kmh SSE 12.0 mph19.3 kmh 30.34 in1027.4 mb 0.00 in0.0 mm 0.00 in0.0 mm 0.17 in4.3 mm
02:40 PM 46.5°F8.1°C 23.3°F-4.8°C 40% 3.0 mph SE4.8 kmh SE 12.0 mph19.3 kmh 30.34 in1027.4 mb 0.00 in0.0 mm 0.00 in0.0 mm 0.17 in4.3 mm
02:41 PM 46.7°F8.2°C 23.5°F-4.7°C 40% 6.0 mph ESE9.7 kmh ESE 12.0 mph19.3 kmh 30.34 in1027.4 mb 0.00 in0.0 mm 0.00 in0.0 mm 0.17 in4.3 mm
02:42 PM 46.7°F8.2°C 23.5°F-4.7°C 40% 4.0 mph SSE6.4 kmh SSE 12.0 mph19.3 kmh 30.34 in1027.4 mb 0.00 in0.0 mm 0.00 in0.0 mm 0.17 in4.3 mm
02:43 PM 46.7°F8.2°C 23.5°F-4.7°C 40% 4.0 mph ESE6.4 kmh ESE 12.0 mph19.3 kmh 30.33 in1027.1 mb 0.00 in0.0 mm 0.00 in0.0 mm 0.17 in4.3 mm
02:44 PM 46.7°F8.2°C 23.5°F-4.7°C 40% 4.0 mph E6.4 kmh E 12.0 mph19.3 kmh 30.33 in1027.1 mb 0.00 in0.0 mm 0.00 in0.0 mm 0.17 in4.3 mm
02:45 PM 46.5°F8.1°C 23.3°F-4.8°C 40% 5.0 mph E8.0 kmh E 12.0 mph19.3 kmh 30.33 in1027.1 mb 0.00 in0.0 mm 0.00 in0.0 mm 0.17 in4.3 mm
02:46 PM 46.5°F8.1°C 23.3°F-4.8°C 40% 5.0 mph E8.0 kmh E 12.0 mph19.3 kmh 30.34 in1027.4 mb 0.00 in0.0 mm 0.00 in0.0 mm 0.17 in4.3 mm
02:47 PM 46.5°F8.1°C 23.3°F-4.8°C 40% 3.0 mph SSE4.8 kmh SSE 6.0 mph9.7 kmh 30.34 in1027.4 mb 0.00 in0.0 mm 0.00 in0.0 mm 0.17 in4.3 mm
02:48 PM 46.5°F8.1°C 23.3°F-4.8°C 40% 4.0 mph SSE6.4 kmh SSE 6.0 mph9.7 kmh 30.34 in1027.4 mb 0.00 in0.0 mm 0.00 in0.0 mm 0.17 in4.3 mm
02:49 PM 46.5°F8.1°C 23.3°F-4.8°C 40% 4.0 mph WSW6.4 kmh WSW 6.0 mph9.7 kmh 30.34 in1027.4 mb 0.00 in0.0 mm 0.00 in0.0 mm 0.17 in4.3 mm
02:50 PM 46.9°F8.3°C 23.6°F-4.7°C 40% 4.0 mph WSW6.4 kmh WSW 6.0 mph9.7 kmh 30.34 in1027.4 mb 0.00 in0.0 mm 0.00 in0.0 mm 0.17 in4.3 mm
02:51 PM 46.9°F8.3°C 23.6°F-4.7°C 40% 6.0 mph ESE9.7 kmh ESE 6.0 mph9.7 kmh 30.34 in1027.4 mb 0.00 in0.0 mm 0.00 in0.0 mm 0.17 in4.3 mm
02:52 PM 46.9°F8.3°C 23.6°F-4.7°C 40% 3.0 mph ESE4.8 kmh ESE 6.0 mph9.7 kmh 30.33 in1027.1 mb 0.00 in0.0 mm 0.00 in0.0 mm 0.17 in4.3 mm
02:53 PM 46.7°F8.2°C 23.5°F-4.7°C 40% 5.0 mph SSE8.0 kmh SSE 6.0 mph9.7 kmh 30.33 in1027.1 mb 0.00 in0.0 mm 0.00 in0.0 mm 0.17 in4.3 mm
02:54 PM 46.7°F8.2°C 23.5°F-4.7°C 40% 5.0 mph SSE8.0 kmh SSE 6.0 mph9.7 kmh 30.33 in1027.1 mb 0.00 in0.0 mm 0.00 in0.0 mm 0.17 in4.3 mm
02:55 PM 46.7°F8.2°C 23.5°F-4.7°C 40% 5.0 mph ESE8.0 kmh ESE 6.0 mph9.7 kmh 30.33 in1027.1 mb 0.00 in0.0 mm 0.00 in0.0 mm 0.17 in4.3 mm
02:56 PM 46.9°F8.3°C 23.6°F-4.7°C 40% 3.0 mph S4.8 kmh S 6.0 mph9.7 kmh 30.34 in1027.4 mb 0.00 in0.0 mm 0.00 in0.0 mm 0.17 in4.3 mm
02:57 PM 46.7°F8.2°C 23.5°F-4.7°C 40% 5.0 mph S8.0 kmh S 6.0 mph9.7 kmh 30.34 in1027.4 mb 0.00 in0.0 mm 0.00 in0.0 mm 0.17 in4.3 mm
02:58 PM 46.7°F8.2°C 23.5°F-4.7°C 40% 2.0 mph SE3.2 kmh SE 6.0 mph9.7 kmh 30.33 in1027.1 mb 0.00 in0.0 mm 0.00 in0.0 mm 0.17 in4.3 mm
02:59 PM 46.7°F8.2°C 23.5°F-4.7°C 40% 5.0 mph ENE8.0 kmh ENE 6.0 mph9.7 kmh 30.33 in1027.1 mb 0.00 in0.0 mm 0.00 in0.0 mm 0.17 in4.3 mm
03:00 PM 46.7°F8.2°C 23.5°F-4.7°C 40% 4.0 mph SSE6.4 kmh SSE 9.0 mph14.5 kmh 30.33 in1027.1 mb 0.00 in0.0 mm 0.00 in0.0 mm 0.17 in4.3 mm
03:01 PM 46.7°F8.2°C 23.5°F-4.7°C 40% 5.0 mph SSE8.0 kmh SSE 9.0 mph14.5 kmh 30.33 in1027.1 mb 0.00 in0.0 mm 0.00 in0.0 mm 0.17 in4.3 mm
03:02 PM 46.9°F8.3°C 23.6°F-4.7°C 40% 5.0 mph SSE8.0 kmh SSE 9.0 mph14.5 kmh 30.33 in1027.1 mb 0.00 in0.0 mm 0.00 in0.0 mm 0.17 in4.3 mm
03:03 PM 46.9°F8.3°C 23.6°F-4.7°C 40% 7.0 mph S11.3 kmh S 9.0 mph14.5 kmh 30.33 in1027.1 mb 0.00 in0.0 mm 0.00 in0.0 mm 0.17 in4.3 mm
03:04 PM 46.7°F8.2°C 23.5°F-4.7°C 40% 7.0 mph S11.3 kmh S 9.0 mph14.5 kmh 30.33 in1027.1 mb 0.00 in0.0 mm 0.00 in0.0 mm 0.17 in4.3 mm
03:05 PM 46.7°F8.2°C 23.5°F-4.7°C 40% 3.0 mph S4.8 kmh S 9.0 mph14.5 kmh 30.33 in1027.1 mb 0.00 in0.0 mm 0.00 in0.0 mm 0.17 in4.3 mm
03:06 PM 46.7°F8.2°C 23.5°F-4.7°C 40% 3.0 mph SE4.8 kmh SE 9.0 mph14.5 kmh 30.33 in1027.1 mb 0.00 in0.0 mm 0.00 in0.0 mm 0.17 in4.3 mm
03:07 PM 46.5°F8.1°C 23.3°F-4.8°C 40% 3.0 mph SE4.8 kmh SE 9.0 mph14.5 kmh 30.33 in1027.1 mb 0.00 in0.0 mm 0.00 in0.0 mm 0.17 in4.3 mm
03:08 PM 46.7°F8.2°C 23.5°F-4.7°C 40% 5.0 mph WSW8.0 kmh WSW 9.0 mph14.5 kmh 30.33 in1027.1 mb 0.00 in0.0 mm 0.00 in0.0 mm 0.17 in4.3 mm
03:09 PM 46.7°F8.2°C 23.5°F-4.7°C 40% 8.0 mph E12.9 kmh E 9.0 mph14.5 kmh 30.33 in1027.1 mb 0.00 in0.0 mm 0.00 in0.0 mm 0.17 in4.3 mm
03:10 PM 46.7°F8.2°C 23.5°F-4.7°C 40% 5.0 mph E8.0 kmh E 8.0 mph12.9 kmh 30.33 in1027.1 mb 0.00 in0.0 mm 0.00 in0.0 mm 0.17 in4.3 mm
03:11 PM 46.7°F8.2°C 23.5°F-4.7°C 40% 6.0 mph ESE9.7 kmh ESE 8.0 mph12.9 kmh 30.33 in1027.1 mb 0.00 in0.0 mm 0.00 in0.0 mm 0.17 in4.3 mm
03:12 PM 46.7°F8.2°C 23.5°F-4.7°C 40% 3.0 mph ESE4.8 kmh ESE 8.0 mph12.9 kmh 30.33 in1027.1 mb 0.00 in0.0 mm 0.00 in0.0 mm 0.17 in4.3 mm
03:13 PM 46.7°F8.2°C 23.5°F-4.7°C 40% 3.0 mph S4.8 kmh S 8.0 mph12.9 kmh 30.33 in1027.1 mb 0.00 in0.0 mm 0.00 in0.0 mm 0.17 in4.3 mm
03:14 PM 46.5°F8.1°C 23.3°F-4.8°C 40% 2.0 mph SE3.2 kmh SE 8.0 mph12.9 kmh 30.32 in1026.8 mb 0.00 in0.0 mm 0.00 in0.0 mm 0.17 in4.3 mm
03:15 PM 46.5°F8.1°C 23.3°F-4.8°C 40% 3.0 mph ESE4.8 kmh ESE 8.0 mph12.9 kmh 30.32 in1026.8 mb 0.00 in0.0 mm 0.00 in0.0 mm 0.17 in4.3 mm
03:16 PM 46.5°F8.1°C 23.3°F-4.8°C 40% 4.0 mph ENE6.4 kmh ENE 8.0 mph12.9 kmh 30.33 in1027.1 mb 0.00 in0.0 mm 0.00 in0.0 mm 0.17 in4.3 mm
03:17 PM 46.5°F8.1°C 23.3°F-4.8°C 40% 9.0 mph ENE14.5 kmh ENE 9.0 mph14.5 kmh 30.33 in1027.1 mb 0.00 in0.0 mm 0.00 in0.0 mm 0.17 in4.3 mm
03:18 PM 46.5°F8.1°C 23.3°F-4.8°C 40% 9.0 mph ENE14.5 kmh ENE 9.0 mph14.5 kmh 30.33 in1027.1 mb 0.00 in0.0 mm 0.00 in0.0 mm 0.17 in4.3 mm
03:19 PM 46.5°F8.1°C 23.3°F-4.8°C 40% 9.0 mph ESE14.5 kmh ESE 9.0 mph14.5 kmh 30.33 in1027.1 mb 0.00 in0.0 mm 0.00 in0.0 mm 0.17 in4.3 mm
03:20 PM 46.7°F8.2°C 23.5°F-4.7°C 40% 8.0 mph W12.9 kmh W 9.0 mph14.5 kmh 30.32 in1026.8 mb 0.00 in0.0 mm 0.00 in0.0 mm 0.17 in4.3 mm
03:21 PM 46.7°F8.2°C 23.5°F-4.7°C 40% 8.0 mph W12.9 kmh W 9.0 mph14.5 kmh 30.32 in1026.8 mb 0.00 in0.0 mm 0.00 in0.0 mm 0.17 in4.3 mm
03:22 PM 46.7°F8.2°C 23.5°F-4.7°C 40% 4.0 mph 6.4 kmh 9.0 mph14.5 kmh 30.32 in1026.8 mb 0.00 in0.0 mm 0.00 in0.0 mm 0.17 in4.3 mm
03:23 PM 46.7°F8.2°C 23.5°F-4.7°C 40% 5.0 mph 8.0 kmh 9.0 mph14.5 kmh 30.32 in1026.8 mb 0.00 in0.0 mm 0.00 in0.0 mm 0.17 in4.3 mm
03:24 PM 46.7°F8.2°C 23.5°F-4.7°C 40% 4.0 mph ESE6.4 kmh ESE 9.0 mph14.5 kmh 30.32 in1026.8 mb 0.00 in0.0 mm 0.00 in0.0 mm 0.17 in4.3 mm
03:25 PM 46.7°F8.2°C 23.5°F-4.7°C 40% 7.0 mph E11.3 kmh E 9.0 mph14.5 kmh 30.33 in1027.1 mb 0.00 in0.0 mm 0.00 in0.0 mm 0.17 in4.3 mm
03:26 PM 46.7°F8.2°C 23.5°F-4.7°C 40% 5.0 mph NE8.0 kmh NE 9.0 mph14.5 kmh 30.32 in1026.8 mb 0.00 in0.0 mm 0.00 in0.0 mm 0.17 in4.3 mm
03:27 PM 46.7°F8.2°C 23.5°F-4.7°C 40% 5.0 mph S8.0 kmh S 9.0 mph14.5 kmh 30.32 in1026.8 mb 0.00 in0.0 mm 0.00 in0.0 mm 0.17 in4.3 mm
03:28 PM 46.9°F8.3°C 23.6°F-4.7°C 40% 2.0 mph SW3.2 kmh SW 9.0 mph14.5 kmh 30.32 in1026.8 mb 0.00 in0.0 mm 0.00 in0.0 mm 0.17 in4.3 mm
03:29 PM 46.9°F8.3°C 23.6°F-4.7°C 40% 3.0 mph SSW4.8 kmh SSW 8.0 mph12.9 kmh 30.32 in1026.8 mb 0.00 in0.0 mm 0.00 in0.0 mm 0.17 in4.3 mm
03:30 PM 47.1°F8.4°C 23.8°F-4.6°C 40% 4.0 mph S6.4 kmh S 7.0 mph11.3 kmh 30.31 in1026.4 mb 0.00 in0.0 mm 0.00 in0.0 mm 0.17 in4.3 mm
03:31 PM 47.3°F8.5°C 24.0°F-4.4°C 40% 4.0 mph S6.4 kmh S 7.0 mph11.3 kmh 30.32 in1026.8 mb 0.00 in0.0 mm 0.00 in0.0 mm 0.17 in4.3 mm
03:32 PM 47.3°F8.5°C 24.0°F-4.4°C 40% 4.0 mph S6.4 kmh S 7.0 mph11.3 kmh 30.32 in1026.8 mb 0.00 in0.0 mm 0.00 in0.0 mm 0.17 in4.3 mm
03:33 PM 47.3°F8.5°C 24.0°F-4.4°C 40% 7.0 mph S11.3 kmh S 12.0 mph19.3 kmh 30.32 in1026.8 mb 0.00 in0.0 mm 0.00 in0.0 mm 0.17 in4.3 mm
03:34 PM 47.4°F8.6°C 24.1°F-4.4°C 40% 7.0 mph SW11.3 kmh SW 12.0 mph19.3 kmh 30.31 in1026.4 mb 0.00 in0.0 mm 0.00 in0.0 mm 0.17 in4.3 mm
03:35 PM 47.4°F8.6°C 24.1°F-4.4°C 40% 7.0 mph SW11.3 kmh SW 12.0 mph19.3 kmh 30.31 in1026.4 mb 0.00 in0.0 mm 0.00 in0.0 mm 0.17 in4.3 mm
03:36 PM 47.4°F8.6°C 24.1°F-4.4°C 40% 4.0 mph SE6.4 kmh SE 12.0 mph19.3 kmh 30.32 in1026.8 mb 0.00 in0.0 mm 0.00 in0.0 mm 0.17 in4.3 mm
03:37 PM 47.3°F8.5°C 24.0°F-4.4°C 40% 4.0 mph SE6.4 kmh SE 12.0 mph19.3 kmh 30.32 in1026.8 mb 0.00 in0.0 mm 0.00 in0.0 mm 0.17 in4.3 mm
03:38 PM 47.3°F8.5°C 24.0°F-4.4°C 40% 7.0 mph SSE11.3 kmh SSE 12.0 mph19.3 kmh 30.32 in1026.8 mb 0.00 in0.0 mm 0.00 in0.0 mm 0.17 in4.3 mm
03:39 PM 47.1°F8.4°C 23.8°F-4.6°C 40% 7.0 mph SSE11.3 kmh SSE 12.0 mph19.3 kmh 30.32 in1026.8 mb 0.00 in0.0 mm 0.00 in0.0 mm 0.17 in4.3 mm
03:40 PM 47.1°F8.4°C 23.8°F-4.6°C 40% 4.0 mph SSW6.4 kmh SSW 12.0 mph19.3 kmh 30.32 in1026.8 mb 0.00 in0.0 mm 0.00 in0.0 mm 0.17 in4.3 mm
03:41 PM 47.1°F8.4°C 23.8°F-4.6°C 40% 9.0 mph ESE14.5 kmh ESE 12.0 mph19.3 kmh 30.32 in1026.8 mb 0.00 in0.0 mm 0.00 in0.0 mm 0.17 in4.3 mm
03:42 PM 47.1°F8.4°C 23.8°F-4.6°C 40% 7.0 mph ESE11.3 kmh ESE 12.0 mph19.3 kmh 30.32 in1026.8 mb 0.00 in0.0 mm 0.00 in0.0 mm 0.17 in4.3 mm
03:43 PM 47.1°F8.4°C 23.8°F-4.6°C 40% 4.0 mph SSE6.4 kmh SSE 12.0 mph19.3 kmh 30.32 in1026.8 mb 0.00 in0.0 mm 0.00 in0.0 mm 0.17 in4.3 mm
03:44 PM 47.3°F8.5°C 24.0°F-4.4°C 40% 5.0 mph S8.0 kmh S 9.0 mph14.5 kmh 30.31 in1026.4 mb 0.00 in0.0 mm 0.00 in0.0 mm 0.17 in4.3 mm
03:45 PM 47.3°F8.5°C 24.0°F-4.4°C 40% 5.0 mph S8.0 kmh S 9.0 mph14.5 kmh 30.32 in1026.8 mb 0.00 in0.0 mm 0.00 in0.0 mm 0.17 in4.3 mm
03:46 PM 47.3°F8.5°C 24.0°F-4.4°C 40% 4.0 mph SSE6.4 kmh SSE 9.0 mph14.5 kmh 30.32 in1026.8 mb 0.00 in0.0 mm 0.00 in0.0 mm 0.17 in4.3 mm
03:47 PM 47.3°F8.5°C 24.0°F-4.4°C 40% 4.0 mph SW6.4 kmh SW 9.0 mph14.5 kmh 30.31 in1026.4 mb 0.00 in0.0 mm 0.00 in0.0 mm 0.17 in4.3 mm
03:48 PM 47.3°F8.5°C 24.0°F-4.4°C 40% 4.0 mph SW6.4 kmh SW 9.0 mph14.5 kmh 30.31 in1026.4 mb 0.00 in0.0 mm 0.00 in0.0 mm 0.17 in4.3 mm
03:49 PM 47.4°F8.6°C 24.1°F-4.4°C 40% 3.0 mph S4.8 kmh S 9.0 mph14.5 kmh 30.31 in1026.4 mb 0.00 in0.0 mm 0.00 in0.0 mm 0.17 in4.3 mm
03:50 PM 47.4°F8.6°C 24.1°F-4.4°C 40% 3.0 mph S4.8 kmh S 9.0 mph14.5 kmh 30.30 in1026.1 mb 0.00 in0.0 mm 0.00 in0.0 mm 0.17 in4.3 mm
03:51 PM 47.6°F8.7°C 24.3°F-4.3°C 40% 3.0 mph ESE4.8 kmh ESE 7.0 mph11.3 kmh 30.31 in1026.4 mb 0.00 in0.0 mm 0.00 in0.0 mm 0.17 in4.3 mm
03:52 PM 47.8°F8.8°C 24.4°F-4.2°C 40% 3.0 mph ESE4.8 kmh ESE 5.0 mph8.0 kmh 30.31 in1026.4 mb 0.00 in0.0 mm 0.00 in0.0 mm 0.17 in4.3 mm
03:53 PM 47.8°F8.8°C 24.4°F-4.2°C 40% 4.0 mph SSE6.4 kmh SSE 5.0 mph8.0 kmh 30.31 in1026.4 mb 0.00 in0.0 mm 0.00 in0.0 mm 0.17 in4.3 mm
03:54 PM 47.8°F8.8°C 24.4°F-4.2°C 40% 7.0 mph ESE11.3 kmh ESE 7.0 mph11.3 kmh 30.31 in1026.4 mb 0.00 in0.0 mm 0.00 in0.0 mm 0.17 in4.3 mm
03:55 PM 47.8°F8.8°C 24.4°F-4.2°C 40% 6.0 mph ESE9.7 kmh ESE 7.0 mph11.3 kmh 30.31 in1026.4 mb 0.00 in0.0 mm 0.00 in0.0 mm 0.17 in4.3 mm
03:56 PM 47.8°F8.8°C 24.4°F-4.2°C 40% 7.0 mph S11.3 kmh S 7.0 mph11.3 kmh 30.31 in1026.4 mb 0.00 in0.0 mm 0.00 in0.0 mm 0.17 in4.3 mm
03:57 PM 47.6°F8.7°C 24.3°F-4.3°C 40% 7.0 mph S11.3 kmh S 7.0 mph11.3 kmh 30.31 in1026.4 mb 0.00 in0.0 mm 0.00 in0.0 mm 0.17 in4.3 mm
03:58 PM 47.6°F8.7°C 24.3°F-4.3°C 40% 4.0 mph SSE6.4 kmh SSE 7.0 mph11.3 kmh 30.31 in1026.4 mb 0.00 in0.0 mm 0.00 in0.0 mm 0.17 in4.3 mm
03:59 PM 47.6°F8.7°C 24.3°F-4.3°C 40% 3.0 mph SSE4.8 kmh SSE 7.0 mph11.3 kmh 30.31 in1026.4 mb 0.00 in0.0 mm 0.00 in0.0 mm 0.17 in4.3 mm
04:00 PM 47.6°F8.7°C 24.3°F-4.3°C 40% 3.0 mph SSE4.8 kmh SSE 7.0 mph11.3 kmh 30.31 in1026.4 mb 0.00 in0.0 mm 0.00 in0.0 mm 0.17 in4.3 mm
04:01 PM 47.6°F8.7°C 24.3°F-4.3°C 40% 8.0 mph SW12.9 kmh SW 8.0 mph12.9 kmh 30.32 in1026.8 mb 0.00 in0.0 mm 0.00 in0.0 mm 0.17 in4.3 mm
04:02 PM 47.6°F8.7°C 24.3°F-4.3°C 40% 6.0 mph S9.7 kmh S 8.0 mph12.9 kmh 30.32 in1026.8 mb 0.00 in0.0 mm 0.00 in0.0 mm 0.17 in4.3 mm
04:03 PM 47.6°F8.7°C 24.3°F-4.3°C 40% 6.0 mph S9.7 kmh S 8.0 mph12.9 kmh 30.32 in1026.8 mb 0.00 in0.0 mm 0.00 in0.0 mm 0.17 in4.3 mm
04:04 PM 47.4°F8.6°C 24.1°F-4.4°C 40% 5.0 mph SSE8.0 kmh SSE 8.0 mph12.9 kmh 30.31 in1026.4 mb 0.00 in0.0 mm 0.00 in0.0 mm 0.17 in4.3 mm
04:05 PM 47.4°F8.6°C 24.1°F-4.4°C 40% 5.0 mph SSW8.0 kmh SSW 8.0 mph12.9 kmh 30.31 in1026.4 mb 0.00 in0.0 mm 0.00 in0.0 mm 0.17 in4.3 mm
04:06 PM 47.4°F8.6°C 24.1°F-4.4°C 40% 7.0 mph S11.3 kmh S 8.0 mph12.9 kmh 30.31 in1026.4 mb 0.00 in0.0 mm 0.00 in0.0 mm 0.17 in4.3 mm
04:07 PM 47.4°F8.6°C 24.1°F-4.4°C 40% 7.0 mph S11.3 kmh S 8.0 mph12.9 kmh 30.31 in1026.4 mb 0.00 in0.0 mm 0.00 in0.0 mm 0.17 in4.3 mm
04:08 PM 47.4°F8.6°C 24.1°F-4.4°C 40% 4.0 mph S6.4 kmh S 8.0 mph12.9 kmh 30.32 in1026.8 mb 0.00 in0.0 mm 0.00 in0.0 mm 0.17 in4.3 mm
04:09 PM 47.4°F8.6°C 24.1°F-4.4°C 40% 4.0 mph S6.4 kmh S 8.0 mph12.9 kmh 30.32 in1026.8 mb 0.00 in0.0 mm 0.00 in0.0 mm 0.17 in4.3 mm
04:10 PM 47.3°F8.5°C 24.0°F-4.4°C 40% 5.0 mph S8.0 kmh S 8.0 mph12.9 kmh 30.31 in1026.4 mb 0.00 in0.0 mm 0.00 in0.0 mm 0.17 in4.3 mm
04:11 PM 47.3°F8.5°C 24.0°F-4.4°C 40% 4.0 mph SSW6.4 kmh SSW 8.0 mph12.9 kmh 30.31 in1026.4 mb 0.00 in0.0 mm 0.00 in0.0 mm 0.17 in4.3 mm
04:12 PM 47.3°F8.5°C 24.0°F-4.4°C 40% 4.0 mph SW6.4 kmh SW 7.0 mph11.3 kmh 30.31 in1026.4 mb 0.00 in0.0 mm 0.00 in0.0 mm 0.17 in4.3 mm
04:13 PM 47.4°F8.6°C 24.1°F-4.4°C 40% 6.0 mph S9.7 kmh S 7.0 mph11.3 kmh 30.31 in1026.4 mb 0.00 in0.0 mm 0.00 in0.0 mm 0.17 in4.3 mm
04:14 PM 47.4°F8.6°C 24.1°F-4.4°C 40% 6.0 mph S9.7 kmh S 7.0 mph11.3 kmh 30.31 in1026.4 mb 0.00 in0.0 mm 0.00 in0.0 mm 0.17 in4.3 mm
04:15 PM 47.3°F8.5°C 24.0°F-4.4°C 40% 4.0 mph SE6.4 kmh SE 7.0 mph11.3 kmh 30.31 in1026.4 mb 0.00 in0.0 mm 0.00 in0.0 mm 0.17 in4.3 mm
04:16 PM 47.3°F8.5°C 24.0°F-4.4°C 40% 4.0 mph SE6.4 kmh SE 7.0 mph11.3 kmh 30.31 in1026.4 mb 0.00 in0.0 mm 0.00 in0.0 mm 0.17 in4.3 mm
04:17 PM 47.1°F8.4°C 23.8°F-4.6°C 40% 4.0 mph SE6.4 kmh SE 7.0 mph11.3 kmh 30.31 in1026.4 mb 0.00 in0.0 mm 0.00 in0.0 mm 0.17 in4.3 mm
04:18 PM 47.1°F8.4°C 23.8°F-4.6°C 40% 4.0 mph SE6.4 kmh SE 7.0 mph11.3 kmh 30.31 in1026.4 mb 0.00 in0.0 mm 0.00 in0.0 mm 0.17 in4.3 mm
04:19 PM 47.1°F8.4°C 23.8°F-4.6°C 40% 5.0 mph SE8.0 kmh SE 6.0 mph9.7 kmh 30.31 in1026.4 mb 0.00 in0.0 mm 0.00 in0.0 mm 0.17 in4.3 mm
04:20 PM 47.1°F8.4°C 23.8°F-4.6°C 40% 5.0 mph ESE8.0 kmh ESE 6.0 mph9.7 kmh 30.31 in1026.4 mb 0.00 in0.0 mm 0.00 in0.0 mm 0.17 in4.3 mm
04:21 PM 47.3°F8.5°C 24.0°F-4.4°C 40% 4.0 mph ESE6.4 kmh ESE 6.0 mph9.7 kmh 30.31 in1026.4 mb 0.00 in0.0 mm 0.00 in0.0 mm 0.17 in4.3 mm
04:22 PM 47.3°F8.5°C 24.0°F-4.4°C 40% 4.0 mph ESE6.4 kmh ESE 6.0 mph9.7 kmh 30.31 in1026.4 mb 0.00 in0.0 mm 0.00 in0.0 mm 0.17 in4.3 mm
04:23 PM 47.6°F8.7°C 24.3°F-4.3°C 40% 3.0 mph SSW4.8 kmh SSW 6.0 mph9.7 kmh 30.31 in1026.4 mb 0.00 in0.0 mm 0.00 in0.0 mm 0.17 in4.3 mm
04:24 PM 47.8°F8.8°C 24.4°F-4.2°C 40% 2.0 mph S3.2 kmh S 6.0 mph9.7 kmh 30.31 in1026.4 mb 0.00 in0.0 mm 0.00 in0.0 mm 0.17 in4.3 mm
04:25 PM 48.0°F8.9°C 24.6°F-4.1°C 40% 2.0 mph ESE3.2 kmh ESE 6.0 mph9.7 kmh 30.31 in1026.4 mb 0.00 in0.0 mm 0.00 in0.0 mm 0.17 in4.3 mm
04:26 PM 48.0°F8.9°C 24.6°F-4.1°C 40% 2.0 mph ESE3.2 kmh ESE 6.0 mph9.7 kmh 30.31 in1026.4 mb 0.00 in0.0 mm 0.00 in0.0 mm 0.17 in4.3 mm
04:27 PM 48.0°F8.9°C 24.6°F-4.1°C 40% 3.0 mph SSE4.8 kmh SSE 6.0 mph9.7 kmh 30.31 in1026.4 mb 0.00 in0.0 mm 0.00 in0.0 mm 0.17 in4.3 mm
04:28 PM 48.0°F8.9°C 24.6°F-4.1°C 40% 4.0 mph SSE6.4 kmh SSE 6.0 mph9.7 kmh 30.31 in1026.4 mb 0.00 in0.0 mm 0.00 in0.0 mm 0.17 in4.3 mm
04:29 PM 48.0°F8.9°C 24.6°F-4.1°C 40% 3.0 mph SSE4.8 kmh SSE 6.0 mph9.7 kmh 30.31 in1026.4 mb 0.00 in0.0 mm 0.00 in0.0 mm 0.17 in4.3 mm
04:30 PM 47.8°F8.8°C 24.4°F-4.2°C 40% 3.0 mph SSE4.8 kmh SSE 6.0 mph9.7 kmh 30.31 in1026.4 mb 0.00 in0.0 mm 0.00 in0.0 mm 0.17 in4.3 mm
04:31 PM 47.8°F8.8°C 24.4°F-4.2°C 40% 3.0 mph SSE4.8 kmh SSE 6.0 mph9.7 kmh 30.31 in1026.4 mb 0.00 in0.0 mm 0.00 in0.0 mm 0.17 in4.3 mm
04:32 PM 47.8°F8.8°C 24.4°F-4.2°C 40% 5.0 mph NNE8.0 kmh NNE 6.0 mph9.7 kmh 30.31 in1026.4 mb 0.00 in0.0 mm 0.00 in0.0 mm 0.17 in4.3 mm
04:33 PM 47.6°F8.7°C 24.3°F-4.3°C 40% 4.0 mph S6.4 kmh S 6.0 mph9.7 kmh 30.31 in1026.4 mb 0.00 in0.0 mm 0.00 in0.0 mm 0.17 in4.3 mm
04:34 PM 47.6°F8.7°C 24.3°F-4.3°C 40% 4.0 mph W6.4 kmh W 6.0 mph9.7 kmh 30.31 in1026.4 mb 0.00 in0.0 mm 0.00 in0.0 mm 0.17 in4.3 mm
04:35 PM 47.8°F8.8°C 24.4°F-4.2°C 40% 4.0 mph W6.4 kmh W 6.0 mph9.7 kmh 30.31 in1026.4 mb 0.00 in0.0 mm 0.00 in0.0 mm 0.17 in4.3 mm
04:36 PM 47.8°F8.8°C 24.4°F-4.2°C 40% 5.0 mph SSW8.0 kmh SSW 6.0 mph9.7 kmh 30.31 in1026.4 mb 0.00 in0.0 mm 0.00 in0.0 mm 0.17 in4.3 mm
04:37 PM 48.0°F8.9°C 24.6°F-4.1°C 40% 4.0 mph SSW6.4 kmh SSW 6.0 mph9.7 kmh 30.31 in1026.4 mb 0.00 in0.0 mm 0.00 in0.0 mm 0.17 in4.3 mm
04:38 PM 48.0°F8.9°C 24.6°F-4.1°C 40% 3.0 mph SE4.8 kmh SE 6.0 mph9.7 kmh 30.30 in1026.1 mb 0.00 in0.0 mm 0.00 in0.0 mm 0.17 in4.3 mm
04:39 PM 47.8°F8.8°C 24.4°F-4.2°C 40% 5.0 mph SE8.0 kmh SE 6.0 mph9.7 kmh 30.30 in1026.1 mb 0.00 in0.0 mm 0.00 in0.0 mm 0.17 in4.3 mm
04:40 PM 47.8°F8.8°C 24.4°F-4.2°C 40% 6.0 mph S9.7 kmh S 6.0 mph9.7 kmh 30.31 in1026.4 mb 0.00 in0.0 mm 0.00 in0.0 mm 0.17 in4.3 mm
04:41 PM 47.6°F8.7°C 24.3°F-4.3°C 40% 8.0 mph ESE12.9 kmh ESE 8.0 mph12.9 kmh 30.31 in1026.4 mb 0.00 in0.0 mm 0.00 in0.0 mm 0.17 in4.3 mm
04:42 PM 47.6°F8.7°C 24.3°F-4.3°C 40% 3.0 mph WSW4.8 kmh WSW 9.0 mph14.5 kmh 30.31 in1026.4 mb 0.00 in0.0 mm 0.00 in0.0 mm 0.17 in4.3 mm
04:43 PM 47.6°F8.7°C 24.3°F-4.3°C 40% 9.0 mph SE14.5 kmh SE 9.0 mph14.5 kmh 30.31 in1026.4 mb 0.00 in0.0 mm 0.00 in0.0 mm 0.17 in4.3 mm
04:44 PM 47.8°F8.8°C 24.4°F-4.2°C 40% 4.0 mph SE6.4 kmh SE 9.0 mph14.5 kmh 30.31 in1026.4 mb 0.00 in0.0 mm 0.00 in0.0 mm 0.17 in4.3 mm
04:45 PM 47.8°F8.8°C 24.4°F-4.2°C 40% 2.0 mph S3.2 kmh S 9.0 mph14.5 kmh 30.31 in1026.4 mb 0.00 in0.0 mm 0.00 in0.0 mm 0.17 in4.3 mm
04:46 PM 47.6°F8.7°C 24.3°F-4.3°C 40% 6.0 mph S9.7 kmh S 9.0 mph14.5 kmh 30.31 in1026.4 mb 0.00 in0.0 mm 0.00 in0.0 mm 0.17 in4.3 mm
04:47 PM 47.6°F8.7°C 24.3°F-4.3°C 40% 5.0 mph S8.0 kmh S 9.0 mph14.5 kmh 30.31 in1026.4 mb 0.00 in0.0 mm 0.00 in0.0 mm 0.17 in4.3 mm
04:48 PM 47.6°F8.7°C 24.3°F-4.3°C 40% 6.0 mph SSW9.7 kmh SSW 9.0 mph14.5 kmh 30.30 in1026.1 mb 0.00 in0.0 mm 0.00 in0.0 mm 0.17 in4.3 mm
04:49 PM 47.6°F8.7°C 24.3°F-4.3°C 40% 7.0 mph SE11.3 kmh SE 9.0 mph14.5 kmh 30.31 in1026.4 mb 0.00 in0.0 mm 0.00 in0.0 mm 0.17 in4.3 mm
04:50 PM 47.4°F8.6°C 24.1°F-4.4°C 40% 4.0 mph SSE6.4 kmh SSE 9.0 mph14.5 kmh 30.31 in1026.4 mb 0.00 in0.0 mm 0.00 in0.0 mm 0.17 in4.3 mm
04:51 PM 47.4°F8.6°C 24.1°F-4.4°C 40% 6.0 mph SE9.7 kmh SE 9.0 mph14.5 kmh 30.31 in1026.4 mb 0.00 in0.0 mm 0.00 in0.0 mm 0.17 in4.3 mm
04:52 PM 47.4°F8.6°C 24.1°F-4.4°C 40% 5.0 mph SSW8.0 kmh SSW 9.0 mph14.5 kmh 30.31 in1026.4 mb 0.00 in0.0 mm 0.00 in0.0 mm 0.17 in4.3 mm
04:53 PM 47.4°F8.6°C 24.1°F-4.4°C 40% 4.0 mph SSE6.4 kmh SSE 9.0 mph14.5 kmh 30.31 in1026.4 mb 0.00 in0.0 mm 0.00 in0.0 mm 0.17 in4.3 mm
04:54 PM 47.4°F8.6°C 24.1°F-4.4°C 40% 8.0 mph SSE12.9 kmh SSE 9.0 mph14.5 kmh 30.30 in1026.1 mb 0.00 in0.0 mm 0.00 in0.0 mm 0.17 in4.3 mm
04:55 PM 47.4°F8.6°C 24.1°F-4.4°C 40% 5.0 mph SSE8.0 kmh SSE 9.0 mph14.5 kmh 30.31 in1026.4 mb 0.00 in0.0 mm 0.00 in0.0 mm 0.17 in4.3 mm
04:56 PM 47.4°F8.6°C 24.1°F-4.4°C 40% 6.0 mph S9.7 kmh S 9.0 mph14.5 kmh 30.31 in1026.4 mb 0.00 in0.0 mm 0.00 in0.0 mm 0.17 in4.3 mm
04:57 PM 47.4°F8.6°C 24.1°F-4.4°C 40% 6.0 mph S9.7 kmh S 9.0 mph14.5 kmh 30.31 in1026.4 mb 0.00 in0.0 mm 0.00 in0.0 mm 0.17 in4.3 mm
04:58 PM 47.3°F8.5°C 24.0°F-4.4°C 40% 3.0 mph ESE4.8 kmh ESE 8.0 mph12.9 kmh 30.31 in1026.4 mb 0.00 in0.0 mm 0.00 in0.0 mm 0.17 in4.3 mm
04:59 PM 47.3°F8.5°C 24.0°F-4.4°C 40% 5.0 mph S8.0 kmh S 8.0 mph12.9 kmh 30.30 in1026.1 mb 0.00 in0.0 mm 0.00 in0.0 mm 0.17 in4.3 mm
05:00 PM 47.3°F8.5°C 24.0°F-4.4°C 40% 7.0 mph S11.3 kmh S 8.0 mph12.9 kmh 30.30 in1026.1 mb 0.00 in0.0 mm 0.00 in0.0 mm 0.17 in4.3 mm
05:01 PM 47.3°F8.5°C 24.0°F-4.4°C 40% 6.0 mph SW9.7 kmh SW 8.0 mph12.9 kmh 30.30 in1026.1 mb 0.00 in0.0 mm 0.00 in0.0 mm 0.17 in4.3 mm
05:02 PM 47.3°F8.5°C 24.0°F-4.4°C 40% 6.0 mph SW9.7 kmh SW 8.0 mph12.9 kmh 30.30 in1026.1 mb 0.00 in0.0 mm 0.00 in0.0 mm 0.17 in4.3 mm
05:03 PM 47.3°F8.5°C 24.0°F-4.4°C 40% 4.0 mph SE6.4 kmh SE 8.0 mph12.9 kmh 30.31 in1026.4 mb 0.00 in0.0 mm 0.00 in0.0 mm 0.17 in4.3 mm
05:04 PM 47.1°F8.4°C 23.8°F-4.6°C 40% 3.0 mph SE4.8 kmh SE 8.0 mph12.9 kmh 30.31 in1026.4 mb 0.00 in0.0 mm 0.00 in0.0 mm 0.17 in4.3 mm
05:05 PM 47.1°F8.4°C 23.8°F-4.6°C 40% 6.0 mph SSE9.7 kmh SSE 8.0 mph12.9 kmh 30.30 in1026.1 mb 0.00 in0.0 mm 0.00 in0.0 mm 0.17 in4.3 mm
05:06 PM 47.1°F8.4°C 23.8°F-4.6°C 40% 6.0 mph SSE9.7 kmh SSE 8.0 mph12.9 kmh 30.31 in1026.4 mb 0.00 in0.0 mm 0.00 in0.0 mm 0.17 in4.3 mm
05:07 PM 47.1°F8.4°C 23.8°F-4.6°C 40% 5.0 mph SSW8.0 kmh SSW 8.0 mph12.9 kmh 30.31 in1026.4 mb 0.00 in0.0 mm 0.00 in0.0 mm 0.17 in4.3 mm
05:08 PM 47.1°F8.4°C 23.8°F-4.6°C 40% 4.0 mph W6.4 kmh W 8.0 mph12.9 kmh 30.30 in1026.1 mb 0.00 in0.0 mm 0.00 in0.0 mm 0.17 in4.3 mm
05:09 PM 46.9°F8.3°C 23.6°F-4.7°C 40% 3.0 mph S4.8 kmh S 8.0 mph12.9 kmh 30.30 in1026.1 mb 0.00 in0.0 mm 0.00 in0.0 mm 0.17 in4.3 mm
05:10 PM 46.9°F8.3°C 23.6°F-4.7°C 40% 5.0 mph S8.0 kmh S 8.0 mph12.9 kmh 30.30 in1026.1 mb 0.00 in0.0 mm 0.00 in0.0 mm 0.17 in4.3 mm
05:11 PM 46.9°F8.3°C 23.6°F-4.7°C 40% 6.0 mph SSE9.7 kmh SSE 8.0 mph12.9 kmh 30.30 in1026.1 mb 0.00 in0.0 mm 0.00 in0.0 mm 0.17 in4.3 mm
05:12 PM 46.9°F8.3°C 23.6°F-4.7°C 40% 5.0 mph SSE8.0 kmh SSE 8.0 mph12.9 kmh 30.30 in1026.1 mb 0.00 in0.0 mm 0.00 in0.0 mm 0.17 in4.3 mm
05:13 PM 46.9°F8.3°C 23.6°F-4.7°C 40% 6.0 mph S9.7 kmh S 8.0 mph12.9 kmh 30.30 in1026.1 mb 0.00 in0.0 mm 0.00 in0.0 mm 0.17 in4.3 mm
05:14 PM 46.7°F8.2°C 23.5°F-4.7°C 40% 6.0 mph S9.7 kmh S 8.0 mph12.9 kmh 30.31 in1026.4 mb 0.00 in0.0 mm 0.00 in0.0 mm 0.17 in4.3 mm
05:15 PM 46.7°F8.2°C 23.5°F-4.7°C 40% 9.0 mph ESE14.5 kmh ESE 9.0 mph14.5 kmh 30.30 in1026.1 mb 0.00 in0.0 mm 0.00 in0.0 mm 0.17 in4.3 mm
05:16 PM 46.7°F8.2°C 23.5°F-4.7°C 40% 9.0 mph ESE14.5 kmh ESE 9.0 mph14.5 kmh 30.30 in1026.1 mb 0.00 in0.0 mm 0.00 in0.0 mm 0.17 in4.3 mm
05:17 PM 46.7°F8.2°C 23.5°F-4.7°C 40% 7.0 mph SSE11.3 kmh SSE 9.0 mph14.5 kmh 30.30 in1026.1 mb 0.00 in0.0 mm 0.00 in0.0 mm 0.17 in4.3 mm
05:18 PM 46.7°F8.2°C 23.5°F-4.7°C 40% 5.0 mph SSE8.0 kmh SSE 9.0 mph14.5 kmh 30.30 in1026.1 mb 0.00 in0.0 mm 0.00 in0.0 mm 0.17 in4.3 mm
05:19 PM 46.5°F8.1°C 23.3°F-4.8°C 40% 8.0 mph S12.9 kmh S 9.0 mph14.5 kmh 30.30 in1026.1 mb 0.00 in0.0 mm 0.00 in0.0 mm 0.17 in4.3 mm
05:20 PM 46.5°F8.1°C 23.3°F-4.8°C 40% 8.0 mph S12.9 kmh S 9.0 mph14.5 kmh 30.30 in1026.1 mb 0.00 in0.0 mm 0.00 in0.0 mm 0.17 in4.3 mm
05:21 PM 46.5°F8.1°C 23.3°F-4.8°C 40% 4.0 mph ESE6.4 kmh ESE 9.0 mph14.5 kmh 30.30 in1026.1 mb 0.00 in0.0 mm 0.00 in0.0 mm 0.17 in4.3 mm
05:22 PM 46.5°F8.1°C 23.3°F-4.8°C 40% 5.0 mph S8.0 kmh S 9.0 mph14.5 kmh 30.31 in1026.4 mb 0.00 in0.0 mm 0.00 in0.0 mm 0.17 in4.3 mm
05:23 PM 46.5°F8.1°C 23.3°F-4.8°C 40% 4.0 mph S6.4 kmh S 9.0 mph14.5 kmh 30.30 in1026.1 mb 0.00 in0.0 mm 0.00 in0.0 mm 0.17 in4.3 mm
05:24 PM 46.5°F8.1°C 23.3°F-4.8°C 40% 4.0 mph S6.4 kmh S 9.0 mph14.5 kmh 30.30 in1026.1 mb 0.00 in0.0 mm 0.00 in0.0 mm 0.17 in4.3 mm
05:25 PM 46.5°F8.1°C 23.3°F-4.8°C 40% 5.0 mph S8.0 kmh S 9.0 mph14.5 kmh 30.30 in1026.1 mb 0.00 in0.0 mm 0.00 in0.0 mm 0.17 in4.3 mm
05:26 PM 46.5°F8.1°C 23.3°F-4.8°C 40% 5.0 mph S8.0 kmh S 9.0 mph14.5 kmh 30.29 in1025.7 mb 0.00 in0.0 mm 0.00 in0.0 mm 0.17 in4.3 mm
05:27 PM 46.7°F8.2°C 23.5°F-4.7°C 40% 3.0 mph S4.8 kmh S 8.0 mph12.9 kmh 30.30 in1026.1 mb 0.00 in0.0 mm 0.00 in0.0 mm 0.17 in4.3 mm
05:28 PM 46.7°F8.2°C 23.5°F-4.7°C 40% 4.0 mph SSE6.4 kmh SSE 8.0 mph12.9 kmh 30.30 in1026.1 mb 0.00 in0.0 mm 0.00 in0.0 mm 0.17 in4.3 mm
05:29 PM 46.7°F8.2°C 23.5°F-4.7°C 40% 4.0 mph SSE6.4 kmh SSE 8.0 mph12.9 kmh 30.31 in1026.4 mb 0.00 in0.0 mm 0.00 in0.0 mm 0.17 in4.3 mm
05:30 PM 46.7°F8.2°C 23.5°F-4.7°C 40% 4.0 mph SSE6.4 kmh SSE 8.0 mph12.9 kmh 30.30 in1026.1 mb 0.00 in0.0 mm 0.00 in0.0 mm 0.17 in4.3 mm
05:31 PM 46.7°F8.2°C 23.5°F-4.7°C 40% 4.0 mph S6.4 kmh S 5.0 mph8.0 kmh 30.30 in1026.1 mb 0.00 in0.0 mm 0.00 in0.0 mm 0.17 in4.3 mm
05:32 PM 46.7°F8.2°C 23.5°F-4.7°C 40% 4.0 mph S6.4 kmh S 5.0 mph8.0 kmh 30.30 in1026.1 mb 0.00 in0.0 mm 0.00 in0.0 mm 0.17 in4.3 mm
05:33 PM 46.7°F8.2°C 23.5°F-4.7°C 40% 9.0 mph S14.5 kmh S 9.0 mph14.5 kmh 30.30 in1026.1 mb 0.00 in0.0 mm 0.00 in0.0 mm 0.17 in4.3 mm
05:34 PM 46.5°F8.1°C 23.3°F-4.8°C 40% 4.0 mph SSE6.4 kmh SSE 9.0 mph14.5 kmh 30.30 in1026.1 mb 0.00 in0.0 mm 0.00 in0.0 mm 0.17 in4.3 mm
05:35 PM 46.5°F8.1°C 23.3°F-4.8°C 40% 4.0 mph SSW6.4 kmh SSW 9.0 mph14.5 kmh 30.30 in1026.1 mb 0.00 in0.0 mm 0.00 in0.0 mm 0.17 in4.3 mm
05:36 PM 46.4°F8.0°C 23.2°F-4.9°C 40% 7.0 mph S11.3 kmh S 9.0 mph14.5 kmh 30.30 in1026.1 mb 0.00 in0.0 mm 0.00 in0.0 mm 0.17 in4.3 mm
05:37 PM 46.4°F8.0°C 23.2°F-4.9°C 40% 7.0 mph S11.3 kmh S 9.0 mph14.5 kmh 30.30 in1026.1 mb 0.00 in0.0 mm 0.00 in0.0 mm 0.17 in4.3 mm
05:38 PM 46.4°F8.0°C 23.2°F-4.9°C 40% 4.0 mph ESE6.4 kmh ESE 9.0 mph14.5 kmh 30.30 in1026.1 mb 0.00 in0.0 mm 0.00 in0.0 mm 0.17 in4.3 mm
05:39 PM 46.4°F8.0°C 23.2°F-4.9°C 40% 6.0 mph ESE9.7 kmh ESE 9.0 mph14.5 kmh 30.30 in1026.1 mb 0.00 in0.0 mm 0.00 in0.0 mm 0.17 in4.3 mm
05:40 PM 46.2°F7.9°C 23.0°F-5.0°C 40% 4.0 mph S6.4 kmh S 9.0 mph14.5 kmh 30.30 in1026.1 mb 0.00 in0.0 mm 0.00 in0.0 mm 0.17 in4.3 mm
05:41 PM 46.2°F7.9°C 23.0°F-5.0°C 40% 3.0 mph SE4.8 kmh SE 9.0 mph14.5 kmh 30.30 in1026.1 mb 0.00 in0.0 mm 0.00 in0.0 mm 0.17 in4.3 mm
05:42 PM 46.2°F7.9°C 23.0°F-5.0°C 40% 3.0 mph WSW4.8 kmh WSW 9.0 mph14.5 kmh 30.30 in1026.1 mb 0.00 in0.0 mm 0.00 in0.0 mm 0.17 in4.3 mm
05:43 PM 46.2°F7.9°C 23.0°F-5.0°C 40% 3.0 mph S4.8 kmh S 9.0 mph14.5 kmh 30.30 in1026.1 mb 0.00 in0.0 mm 0.00 in0.0 mm 0.17 in4.3 mm
05:44 PM 46.2°F7.9°C 23.0°F-5.0°C 40% 5.0 mph SSE8.0 kmh SSE 7.0 mph11.3 kmh 30.30 in1026.1 mb 0.00 in0.0 mm 0.00 in0.0 mm 0.17 in4.3 mm
05:45 PM 46.2°F7.9°C 23.0°F-5.0°C 40% 4.0 mph S6.4 kmh S 7.0 mph11.3 kmh 30.30 in1026.1 mb 0.00 in0.0 mm 0.00 in0.0 mm 0.17 in4.3 mm
05:46 PM 46.2°F7.9°C 23.0°F-5.0°C 40% 5.0 mph S8.0 kmh S 7.0 mph11.3 kmh 30.30 in1026.1 mb 0.00 in0.0 mm 0.00 in0.0 mm 0.17 in4.3 mm
05:47 PM 46.2°F7.9°C 23.0°F-5.0°C 40% 2.0 mph S3.2 kmh S 7.0 mph11.3 kmh 30.30 in1026.1 mb 0.00 in0.0 mm 0.00 in0.0 mm 0.17 in4.3 mm
05:48 PM 46.2°F7.9°C 23.0°F-5.0°C 40% 5.0 mph S8.0 kmh S 7.0 mph11.3 kmh 30.30 in1026.1 mb 0.00 in0.0 mm 0.00 in0.0 mm 0.17 in4.3 mm
05:49 PM 46.2°F7.9°C 23.0°F-5.0°C 40% 3.0 mph ESE4.8 kmh ESE 7.0 mph11.3 kmh 30.30 in1026.1 mb 0.00 in0.0 mm 0.00 in0.0 mm 0.17 in4.3 mm
05:50 PM 46.0°F7.8°C 22.8°F-5.1°C 40% 2.0 mph S3.2 kmh S 7.0 mph11.3 kmh 30.30 in1026.1 mb 0.00 in0.0 mm 0.00 in0.0 mm 0.17 in4.3 mm
05:51 PM 46.0°F7.8°C 22.8°F-5.1°C 40% 2.0 mph S3.2 kmh S 7.0 mph11.3 kmh 30.30 in1026.1 mb 0.00 in0.0 mm 0.00 in0.0 mm 0.17 in4.3 mm
05:52 PM 46.0°F7.8°C 22.8°F-5.1°C 40% 2.0 mph SE3.2 kmh SE 7.0 mph11.3 kmh 30.30 in1026.1 mb 0.00 in0.0 mm 0.00 in0.0 mm 0.17 in4.3 mm
05:53 PM 46.0°F7.8°C 22.8°F-5.1°C 40% 4.0 mph ESE6.4 kmh ESE 7.0 mph11.3 kmh 30.30 in1026.1 mb 0.00 in0.0 mm 0.00 in0.0 mm 0.17 in4.3 mm
05:54 PM 46.0°F7.8°C 22.8°F-5.1°C 40% 5.0 mph ESE8.0 kmh ESE 7.0 mph11.3 kmh 30.30 in1026.1 mb 0.00 in0.0 mm 0.00 in0.0 mm 0.17 in4.3 mm
05:55 PM 46.0°F7.8°C 22.8°F-5.1°C 40% 6.0 mph WSW9.7 kmh WSW 10.0 mph16.1 kmh 30.30 in1026.1 mb 0.00 in0.0 mm 0.00 in0.0 mm 0.17 in4.3 mm
05:56 PM 45.8°F7.7°C 22.6°F-5.2°C 40% 6.0 mph SSE9.7 kmh SSE 10.0 mph16.1 kmh 30.30 in1026.1 mb 0.00 in0.0 mm 0.00 in0.0 mm 0.17 in4.3 mm
05:57 PM 45.6°F7.6°C 22.5°F-5.3°C 40% 6.0 mph S9.7 kmh S 10.0 mph16.1 kmh 30.30 in1026.1 mb 0.00 in0.0 mm 0.00 in0.0 mm 0.17 in4.3 mm
05:58 PM 45.6°F7.6°C 22.5°F-5.3°C 40% 4.0 mph S6.4 kmh S 10.0 mph16.1 kmh 30.30 in1026.1 mb 0.00 in0.0 mm 0.00 in0.0 mm 0.17 in4.3 mm
05:59 PM 45.6°F7.6°C 22.5°F-5.3°C 40% 3.0 mph SSE4.8 kmh SSE 10.0 mph16.1 kmh 30.30 in1026.1 mb 0.00 in0.0 mm 0.00 in0.0 mm 0.17 in4.3 mm
06:00 PM 45.5°F7.5°C 22.4°F-5.3°C 40% 3.0 mph E4.8 kmh E 10.0 mph16.1 kmh 30.30 in1026.1 mb 0.00 in0.0 mm 0.00 in0.0 mm 0.17 in4.3 mm
06:01 PM 45.5°F7.5°C 22.4°F-5.3°C 40% 4.0 mph E6.4 kmh E 10.0 mph16.1 kmh 30.30 in1026.1 mb 0.00 in0.0 mm 0.00 in0.0 mm 0.17 in4.3 mm
06:02 PM 45.5°F7.5°C 22.4°F-5.3°C 40% 7.0 mph SSE11.3 kmh SSE 10.0 mph16.1 kmh 30.30 in1026.1 mb 0.00 in0.0 mm 0.00 in0.0 mm 0.17 in4.3 mm
06:03 PM 45.5°F7.5°C 22.4°F-5.3°C 40% 4.0 mph SSE6.4 kmh SSE 10.0 mph16.1 kmh 30.30 in1026.1 mb 0.00 in0.0 mm 0.00 in0.0 mm 0.17 in4.3 mm
06:04 PM 45.5°F7.5°C 22.4°F-5.3°C 40% 6.0 mph SSE9.7 kmh SSE 10.0 mph16.1 kmh 30.30 in1026.1 mb 0.00 in0.0 mm 0.00 in0.0 mm 0.17 in4.3 mm
06:05 PM 45.5°F7.5°C 22.4°F-5.3°C 40% 3.0 mph ESE4.8 kmh ESE 7.0 mph11.3 kmh 30.30 in1026.1 mb 0.00 in0.0 mm 0.00 in0.0 mm 0.17 in4.3 mm
06:06 PM 45.3°F7.4°C 22.2°F-5.4°C 40% 4.0 mph S6.4 kmh S 7.0 mph11.3 kmh 30.31 in1026.4 mb 0.00 in0.0 mm 0.00 in0.0 mm 0.17 in4.3 mm
06:07 PM 45.3°F7.4°C 22.2°F-5.4°C 40% 4.0 mph SSE6.4 kmh SSE 7.0 mph11.3 kmh 30.31 in1026.4 mb 0.00 in0.0 mm 0.00 in0.0 mm 0.17 in4.3 mm
06:08 PM 45.3°F7.4°C 22.2°F-5.4°C 40% 6.0 mph SSE9.7 kmh SSE 7.0 mph11.3 kmh 30.30 in1026.1 mb 0.00 in0.0 mm 0.00 in0.0 mm 0.17 in4.3 mm
06:09 PM 45.3°F7.4°C 22.2°F-5.4°C 40% 4.0 mph ESE6.4 kmh ESE 7.0 mph11.3 kmh 30.30 in1026.1 mb 0.00 in0.0 mm 0.00 in0.0 mm 0.17 in4.3 mm
06:10 PM 45.3°F7.4°C 22.2°F-5.4°C 40% 4.0 mph SSW6.4 kmh SSW 7.0 mph11.3 kmh 30.30 in1026.1 mb 0.00 in0.0 mm 0.00 in0.0 mm 0.17 in4.3 mm
06:11 PM 45.1°F7.3°C 22.0°F-5.6°C 40% 3.0 mph SE4.8 kmh SE 7.0 mph11.3 kmh 30.30 in1026.1 mb 0.00 in0.0 mm 0.00 in0.0 mm 0.17 in4.3 mm
06:12 PM 45.1°F7.3°C 22.0°F-5.6°C 40% 4.0 mph SSE6.4 kmh SSE 7.0 mph11.3 kmh 30.30 in1026.1 mb 0.00 in0.0 mm 0.00 in0.0 mm 0.17 in4.3 mm
06:13 PM 45.1°F7.3°C 22.0°F-5.6°C 40% 3.0 mph 4.8 kmh 6.0 mph9.7 kmh 30.30 in1026.1 mb 0.00 in0.0 mm 0.00 in0.0 mm 0.17 in4.3 mm
06:14 PM 45.1°F7.3°C 22.0°F-5.6°C 40% 4.0 mph SSE6.4 kmh SSE 6.0 mph9.7 kmh 30.30 in1026.1 mb 0.00 in0.0 mm 0.00 in0.0 mm 0.17 in4.3 mm
06:15 PM 45.1°F7.3°C 22.0°F-5.6°C 40% 5.0 mph SSE8.0 kmh SSE 6.0 mph9.7 kmh 30.30 in1026.1 mb 0.00 in0.0 mm 0.00 in0.0 mm 0.17 in4.3 mm
06:16 PM 45.1°F7.3°C 22.0°F-5.6°C 40% 2.0 mph SSE3.2 kmh SSE 6.0 mph9.7 kmh 30.30 in1026.1 mb 0.00 in0.0 mm 0.00 in0.0 mm 0.17 in4.3 mm
06:17 PM 44.9°F7.2°C 21.8°F-5.7°C 40% 3.0 mph SE4.8 kmh SE 6.0 mph9.7 kmh 30.30 in1026.1 mb 0.00 in0.0 mm 0.00 in0.0 mm 0.17 in4.3 mm
06:18 PM 44.9°F7.2°C 21.8°F-5.7°C 40% 3.0 mph SSE4.8 kmh SSE 6.0 mph9.7 kmh 30.30 in1026.1 mb 0.00 in0.0 mm 0.00 in0.0 mm 0.17 in4.3 mm
06:19 PM 44.9°F7.2°C 21.8°F-5.7°C 40% 3.0 mph SSE4.8 kmh SSE 6.0 mph9.7 kmh 30.31 in1026.4 mb 0.00 in0.0 mm 0.00 in0.0 mm 0.17 in4.3 mm
06:20 PM 44.9°F7.2°C 21.8°F-5.7°C 40% 2.0 mph SSE3.2 kmh SSE 6.0 mph9.7 kmh 30.30 in1026.1 mb 0.00 in0.0 mm 0.00 in0.0 mm 0.17 in4.3 mm
06:21 PM 44.9°F7.2°C 21.8°F-5.7°C 40% 2.0 mph SSE3.2 kmh SSE 6.0 mph9.7 kmh 30.30 in1026.1 mb 0.00 in0.0 mm 0.00 in0.0 mm 0.17 in4.3 mm
06:22 PM 44.9°F7.2°C 21.8°F-5.7°C 40% 5.0 mph E8.0 kmh E 6.0 mph9.7 kmh 30.30 in1026.1 mb 0.00 in0.0 mm 0.00 in0.0 mm 0.17 in4.3 mm
06:23 PM 44.7°F7.1°C 21.7°F-5.7°C 40% 2.0 mph SSE3.2 kmh SSE 6.0 mph9.7 kmh 30.30 in1026.1 mb 0.00 in0.0 mm 0.00 in0.0 mm 0.17 in4.3 mm
06:24 PM 44.7°F7.1°C 21.7°F-5.7°C 40% 2.0 mph SSE3.2 kmh SSE 6.0 mph9.7 kmh 30.30 in1026.1 mb 0.00 in0.0 mm 0.00 in0.0 mm 0.17 in4.3 mm
06:25 PM 44.7°F7.1°C 21.7°F-5.7°C 40% 5.0 mph SSE8.0 kmh SSE 5.0 mph8.0 kmh 30.31 in1026.4 mb 0.00 in0.0 mm 0.00 in0.0 mm 0.17 in4.3 mm
06:26 PM 44.7°F7.1°C 21.7°F-5.7°C 40% 5.0 mph SSE8.0 kmh SSE 5.0 mph8.0 kmh 30.31 in1026.4 mb 0.00 in0.0 mm 0.00 in0.0 mm 0.17 in4.3 mm
06:27 PM 44.7°F7.1°C 21.7°F-5.7°C 40% 6.0 mph SSE9.7 kmh SSE 6.0 mph9.7 kmh 30.31 in1026.4 mb 0.00 in0.0 mm 0.00 in0.0 mm 0.17 in4.3 mm
06:28 PM 44.6°F7.0°C 21.6°F-5.8°C 40% 5.0 mph SSE8.0 kmh SSE 6.0 mph9.7 kmh 30.31 in1026.4 mb 0.00 in0.0 mm 0.00 in0.0 mm 0.17 in4.3 mm
06:29 PM 44.6°F7.0°C 21.6°F-5.8°C 40% 5.0 mph SSW8.0 kmh SSW 6.0 mph9.7 kmh 30.30 in1026.1 mb 0.00 in0.0 mm 0.00 in0.0 mm 0.17 in4.3 mm
06:30 PM 44.6°F7.0°C 21.6°F-5.8°C 40% 4.0 mph S6.4 kmh S 6.0 mph9.7 kmh 30.30 in1026.1 mb 0.00 in0.0 mm 0.00 in0.0 mm 0.17 in4.3 mm
06:31 PM 44.6°F7.0°C 21.6°F-5.8°C 40% 3.0 mph S4.8 kmh S 6.0 mph9.7 kmh 30.30 in1026.1 mb 0.00 in0.0 mm 0.00 in0.0 mm 0.17 in4.3 mm
06:32 PM 44.6°F7.0°C 21.6°F-5.8°C 40% 2.0 mph S3.2 kmh S 6.0 mph9.7 kmh 30.31 in1026.4 mb 0.00 in0.0 mm 0.00 in0.0 mm 0.17 in4.3 mm
06:33 PM 44.6°F7.0°C 21.6°F-5.8°C 40% 2.0 mph S3.2 kmh S 6.0 mph9.7 kmh 30.30 in1026.1 mb 0.00 in0.0 mm 0.00 in0.0 mm 0.17 in4.3 mm
06:34 PM 44.6°F7.0°C 21.6°F-5.8°C 40% 3.0 mph SSW4.8 kmh SSW 6.0 mph9.7 kmh 30.30 in1026.1 mb 0.00 in0.0 mm 0.00 in0.0 mm 0.17 in4.3 mm
06:35 PM 44.6°F7.0°C 21.6°F-5.8°C 40% 3.0 mph SSW4.8 kmh SSW 6.0 mph9.7 kmh 30.30 in1026.1 mb 0.00 in0.0 mm 0.00 in0.0 mm 0.17 in4.3 mm
06:36 PM 44.6°F7.0°C 21.6°F-5.8°C 40% 1.0 mph E1.6 kmh E 6.0 mph9.7 kmh 30.30 in1026.1 mb 0.00 in0.0 mm 0.00 in0.0 mm 0.17 in4.3 mm
06:37 PM 44.4°F6.9°C 22.0°F-5.6°C 41% 1.0 mph E1.6 kmh E 6.0 mph9.7 kmh 30.30 in1026.1 mb 0.00 in0.0 mm 0.00 in0.0 mm 0.17 in4.3 mm
06:38 PM 44.4°F6.9°C 22.0°F-5.6°C 41% 8.0 mph SSW12.9 kmh SSW 8.0 mph12.9 kmh 30.30 in1026.1 mb 0.00 in0.0 mm 0.00 in0.0 mm 0.17 in4.3 mm
06:39 PM 44.4°F6.9°C 22.0°F-5.6°C 41% 5.0 mph ESE8.0 kmh ESE 8.0 mph12.9 kmh 30.30 in1026.1 mb 0.00 in0.0 mm 0.00 in0.0 mm 0.17 in4.3 mm
06:40 PM 44.4°F6.9°C 22.0°F-5.6°C 41% 5.0 mph ESE8.0 kmh ESE 8.0 mph12.9 kmh 30.30 in1026.1 mb 0.00 in0.0 mm 0.00 in0.0 mm 0.17 in4.3 mm
06:41 PM 44.2°F6.8°C 21.8°F-5.7°C 41% 4.0 mph ESE6.4 kmh ESE 8.0 mph12.9 kmh 30.30 in1026.1 mb 0.00 in0.0 mm 0.00 in0.0 mm 0.17 in4.3 mm
06:42 PM 44.2°F6.8°C 21.8°F-5.7°C 41% 4.0 mph ESE6.4 kmh ESE 8.0 mph12.9 kmh 30.30 in1026.1 mb 0.00 in0.0 mm 0.00 in0.0 mm 0.17 in4.3 mm
06:43 PM 44.2°F6.8°C 21.8°F-5.7°C 41% 2.0 mph SE3.2 kmh SE 8.0 mph12.9 kmh 30.30 in1026.1 mb 0.00 in0.0 mm 0.00 in0.0 mm 0.17 in4.3 mm
06:44 PM 44.0°F6.7°C 21.6°F-5.8°C 41% 2.0 mph SE3.2 kmh SE 8.0 mph12.9 kmh 30.30 in1026.1 mb 0.00 in0.0 mm 0.00 in0.0 mm 0.17 in4.3 mm
06:45 PM 44.0°F6.7°C 21.6°F-5.8°C 41% 4.0 mph SE6.4 kmh SE 8.0 mph12.9 kmh 30.30 in1026.1 mb 0.00 in0.0 mm 0.00 in0.0 mm 0.17 in4.3 mm
06:46 PM 44.0°F6.7°C 21.6°F-5.8°C 41% 2.0 mph ESE3.2 kmh ESE 8.0 mph12.9 kmh 30.30 in1026.1 mb 0.00 in0.0 mm 0.00 in0.0 mm 0.17 in4.3 mm
06:47 PM 44.0°F6.7°C 21.6°F-5.8°C 41% 2.0 mph ESE3.2 kmh ESE 8.0 mph12.9 kmh 30.30 in1026.1 mb 0.00 in0.0 mm 0.00 in0.0 mm 0.17 in4.3 mm
06:48 PM 43.8°F6.6°C 21.4°F-5.9°C 41% 2.0 mph ESE3.2 kmh ESE 5.0 mph8.0 kmh 30.30 in1026.1 mb 0.00 in0.0 mm 0.00 in0.0 mm 0.17 in4.3 mm
06:49 PM 43.8°F6.6°C 21.4°F-5.9°C 41% 4.0 mph SSE6.4 kmh SSE 4.0 mph6.4 kmh 30.30 in1026.1 mb 0.00 in0.0 mm 0.00 in0.0 mm 0.17 in4.3 mm
06:50 PM 43.8°F6.6°C 21.4°F-5.9°C 41% 3.0 mph SSW4.8 kmh SSW 4.0 mph6.4 kmh 30.31 in1026.4 mb 0.00 in0.0 mm 0.00 in0.0 mm 0.17 in4.3 mm
06:51 PM 43.6°F6.4°C 21.3°F-5.9°C 41% 1.0 mph S1.6 kmh S 4.0 mph6.4 kmh 30.31 in1026.4 mb 0.00 in0.0 mm 0.00 in0.0 mm 0.17 in4.3 mm
06:52 PM 43.6°F6.4°C 21.3°F-5.9°C 41% 2.0 mph SW3.2 kmh SW 4.0 mph6.4 kmh 30.30 in1026.1 mb 0.00 in0.0 mm 0.00 in0.0 mm 0.17 in4.3 mm
06:53 PM 43.6°F6.4°C 21.3°F-5.9°C 41% 2.0 mph SW3.2 kmh SW 4.0 mph6.4 kmh 30.30 in1026.1 mb 0.00 in0.0 mm 0.00 in0.0 mm 0.17 in4.3 mm
06:54 PM 43.6°F6.4°C 21.3°F-5.9°C 41% 5.0 mph SW8.0 kmh SW 5.0 mph8.0 kmh 30.31 in1026.4 mb 0.00 in0.0 mm 0.00 in0.0 mm 0.17 in4.3 mm
06:55 PM 43.5°F6.4°C 21.2°F-6.0°C 41% 2.0 mph SW3.2 kmh SW 5.0 mph8.0 kmh 30.31 in1026.4 mb 0.00 in0.0 mm 0.00 in0.0 mm 0.17 in4.3 mm
06:56 PM 43.5°F6.4°C 20.6°F-6.3°C 40% 2.0 mph SSE3.2 kmh SSE 5.0 mph8.0 kmh 30.31 in1026.4 mb 0.00 in0.0 mm 0.00 in0.0 mm 0.17 in4.3 mm
06:57 PM 43.5°F6.4°C 20.6°F-6.3°C 40% 4.0 mph S6.4 kmh S 5.0 mph8.0 kmh 30.31 in1026.4 mb 0.00 in0.0 mm 0.00 in0.0 mm 0.17 in4.3 mm
06:58 PM 43.3°F6.3°C 20.4°F-6.4°C 40% 3.0 mph SSE4.8 kmh SSE 5.0 mph8.0 kmh 30.30 in1026.1 mb 0.00 in0.0 mm 0.00 in0.0 mm 0.17 in4.3 mm
06:59 PM 43.3°F6.3°C 20.4°F-6.4°C 40% 3.0 mph SSE4.8 kmh SSE 5.0 mph8.0 kmh 30.31 in1026.4 mb 0.00 in0.0 mm 0.00 in0.0 mm 0.17 in4.3 mm
07:00 PM 43.3°F6.3°C 20.4°F-6.4°C 40% 3.0 mph S4.8 kmh S 5.0 mph8.0 kmh 30.31 in1026.4 mb 0.00 in0.0 mm 0.00 in0.0 mm 0.17 in4.3 mm
07:01 PM 43.3°F6.3°C 20.4°F-6.4°C 40% 3.0 mph ESE4.8 kmh ESE 5.0 mph8.0 kmh 30.31 in1026.4 mb 0.00 in0.0 mm 0.00 in0.0 mm 0.17 in4.3 mm
07:02 PM 43.1°F6.2°C 20.2°F-6.6°C 40% 4.0 mph WSW6.4 kmh WSW 6.0 mph9.7 kmh 30.31 in1026.4 mb 0.00 in0.0 mm 0.00 in0.0 mm 0.17 in4.3 mm
07:03 PM 43.1°F6.2°C 20.2°F-6.6°C 40% 4.0 mph SSE6.4 kmh SSE 6.0 mph9.7 kmh 30.31 in1026.4 mb 0.00 in0.0 mm 0.00 in0.0 mm 0.17 in4.3 mm
07:04 PM 43.1°F6.2°C 20.2°F-6.6°C 40% 3.0 mph S4.8 kmh S 6.0 mph9.7 kmh 30.31 in1026.4 mb 0.00 in0.0 mm 0.00 in0.0 mm 0.17 in4.3 mm
07:05 PM 43.1°F6.2°C 20.2°F-6.6°C 40% 2.0 mph SSW3.2 kmh SSW 6.0 mph9.7 kmh 30.31 in1026.4 mb 0.00 in0.0 mm 0.00 in0.0 mm 0.17 in4.3 mm
07:06 PM 42.9°F6.1°C 20.0°F-6.7°C 40% 3.0 mph 4.8 kmh 6.0 mph9.7 kmh 30.31 in1026.4 mb 0.00 in0.0 mm 0.00 in0.0 mm 0.17 in4.3 mm
07:07 PM 42.9°F6.1°C 20.0°F-6.7°C 40% 2.0 mph SE3.2 kmh SE 6.0 mph9.7 kmh 30.31 in1026.4 mb 0.00 in0.0 mm 0.00 in0.0 mm 0.17 in4.3 mm
07:08 PM 42.9°F6.1°C 20.0°F-6.7°C 40% 1.0 mph S1.6 kmh S 6.0 mph9.7 kmh 30.31 in1026.4 mb 0.00 in0.0 mm 0.00 in0.0 mm 0.17 in4.3 mm
07:09 PM 42.7°F5.9°C 19.8°F-6.8°C 40% 1.0 mph S1.6 kmh S 6.0 mph9.7 kmh 30.31 in1026.4 mb 0.00 in0.0 mm 0.00 in0.0 mm 0.17 in4.3 mm
07:10 PM 42.7°F5.9°C 19.8°F-6.8°C 40% Calm Calm 6.0 mph9.7 kmh 30.31 in1026.4 mb 0.00 in0.0 mm 0.00 in0.0 mm 0.17 in4.3 mm
07:11 PM 42.7°F5.9°C 19.8°F-6.8°C 40% Calm Calm 6.0 mph9.7 kmh 30.31 in1026.4 mb 0.00 in0.0 mm 0.00 in0.0 mm 0.17 in4.3 mm
07:12 PM 42.7°F5.9°C 19.8°F-6.8°C 40% 2.0 mph S3.2 kmh S 5.0 mph8.0 kmh 30.31 in1026.4 mb 0.00 in0.0 mm 0.00 in0.0 mm 0.17 in4.3 mm
07:13 PM 42.7°F5.9°C 19.8°F-6.8°C 40% 2.0 mph S3.2 kmh S 5.0 mph8.0 kmh 30.31 in1026.4 mb 0.00 in0.0 mm 0.00 in0.0 mm 0.17 in4.3 mm
07:14 PM 42.6°F5.9°C 20.3°F-6.5°C 41% 1.0 mph SW1.6 kmh SW 5.0 mph8.0 kmh 30.31 in1026.4 mb 0.00 in0.0 mm 0.00 in0.0 mm 0.17 in4.3 mm
07:15 PM 42.6°F5.9°C 20.3°F-6.5°C 41% 1.0 mph S1.6 kmh S 5.0 mph8.0 kmh 30.31 in1026.4 mb 0.00 in0.0 mm 0.00 in0.0 mm 0.17 in4.3 mm
07:16 PM 42.6°F5.9°C 20.3°F-6.5°C 41% Calm Calm 3.0 mph4.8 kmh 30.31 in1026.4 mb 0.00 in0.0 mm 0.00 in0.0 mm 0.17 in4.3 mm
07:17 PM 42.6°F5.9°C 20.3°F-6.5°C 41% Calm Calm 3.0 mph4.8 kmh 30.31 in1026.4 mb 0.00 in0.0 mm 0.00 in0.0 mm 0.17 in4.3 mm
07:18 PM 42.6°F5.9°C 20.3°F-6.5°C 41% Calm Calm 3.0 mph4.8 kmh 30.31 in1026.4 mb 0.00 in0.0 mm 0.00 in0.0 mm 0.17 in4.3 mm
07:19 PM 42.4°F5.8°C 20.2°F-6.6°C 41% 1.0 mph SSW1.6 kmh SSW 3.0 mph4.8 kmh 30.31 in1026.4 mb 0.00 in0.0 mm 0.00 in0.0 mm 0.17 in4.3 mm
07:20 PM 42.4°F5.8°C 20.2°F-6.6°C 41% Calm Calm 3.0 mph4.8 kmh 30.31 in1026.4 mb 0.00 in0.0 mm 0.00 in0.0 mm 0.17 in4.3 mm
07:21 PM 42.4°F5.8°C 20.2°F-6.6°C 41% 1.0 mph SW1.6 kmh SW 3.0 mph4.8 kmh 30.31 in1026.4 mb 0.00 in0.0 mm 0.00 in0.0 mm 0.17 in4.3 mm
07:22 PM 42.4°F5.8°C 20.2°F-6.6°C 41% 2.0 mph S3.2 kmh S 3.0 mph4.8 kmh 30.32 in1026.8 mb 0.00 in0.0 mm 0.00 in0.0 mm 0.17 in4.3 mm
07:23 PM 42.2°F5.7°C 20.0°F-6.7°C 41% 1.0 mph S1.6 kmh S 3.0 mph4.8 kmh 30.32 in1026.8 mb 0.00 in0.0 mm 0.00 in0.0 mm 0.17 in4.3 mm
07:24 PM 42.0°F5.6°C 19.8°F-6.8°C 41% 1.0 mph S1.6 kmh S 3.0 mph4.8 kmh 30.32 in1026.8 mb 0.00 in0.0 mm 0.00 in0.0 mm 0.17 in4.3 mm
07:25 PM 42.0°F5.6°C 19.8°F-6.8°C 41% Calm Calm 2.0 mph3.2 kmh 30.31 in1026.4 mb 0.00 in0.0 mm 0.00 in0.0 mm 0.17 in4.3 mm
07:26 PM 42.0°F5.6°C 19.8°F-6.8°C 41% 1.0 mph ESE1.6 kmh ESE 2.0 mph3.2 kmh 30.31 in1026.4 mb 0.00 in0.0 mm 0.00 in0.0 mm 0.17 in4.3 mm
07:27 PM 42.0°F5.6°C 19.8°F-6.8°C 41% 2.0 mph S3.2 kmh S 2.0 mph3.2 kmh 30.31 in1026.4 mb 0.00 in0.0 mm 0.00 in0.0 mm 0.17 in4.3 mm
07:28 PM 41.9°F5.5°C 19.7°F-6.8°C 41% Calm Calm 2.0 mph3.2 kmh 30.31 in1026.4 mb 0.00 in0.0 mm 0.00 in0.0 mm 0.17 in4.3 mm
07:29 PM 41.9°F5.5°C 19.7°F-6.8°C 41% Calm Calm 2.0 mph3.2 kmh 30.31 in1026.4 mb 0.00 in0.0 mm 0.00 in0.0 mm 0.17 in4.3 mm
07:30 PM 41.9°F5.5°C 19.7°F-6.8°C 41% 1.0 mph S1.6 kmh S 2.0 mph3.2 kmh 30.31 in1026.4 mb 0.00 in0.0 mm 0.00 in0.0 mm 0.17 in4.3 mm
07:31 PM 41.7°F5.4°C 19.5°F-6.9°C 41% Calm Calm 2.0 mph3.2 kmh 30.31 in1026.4 mb 0.00 in0.0 mm 0.00 in0.0 mm 0.17 in4.3 mm
07:32 PM 41.7°F5.4°C 19.5°F-6.9°C 41% 2.0 mph S3.2 kmh S 2.0 mph3.2 kmh 30.31 in1026.4 mb 0.00 in0.0 mm 0.00 in0.0 mm 0.17 in4.3 mm
07:33 PM 41.5°F5.3°C 19.4°F-7.0°C 41% 1.0 mph S1.6 kmh S 2.0 mph3.2 kmh 30.32 in1026.8 mb 0.00 in0.0 mm 0.00 in0.0 mm 0.17 in4.3 mm
07:34 PM 41.5°F5.3°C 19.4°F-7.0°C 41% 1.0 mph S1.6 kmh S 2.0 mph3.2 kmh 30.32 in1026.8 mb 0.00 in0.0 mm 0.00 in0.0 mm 0.17 in4.3 mm
07:35 PM 41.5°F5.3°C 19.4°F-7.0°C 41% 1.0 mph SSW1.6 kmh SSW 2.0 mph3.2 kmh 30.32 in1026.8 mb 0.00 in0.0 mm 0.00 in0.0 mm 0.17 in4.3 mm
07:36 PM 41.3°F5.2°C 19.2°F-7.1°C 41% 1.0 mph S1.6 kmh S 2.0 mph3.2 kmh 30.31 in1026.4 mb 0.00 in0.0 mm 0.00 in0.0 mm 0.17 in4.3 mm
07:37 PM 41.3°F5.2°C 19.2°F-7.1°C 41% 1.0 mph S1.6 kmh S 2.0 mph3.2 kmh 30.31 in1026.4 mb 0.00 in0.0 mm 0.00 in0.0 mm 0.17 in4.3 mm
07:38 PM 41.3°F5.2°C 19.2°F-7.1°C 41% 1.0 mph S1.6 kmh S 2.0 mph3.2 kmh 30.32 in1026.8 mb 0.00 in0.0 mm 0.00 in0.0 mm 0.17 in4.3 mm
07:39 PM 41.1°F5.1°C 19.0°F-7.2°C 41% 2.0 mph SSE3.2 kmh SSE 2.0 mph3.2 kmh 30.32 in1026.8 mb 0.00 in0.0 mm 0.00 in0.0 mm 0.17 in4.3 mm
07:40 PM 41.1°F5.1°C 19.0°F-7.2°C 41% 1.0 mph SSE1.6 kmh SSE 2.0 mph3.2 kmh 30.31 in1026.4 mb 0.00 in0.0 mm 0.00 in0.0 mm 0.17 in4.3 mm
07:41 PM 41.1°F5.1°C 19.0°F-7.2°C 41% Calm Calm 2.0 mph3.2 kmh 30.31 in1026.4 mb 0.00 in0.0 mm 0.00 in0.0 mm 0.17 in4.3 mm
07:42 PM 40.9°F4.9°C 18.8°F-7.3°C 41% 1.0 mph SSE1.6 kmh SSE 2.0 mph3.2 kmh 30.32 in1026.8 mb 0.00 in0.0 mm 0.00 in0.0 mm 0.17 in4.3 mm
07:43 PM 40.9°F4.9°C 18.8°F-7.3°C 41% 1.0 mph SE1.6 kmh SE 2.0 mph3.2 kmh 30.32 in1026.8 mb 0.00 in0.0 mm 0.00 in0.0 mm 0.17 in4.3 mm
07:44 PM 40.9°F4.9°C 18.8°F-7.3°C 41% 1.0 mph SE1.6 kmh SE 2.0 mph3.2 kmh 30.32 in1026.8 mb 0.00 in0.0 mm 0.00 in0.0 mm 0.17 in4.3 mm
07:45 PM 40.9°F4.9°C 18.8°F-7.3°C 41% 1.0 mph SE1.6 kmh SE 2.0 mph3.2 kmh 30.32 in1026.8 mb 0.00 in0.0 mm 0.00 in0.0 mm 0.17 in4.3 mm
07:46 PM 40.9°F4.9°C 18.8°F-7.3°C 41% 1.0 mph SSW1.6 kmh SSW 2.0 mph3.2 kmh 30.32 in1026.8 mb 0.00 in0.0 mm 0.00 in0.0 mm 0.17 in4.3 mm
07:47 PM 40.9°F4.9°C 18.8°F-7.3°C 41% 1.0 mph SSW1.6 kmh SSW 2.0 mph3.2 kmh 30.32 in1026.8 mb 0.00 in0.0 mm 0.00 in0.0 mm